<?xml version="1.0" encoding="UTF-8" standalone="no" ?>
<gpx xmlns="http://www.topografix.com/GPX/1/1" xmlns:xsi="http://www.w3.org/2001/XMLSchema-instance" xsi:schemaLocation="http://www.topografix.com/GPX/1/1 http://www.topografix.com/GPX/1/1/gpx.xsd" version="1.1" creator="VisuGPX - https://www.visugpx.com">
  <metadata>
    <name>Cabrières-d'Avignon Trail</name>
  </metadata>
  <trk>
    <name><![CDATA[Cabrières-d'Avignon Trail_1]]></name>
    <trkseg>
      <trkpt lat="43.89731" lon="5.15434">
        <ele>216.6</ele>
        <time>2023-02-25T08:08:20Z</time>
      </trkpt>
      <trkpt lat="43.89736" lon="5.15442">
        <ele>216.4</ele>
        <time>2023-02-25T08:08:28Z</time>
      </trkpt>
      <trkpt lat="43.89738" lon="5.15448">
        <ele>216.6</ele>
        <time>2023-02-25T08:08:31Z</time>
      </trkpt>
      <trkpt lat="43.89737" lon="5.15455">
        <ele>216.6</ele>
        <time>2023-02-25T08:08:34Z</time>
      </trkpt>
      <trkpt lat="43.89736" lon="5.15458">
        <ele>216.6</ele>
        <time>2023-02-25T08:08:36Z</time>
      </trkpt>
      <trkpt lat="43.89739" lon="5.15466">
        <ele>216.4</ele>
        <time>2023-02-25T08:08:40Z</time>
      </trkpt>
      <trkpt lat="43.89744" lon="5.15475">
        <ele>216.6</ele>
        <time>2023-02-25T08:08:48Z</time>
      </trkpt>
      <trkpt lat="43.89755" lon="5.15489">
        <ele>217.6</ele>
        <time>2023-02-25T08:08:57Z</time>
      </trkpt>
      <trkpt lat="43.89757" lon="5.15489">
        <ele>218</ele>
        <time>2023-02-25T08:09:02Z</time>
      </trkpt>
      <trkpt lat="43.89758" lon="5.15489">
        <ele>218</ele>
        <time>2023-02-25T08:09:03Z</time>
      </trkpt>
      <trkpt lat="43.89766" lon="5.15495">
        <ele>218.6</ele>
        <time>2023-02-25T08:09:08Z</time>
      </trkpt>
      <trkpt lat="43.89772" lon="5.15498">
        <ele>218.8</ele>
        <time>2023-02-25T08:09:12Z</time>
      </trkpt>
      <trkpt lat="43.89773" lon="5.155">
        <ele>219</ele>
        <time>2023-02-25T08:09:13Z</time>
      </trkpt>
      <trkpt lat="43.89774" lon="5.15505">
        <ele>219.6</ele>
        <time>2023-02-25T08:09:16Z</time>
      </trkpt>
      <trkpt lat="43.89774" lon="5.15507">
        <ele>219.6</ele>
        <time>2023-02-25T08:09:17Z</time>
      </trkpt>
      <trkpt lat="43.89774" lon="5.15511">
        <ele>219.8</ele>
        <time>2023-02-25T08:09:19Z</time>
      </trkpt>
      <trkpt lat="43.89774" lon="5.15517">
        <ele>219.6</ele>
        <time>2023-02-25T08:09:23Z</time>
      </trkpt>
      <trkpt lat="43.89771" lon="5.15523">
        <ele>219.6</ele>
        <time>2023-02-25T08:09:27Z</time>
      </trkpt>
      <trkpt lat="43.89771" lon="5.15528">
        <ele>219.6</ele>
        <time>2023-02-25T08:09:29Z</time>
      </trkpt>
      <trkpt lat="43.8977" lon="5.15549">
        <ele>219.2</ele>
        <time>2023-02-25T08:09:38Z</time>
      </trkpt>
      <trkpt lat="43.89772" lon="5.15551">
        <ele>219.2</ele>
        <time>2023-02-25T08:09:40Z</time>
      </trkpt>
      <trkpt lat="43.89772" lon="5.15558">
        <ele>219.2</ele>
        <time>2023-02-25T08:09:45Z</time>
      </trkpt>
      <trkpt lat="43.89771" lon="5.15562">
        <ele>219.2</ele>
        <time>2023-02-25T08:09:46Z</time>
      </trkpt>
      <trkpt lat="43.89764" lon="5.15574">
        <ele>218.8</ele>
        <time>2023-02-25T08:09:52Z</time>
      </trkpt>
      <trkpt lat="43.89761" lon="5.15579">
        <ele>218.6</ele>
        <time>2023-02-25T08:09:55Z</time>
      </trkpt>
      <trkpt lat="43.89759" lon="5.15588">
        <ele>218.2</ele>
        <time>2023-02-25T08:09:59Z</time>
      </trkpt>
      <trkpt lat="43.89755" lon="5.15599">
        <ele>217.6</ele>
        <time>2023-02-25T08:10:05Z</time>
      </trkpt>
      <trkpt lat="43.89755" lon="5.156">
        <ele>217.4</ele>
        <time>2023-02-25T08:10:07Z</time>
      </trkpt>
      <trkpt lat="43.89756" lon="5.15595">
        <ele>217.4</ele>
        <time>2023-02-25T08:10:14Z</time>
      </trkpt>
      <trkpt lat="43.89757" lon="5.15595">
        <ele>217.4</ele>
        <time>2023-02-25T08:10:24Z</time>
      </trkpt>
      <trkpt lat="43.89761" lon="5.15612">
        <ele>217.2</ele>
        <time>2023-02-25T08:10:31Z</time>
      </trkpt>
      <trkpt lat="43.89762" lon="5.15615">
        <ele>217.2</ele>
        <time>2023-02-25T08:10:32Z</time>
      </trkpt>
      <trkpt lat="43.89768" lon="5.15633">
        <ele>217.4</ele>
        <time>2023-02-25T08:10:40Z</time>
      </trkpt>
      <trkpt lat="43.89775" lon="5.15654">
        <ele>217.8</ele>
        <time>2023-02-25T08:10:50Z</time>
      </trkpt>
      <trkpt lat="43.89781" lon="5.1567">
        <ele>217.8</ele>
        <time>2023-02-25T08:10:59Z</time>
      </trkpt>
      <trkpt lat="43.89784" lon="5.15688">
        <ele>217.6</ele>
        <time>2023-02-25T08:11:07Z</time>
      </trkpt>
      <trkpt lat="43.89784" lon="5.15691">
        <ele>217.6</ele>
        <time>2023-02-25T08:11:08Z</time>
      </trkpt>
      <trkpt lat="43.89789" lon="5.15701">
        <ele>217.4</ele>
        <time>2023-02-25T08:11:13Z</time>
      </trkpt>
      <trkpt lat="43.89793" lon="5.15727">
        <ele>216.8</ele>
        <time>2023-02-25T08:11:24Z</time>
      </trkpt>
      <trkpt lat="43.89793" lon="5.15729">
        <ele>216.6</ele>
        <time>2023-02-25T08:11:25Z</time>
      </trkpt>
      <trkpt lat="43.89793" lon="5.15732">
        <ele>216.6</ele>
        <time>2023-02-25T08:11:27Z</time>
      </trkpt>
      <trkpt lat="43.89792" lon="5.15746">
        <ele>215.6</ele>
        <time>2023-02-25T08:11:33Z</time>
      </trkpt>
      <trkpt lat="43.89792" lon="5.15749">
        <ele>215.4</ele>
        <time>2023-02-25T08:11:34Z</time>
      </trkpt>
      <trkpt lat="43.89789" lon="5.15758">
        <ele>214.4</ele>
        <time>2023-02-25T08:11:38Z</time>
      </trkpt>
      <trkpt lat="43.89787" lon="5.15769">
        <ele>213.6</ele>
        <time>2023-02-25T08:11:43Z</time>
      </trkpt>
      <trkpt lat="43.89787" lon="5.15776">
        <ele>213.4</ele>
        <time>2023-02-25T08:11:46Z</time>
      </trkpt>
      <trkpt lat="43.89788" lon="5.15784">
        <ele>213</ele>
        <time>2023-02-25T08:11:49Z</time>
      </trkpt>
      <trkpt lat="43.89789" lon="5.15799">
        <ele>212.6</ele>
        <time>2023-02-25T08:11:55Z</time>
      </trkpt>
      <trkpt lat="43.89792" lon="5.1581">
        <ele>212.4</ele>
        <time>2023-02-25T08:12:00Z</time>
      </trkpt>
      <trkpt lat="43.89792" lon="5.15821">
        <ele>212.2</ele>
        <time>2023-02-25T08:12:04Z</time>
      </trkpt>
      <trkpt lat="43.89801" lon="5.15836">
        <ele>212.6</ele>
        <time>2023-02-25T08:12:12Z</time>
      </trkpt>
      <trkpt lat="43.89807" lon="5.15846">
        <ele>212.4</ele>
        <time>2023-02-25T08:12:17Z</time>
      </trkpt>
      <trkpt lat="43.89809" lon="5.15851">
        <ele>212.2</ele>
        <time>2023-02-25T08:12:19Z</time>
      </trkpt>
      <trkpt lat="43.89806" lon="5.15867">
        <ele>212.2</ele>
        <time>2023-02-25T08:12:25Z</time>
      </trkpt>
      <trkpt lat="43.89798" lon="5.15883">
        <ele>211.2</ele>
        <time>2023-02-25T08:12:32Z</time>
      </trkpt>
      <trkpt lat="43.89796" lon="5.15893">
        <ele>210.4</ele>
        <time>2023-02-25T08:12:36Z</time>
      </trkpt>
      <trkpt lat="43.89796" lon="5.15897">
        <ele>210.2</ele>
        <time>2023-02-25T08:12:38Z</time>
      </trkpt>
      <trkpt lat="43.89797" lon="5.15899">
        <ele>210.2</ele>
        <time>2023-02-25T08:12:39Z</time>
      </trkpt>
      <trkpt lat="43.89804" lon="5.15911">
        <ele>210.4</ele>
        <time>2023-02-25T08:12:46Z</time>
      </trkpt>
      <trkpt lat="43.8981" lon="5.15928">
        <ele>210</ele>
        <time>2023-02-25T08:12:54Z</time>
      </trkpt>
      <trkpt lat="43.89811" lon="5.1595">
        <ele>209.6</ele>
        <time>2023-02-25T08:13:03Z</time>
      </trkpt>
      <trkpt lat="43.89809" lon="5.1597">
        <ele>209.2</ele>
        <time>2023-02-25T08:13:11Z</time>
      </trkpt>
      <trkpt lat="43.89814" lon="5.15985">
        <ele>209.8</ele>
        <time>2023-02-25T08:13:18Z</time>
      </trkpt>
      <trkpt lat="43.89819" lon="5.16008">
        <ele>209.6</ele>
        <time>2023-02-25T08:13:28Z</time>
      </trkpt>
      <trkpt lat="43.89821" lon="5.16017">
        <ele>209.8</ele>
        <time>2023-02-25T08:13:32Z</time>
      </trkpt>
      <trkpt lat="43.89821" lon="5.16025">
        <ele>209.8</ele>
        <time>2023-02-25T08:13:35Z</time>
      </trkpt>
      <trkpt lat="43.89822" lon="5.16044">
        <ele>209.8</ele>
        <time>2023-02-25T08:13:44Z</time>
      </trkpt>
      <trkpt lat="43.89827" lon="5.16058">
        <ele>210</ele>
        <time>2023-02-25T08:13:51Z</time>
      </trkpt>
      <trkpt lat="43.89839" lon="5.16072">
        <ele>210.6</ele>
        <time>2023-02-25T08:14:01Z</time>
      </trkpt>
      <trkpt lat="43.89843" lon="5.1608">
        <ele>211.2</ele>
        <time>2023-02-25T08:14:06Z</time>
      </trkpt>
      <trkpt lat="43.89845" lon="5.16081">
        <ele>211.4</ele>
        <time>2023-02-25T08:14:08Z</time>
      </trkpt>
      <trkpt lat="43.89846" lon="5.16081">
        <ele>211.4</ele>
        <time>2023-02-25T08:14:09Z</time>
      </trkpt>
      <trkpt lat="43.89854" lon="5.16075">
        <ele>212.2</ele>
        <time>2023-02-25T08:14:16Z</time>
      </trkpt>
      <trkpt lat="43.89855" lon="5.16074">
        <ele>212.4</ele>
        <time>2023-02-25T08:14:17Z</time>
      </trkpt>
      <trkpt lat="43.89864" lon="5.16062">
        <ele>213.2</ele>
        <time>2023-02-25T08:14:26Z</time>
      </trkpt>
      <trkpt lat="43.89865" lon="5.16061">
        <ele>213.2</ele>
        <time>2023-02-25T08:14:27Z</time>
      </trkpt>
      <trkpt lat="43.89873" lon="5.16045">
        <ele>214.2</ele>
        <time>2023-02-25T08:14:37Z</time>
      </trkpt>
      <trkpt lat="43.89874" lon="5.16044">
        <ele>214.4</ele>
        <time>2023-02-25T08:14:38Z</time>
      </trkpt>
      <trkpt lat="43.89879" lon="5.16037">
        <ele>214.8</ele>
        <time>2023-02-25T08:14:43Z</time>
      </trkpt>
      <trkpt lat="43.8988" lon="5.16035">
        <ele>215.2</ele>
        <time>2023-02-25T08:14:45Z</time>
      </trkpt>
      <trkpt lat="43.89881" lon="5.16033">
        <ele>215.4</ele>
        <time>2023-02-25T08:14:46Z</time>
      </trkpt>
      <trkpt lat="43.89884" lon="5.16022">
        <ele>216.2</ele>
        <time>2023-02-25T08:14:52Z</time>
      </trkpt>
      <trkpt lat="43.89885" lon="5.16021">
        <ele>216.2</ele>
        <time>2023-02-25T08:14:53Z</time>
      </trkpt>
      <trkpt lat="43.89886" lon="5.16019">
        <ele>216.4</ele>
        <time>2023-02-25T08:14:54Z</time>
      </trkpt>
      <trkpt lat="43.89891" lon="5.1601">
        <ele>217</ele>
        <time>2023-02-25T08:14:59Z</time>
      </trkpt>
      <trkpt lat="43.89896" lon="5.16005">
        <ele>217.6</ele>
        <time>2023-02-25T08:15:03Z</time>
      </trkpt>
      <trkpt lat="43.89897" lon="5.16003">
        <ele>217.6</ele>
        <time>2023-02-25T08:15:04Z</time>
      </trkpt>
      <trkpt lat="43.89902" lon="5.15999">
        <ele>218.2</ele>
        <time>2023-02-25T08:15:08Z</time>
      </trkpt>
      <trkpt lat="43.89907" lon="5.15996">
        <ele>218.6</ele>
        <time>2023-02-25T08:15:12Z</time>
      </trkpt>
      <trkpt lat="43.89909" lon="5.15995">
        <ele>218.6</ele>
        <time>2023-02-25T08:15:13Z</time>
      </trkpt>
      <trkpt lat="43.8991" lon="5.15995">
        <ele>218.8</ele>
        <time>2023-02-25T08:15:14Z</time>
      </trkpt>
      <trkpt lat="43.89911" lon="5.15994">
        <ele>219</ele>
        <time>2023-02-25T08:15:15Z</time>
      </trkpt>
      <trkpt lat="43.89916" lon="5.15988">
        <ele>219.2</ele>
        <time>2023-02-25T08:15:20Z</time>
      </trkpt>
      <trkpt lat="43.89918" lon="5.1598">
        <ele>219.6</ele>
        <time>2023-02-25T08:15:24Z</time>
      </trkpt>
      <trkpt lat="43.89919" lon="5.15975">
        <ele>219.6</ele>
        <time>2023-02-25T08:15:27Z</time>
      </trkpt>
      <trkpt lat="43.89924" lon="5.15965">
        <ele>220.4</ele>
        <time>2023-02-25T08:15:32Z</time>
      </trkpt>
      <trkpt lat="43.89926" lon="5.15963">
        <ele>220.6</ele>
        <time>2023-02-25T08:15:34Z</time>
      </trkpt>
      <trkpt lat="43.89929" lon="5.15963">
        <ele>220.8</ele>
        <time>2023-02-25T08:15:36Z</time>
      </trkpt>
      <trkpt lat="43.89938" lon="5.15966">
        <ele>221.4</ele>
        <time>2023-02-25T08:15:41Z</time>
      </trkpt>
      <trkpt lat="43.89942" lon="5.15967">
        <ele>221.8</ele>
        <time>2023-02-25T08:15:45Z</time>
      </trkpt>
      <trkpt lat="43.89945" lon="5.15967">
        <ele>222.2</ele>
        <time>2023-02-25T08:15:46Z</time>
      </trkpt>
      <trkpt lat="43.89947" lon="5.15966">
        <ele>222.4</ele>
        <time>2023-02-25T08:15:49Z</time>
      </trkpt>
      <trkpt lat="43.89951" lon="5.15964">
        <ele>223</ele>
        <time>2023-02-25T08:15:52Z</time>
      </trkpt>
      <trkpt lat="43.89957" lon="5.15963">
        <ele>223.6</ele>
        <time>2023-02-25T08:15:56Z</time>
      </trkpt>
      <trkpt lat="43.89959" lon="5.15964">
        <ele>223.8</ele>
        <time>2023-02-25T08:15:57Z</time>
      </trkpt>
      <trkpt lat="43.89962" lon="5.15964">
        <ele>224</ele>
        <time>2023-02-25T08:15:59Z</time>
      </trkpt>
      <trkpt lat="43.89972" lon="5.15967">
        <ele>225.2</ele>
        <time>2023-02-25T08:16:06Z</time>
      </trkpt>
      <trkpt lat="43.89974" lon="5.15968">
        <ele>225.2</ele>
        <time>2023-02-25T08:16:07Z</time>
      </trkpt>
      <trkpt lat="43.89984" lon="5.15974">
        <ele>226.2</ele>
        <time>2023-02-25T08:16:14Z</time>
      </trkpt>
      <trkpt lat="43.89987" lon="5.15976">
        <ele>226.4</ele>
        <time>2023-02-25T08:16:16Z</time>
      </trkpt>
      <trkpt lat="43.89996" lon="5.1598">
        <ele>227.4</ele>
        <time>2023-02-25T08:16:23Z</time>
      </trkpt>
      <trkpt lat="43.90001" lon="5.15983">
        <ele>227.8</ele>
        <time>2023-02-25T08:16:27Z</time>
      </trkpt>
      <trkpt lat="43.90002" lon="5.15983">
        <ele>228</ele>
        <time>2023-02-25T08:16:28Z</time>
      </trkpt>
      <trkpt lat="43.90008" lon="5.15982">
        <ele>228.4</ele>
        <time>2023-02-25T08:16:32Z</time>
      </trkpt>
      <trkpt lat="43.90009" lon="5.15982">
        <ele>228.6</ele>
        <time>2023-02-25T08:16:33Z</time>
      </trkpt>
      <trkpt lat="43.90021" lon="5.15988">
        <ele>229.4</ele>
        <time>2023-02-25T08:16:41Z</time>
      </trkpt>
      <trkpt lat="43.90021" lon="5.15989">
        <ele>229.4</ele>
        <time>2023-02-25T08:16:42Z</time>
      </trkpt>
      <trkpt lat="43.90029" lon="5.15998">
        <ele>229.6</ele>
        <time>2023-02-25T08:16:49Z</time>
      </trkpt>
      <trkpt lat="43.90044" lon="5.16013">
        <ele>230</ele>
        <time>2023-02-25T08:17:00Z</time>
      </trkpt>
      <trkpt lat="43.90053" lon="5.16021">
        <ele>230.4</ele>
        <time>2023-02-25T08:17:07Z</time>
      </trkpt>
      <trkpt lat="43.90054" lon="5.16023">
        <ele>230.4</ele>
        <time>2023-02-25T08:17:09Z</time>
      </trkpt>
      <trkpt lat="43.90067" lon="5.16036">
        <ele>231</ele>
        <time>2023-02-25T08:17:18Z</time>
      </trkpt>
      <trkpt lat="43.90072" lon="5.1604">
        <ele>231.2</ele>
        <time>2023-02-25T08:17:21Z</time>
      </trkpt>
      <trkpt lat="43.90075" lon="5.16042">
        <ele>231.4</ele>
        <time>2023-02-25T08:17:23Z</time>
      </trkpt>
      <trkpt lat="43.90079" lon="5.16047">
        <ele>231.6</ele>
        <time>2023-02-25T08:17:26Z</time>
      </trkpt>
      <trkpt lat="43.90089" lon="5.16058">
        <ele>232.2</ele>
        <time>2023-02-25T08:17:36Z</time>
      </trkpt>
      <trkpt lat="43.90091" lon="5.16061">
        <ele>232.2</ele>
        <time>2023-02-25T08:17:38Z</time>
      </trkpt>
      <trkpt lat="43.90095" lon="5.16067">
        <ele>232.4</ele>
        <time>2023-02-25T08:17:41Z</time>
      </trkpt>
      <trkpt lat="43.90098" lon="5.16069">
        <ele>232.4</ele>
        <time>2023-02-25T08:17:43Z</time>
      </trkpt>
      <trkpt lat="43.90102" lon="5.16071">
        <ele>232.8</ele>
        <time>2023-02-25T08:17:46Z</time>
      </trkpt>
      <trkpt lat="43.90103" lon="5.16072">
        <ele>232.8</ele>
        <time>2023-02-25T08:17:47Z</time>
      </trkpt>
      <trkpt lat="43.90112" lon="5.16083">
        <ele>233.4</ele>
        <time>2023-02-25T08:17:54Z</time>
      </trkpt>
      <trkpt lat="43.90113" lon="5.16084">
        <ele>233.6</ele>
        <time>2023-02-25T08:17:55Z</time>
      </trkpt>
      <trkpt lat="43.90121" lon="5.16094">
        <ele>234</ele>
        <time>2023-02-25T08:18:02Z</time>
      </trkpt>
      <trkpt lat="43.90131" lon="5.16108">
        <ele>234.4</ele>
        <time>2023-02-25T08:18:11Z</time>
      </trkpt>
      <trkpt lat="43.90135" lon="5.1611">
        <ele>234.6</ele>
        <time>2023-02-25T08:18:14Z</time>
      </trkpt>
      <trkpt lat="43.90142" lon="5.16109">
        <ele>234.6</ele>
        <time>2023-02-25T08:18:18Z</time>
      </trkpt>
      <trkpt lat="43.90149" lon="5.16104">
        <ele>235.6</ele>
        <time>2023-02-25T08:18:23Z</time>
      </trkpt>
      <trkpt lat="43.90153" lon="5.16103">
        <ele>235.8</ele>
        <time>2023-02-25T08:18:25Z</time>
      </trkpt>
      <trkpt lat="43.90159" lon="5.16108">
        <ele>236.6</ele>
        <time>2023-02-25T08:18:31Z</time>
      </trkpt>
      <trkpt lat="43.90172" lon="5.16118">
        <ele>237.4</ele>
        <time>2023-02-25T08:18:41Z</time>
      </trkpt>
      <trkpt lat="43.90177" lon="5.16124">
        <ele>237.6</ele>
        <time>2023-02-25T08:18:45Z</time>
      </trkpt>
      <trkpt lat="43.90188" lon="5.16137">
        <ele>237.6</ele>
        <time>2023-02-25T08:18:53Z</time>
      </trkpt>
      <trkpt lat="43.90197" lon="5.16149">
        <ele>237.8</ele>
        <time>2023-02-25T08:19:01Z</time>
      </trkpt>
      <trkpt lat="43.90197" lon="5.16151">
        <ele>237.8</ele>
        <time>2023-02-25T08:19:02Z</time>
      </trkpt>
      <trkpt lat="43.90199" lon="5.16154">
        <ele>237.8</ele>
        <time>2023-02-25T08:19:04Z</time>
      </trkpt>
      <trkpt lat="43.90201" lon="5.16156">
        <ele>238</ele>
        <time>2023-02-25T08:19:06Z</time>
      </trkpt>
      <trkpt lat="43.90203" lon="5.16156">
        <ele>238</ele>
        <time>2023-02-25T08:19:07Z</time>
      </trkpt>
      <trkpt lat="43.9021" lon="5.16161">
        <ele>238</ele>
        <time>2023-02-25T08:19:12Z</time>
      </trkpt>
      <trkpt lat="43.90215" lon="5.16165">
        <ele>238.2</ele>
        <time>2023-02-25T08:19:16Z</time>
      </trkpt>
      <trkpt lat="43.90222" lon="5.16167">
        <ele>238.8</ele>
        <time>2023-02-25T08:19:21Z</time>
      </trkpt>
      <trkpt lat="43.90227" lon="5.16169">
        <ele>238.8</ele>
        <time>2023-02-25T08:19:24Z</time>
      </trkpt>
      <trkpt lat="43.90236" lon="5.16173">
        <ele>239.6</ele>
        <time>2023-02-25T08:19:31Z</time>
      </trkpt>
      <trkpt lat="43.90239" lon="5.16173">
        <ele>239.8</ele>
        <time>2023-02-25T08:19:33Z</time>
      </trkpt>
      <trkpt lat="43.90249" lon="5.16177">
        <ele>240.6</ele>
        <time>2023-02-25T08:19:40Z</time>
      </trkpt>
      <trkpt lat="43.90253" lon="5.16178">
        <ele>240.8</ele>
        <time>2023-02-25T08:19:42Z</time>
      </trkpt>
      <trkpt lat="43.90255" lon="5.16179">
        <ele>241</ele>
        <time>2023-02-25T08:19:45Z</time>
      </trkpt>
      <trkpt lat="43.90257" lon="5.16181">
        <ele>241.2</ele>
        <time>2023-02-25T08:19:47Z</time>
      </trkpt>
      <trkpt lat="43.90268" lon="5.16192">
        <ele>241.4</ele>
        <time>2023-02-25T08:19:56Z</time>
      </trkpt>
      <trkpt lat="43.90269" lon="5.16193">
        <ele>241.4</ele>
        <time>2023-02-25T08:19:57Z</time>
      </trkpt>
      <trkpt lat="43.90275" lon="5.16197">
        <ele>241.4</ele>
        <time>2023-02-25T08:20:01Z</time>
      </trkpt>
      <trkpt lat="43.90279" lon="5.16199">
        <ele>241.6</ele>
        <time>2023-02-25T08:20:04Z</time>
      </trkpt>
      <trkpt lat="43.90284" lon="5.16203">
        <ele>242</ele>
        <time>2023-02-25T08:20:09Z</time>
      </trkpt>
      <trkpt lat="43.90291" lon="5.16207">
        <ele>242.2</ele>
        <time>2023-02-25T08:20:13Z</time>
      </trkpt>
      <trkpt lat="43.90307" lon="5.16215">
        <ele>242.6</ele>
        <time>2023-02-25T08:20:22Z</time>
      </trkpt>
      <trkpt lat="43.90309" lon="5.16221">
        <ele>242.6</ele>
        <time>2023-02-25T08:20:28Z</time>
      </trkpt>
      <trkpt lat="43.90305" lon="5.16221">
        <ele>242.6</ele>
        <time>2023-02-25T08:20:47Z</time>
      </trkpt>
      <trkpt lat="43.90303" lon="5.16229">
        <ele>242.2</ele>
        <time>2023-02-25T08:22:08Z</time>
      </trkpt>
      <trkpt lat="43.90304" lon="5.16251">
        <ele>241.2</ele>
        <time>2023-02-25T08:22:16Z</time>
      </trkpt>
      <trkpt lat="43.90304" lon="5.1627">
        <ele>240.8</ele>
        <time>2023-02-25T08:22:24Z</time>
      </trkpt>
      <trkpt lat="43.90304" lon="5.16272">
        <ele>240.6</ele>
        <time>2023-02-25T08:22:25Z</time>
      </trkpt>
      <trkpt lat="43.90302" lon="5.16283">
        <ele>240</ele>
        <time>2023-02-25T08:22:29Z</time>
      </trkpt>
      <trkpt lat="43.90302" lon="5.16291">
        <ele>240</ele>
        <time>2023-02-25T08:22:33Z</time>
      </trkpt>
      <trkpt lat="43.90301" lon="5.16298">
        <ele>239.6</ele>
        <time>2023-02-25T08:22:36Z</time>
      </trkpt>
      <trkpt lat="43.903" lon="5.16307">
        <ele>239.4</ele>
        <time>2023-02-25T08:22:40Z</time>
      </trkpt>
      <trkpt lat="43.90298" lon="5.1632">
        <ele>238.6</ele>
        <time>2023-02-25T08:22:46Z</time>
      </trkpt>
      <trkpt lat="43.90297" lon="5.16324">
        <ele>238.4</ele>
        <time>2023-02-25T08:22:48Z</time>
      </trkpt>
      <trkpt lat="43.90296" lon="5.16346">
        <ele>237.4</ele>
        <time>2023-02-25T08:22:58Z</time>
      </trkpt>
      <trkpt lat="43.90293" lon="5.16365">
        <ele>236.4</ele>
        <time>2023-02-25T08:23:07Z</time>
      </trkpt>
      <trkpt lat="43.90293" lon="5.1637">
        <ele>235.8</ele>
        <time>2023-02-25T08:23:09Z</time>
      </trkpt>
      <trkpt lat="43.90291" lon="5.16376">
        <ele>235.2</ele>
        <time>2023-02-25T08:23:12Z</time>
      </trkpt>
      <trkpt lat="43.9029" lon="5.16388">
        <ele>234.2</ele>
        <time>2023-02-25T08:23:18Z</time>
      </trkpt>
      <trkpt lat="43.90289" lon="5.1639">
        <ele>234</ele>
        <time>2023-02-25T08:23:19Z</time>
      </trkpt>
      <trkpt lat="43.90288" lon="5.16403">
        <ele>232.8</ele>
        <time>2023-02-25T08:23:25Z</time>
      </trkpt>
      <trkpt lat="43.90287" lon="5.1641">
        <ele>231.4</ele>
        <time>2023-02-25T08:23:29Z</time>
      </trkpt>
      <trkpt lat="43.90285" lon="5.16416">
        <ele>230.2</ele>
        <time>2023-02-25T08:23:32Z</time>
      </trkpt>
      <trkpt lat="43.90284" lon="5.16419">
        <ele>229.6</ele>
        <time>2023-02-25T08:23:34Z</time>
      </trkpt>
      <trkpt lat="43.90282" lon="5.16424">
        <ele>229</ele>
        <time>2023-02-25T08:23:37Z</time>
      </trkpt>
      <trkpt lat="43.90282" lon="5.16428">
        <ele>228.8</ele>
        <time>2023-02-25T08:23:39Z</time>
      </trkpt>
      <trkpt lat="43.90282" lon="5.1643">
        <ele>228.4</ele>
        <time>2023-02-25T08:23:40Z</time>
      </trkpt>
      <trkpt lat="43.90282" lon="5.16431">
        <ele>228.2</ele>
        <time>2023-02-25T08:23:41Z</time>
      </trkpt>
      <trkpt lat="43.9028" lon="5.16435">
        <ele>228</ele>
        <time>2023-02-25T08:23:43Z</time>
      </trkpt>
      <trkpt lat="43.9028" lon="5.16437">
        <ele>227.8</ele>
        <time>2023-02-25T08:23:44Z</time>
      </trkpt>
      <trkpt lat="43.90279" lon="5.16439">
        <ele>227.8</ele>
        <time>2023-02-25T08:23:45Z</time>
      </trkpt>
      <trkpt lat="43.90275" lon="5.16452">
        <ele>227.4</ele>
        <time>2023-02-25T08:23:52Z</time>
      </trkpt>
      <trkpt lat="43.90275" lon="5.16455">
        <ele>227.4</ele>
        <time>2023-02-25T08:23:54Z</time>
      </trkpt>
      <trkpt lat="43.90274" lon="5.16465">
        <ele>227.6</ele>
        <time>2023-02-25T08:24:00Z</time>
      </trkpt>
      <trkpt lat="43.90272" lon="5.16475">
        <ele>227.8</ele>
        <time>2023-02-25T08:24:12Z</time>
      </trkpt>
      <trkpt lat="43.90269" lon="5.16485">
        <ele>229.2</ele>
        <time>2023-02-25T08:24:19Z</time>
      </trkpt>
      <trkpt lat="43.90267" lon="5.16489">
        <ele>230.4</ele>
        <time>2023-02-25T08:24:22Z</time>
      </trkpt>
      <trkpt lat="43.90265" lon="5.16495">
        <ele>231.6</ele>
        <time>2023-02-25T08:24:26Z</time>
      </trkpt>
      <trkpt lat="43.90265" lon="5.165">
        <ele>232.6</ele>
        <time>2023-02-25T08:24:29Z</time>
      </trkpt>
      <trkpt lat="43.90263" lon="5.16508">
        <ele>233.8</ele>
        <time>2023-02-25T08:24:33Z</time>
      </trkpt>
      <trkpt lat="43.90263" lon="5.1651">
        <ele>234</ele>
        <time>2023-02-25T08:24:34Z</time>
      </trkpt>
      <trkpt lat="43.90261" lon="5.16522">
        <ele>234.8</ele>
        <time>2023-02-25T08:24:40Z</time>
      </trkpt>
      <trkpt lat="43.90259" lon="5.16528">
        <ele>235</ele>
        <time>2023-02-25T08:24:43Z</time>
      </trkpt>
      <trkpt lat="43.90258" lon="5.16542">
        <ele>234.8</ele>
        <time>2023-02-25T08:24:50Z</time>
      </trkpt>
      <trkpt lat="43.90256" lon="5.16557">
        <ele>234.4</ele>
        <time>2023-02-25T08:24:57Z</time>
      </trkpt>
      <trkpt lat="43.90256" lon="5.16565">
        <ele>233.8</ele>
        <time>2023-02-25T08:25:01Z</time>
      </trkpt>
      <trkpt lat="43.90255" lon="5.16571">
        <ele>233.6</ele>
        <time>2023-02-25T08:25:04Z</time>
      </trkpt>
      <trkpt lat="43.90255" lon="5.16578">
        <ele>232.6</ele>
        <time>2023-02-25T08:25:08Z</time>
      </trkpt>
      <trkpt lat="43.90255" lon="5.16585">
        <ele>231.8</ele>
        <time>2023-02-25T08:25:11Z</time>
      </trkpt>
      <trkpt lat="43.90256" lon="5.16592">
        <ele>231.2</ele>
        <time>2023-02-25T08:25:14Z</time>
      </trkpt>
      <trkpt lat="43.90259" lon="5.166">
        <ele>230.4</ele>
        <time>2023-02-25T08:25:18Z</time>
      </trkpt>
      <trkpt lat="43.9026" lon="5.16603">
        <ele>230</ele>
        <time>2023-02-25T08:25:20Z</time>
      </trkpt>
      <trkpt lat="43.90263" lon="5.16611">
        <ele>228.8</ele>
        <time>2023-02-25T08:25:25Z</time>
      </trkpt>
      <trkpt lat="43.90269" lon="5.16622">
        <ele>227.8</ele>
        <time>2023-02-25T08:25:33Z</time>
      </trkpt>
      <trkpt lat="43.9027" lon="5.16623">
        <ele>227.6</ele>
        <time>2023-02-25T08:25:35Z</time>
      </trkpt>
      <trkpt lat="43.90273" lon="5.16629">
        <ele>227.6</ele>
        <time>2023-02-25T08:25:38Z</time>
      </trkpt>
      <trkpt lat="43.90273" lon="5.16634">
        <ele>228.4</ele>
        <time>2023-02-25T08:25:42Z</time>
      </trkpt>
      <trkpt lat="43.90276" lon="5.16643">
        <ele>229</ele>
        <time>2023-02-25T08:25:47Z</time>
      </trkpt>
      <trkpt lat="43.90277" lon="5.16647">
        <ele>229.4</ele>
        <time>2023-02-25T08:25:49Z</time>
      </trkpt>
      <trkpt lat="43.90281" lon="5.16657">
        <ele>230</ele>
        <time>2023-02-25T08:25:55Z</time>
      </trkpt>
      <trkpt lat="43.90281" lon="5.16659">
        <ele>230.2</ele>
        <time>2023-02-25T08:25:56Z</time>
      </trkpt>
      <trkpt lat="43.90282" lon="5.16662">
        <ele>230.4</ele>
        <time>2023-02-25T08:25:58Z</time>
      </trkpt>
      <trkpt lat="43.90284" lon="5.16665">
        <ele>230.8</ele>
        <time>2023-02-25T08:26:00Z</time>
      </trkpt>
      <trkpt lat="43.90284" lon="5.16669">
        <ele>231.2</ele>
        <time>2023-02-25T08:26:02Z</time>
      </trkpt>
      <trkpt lat="43.90286" lon="5.16681">
        <ele>232.2</ele>
        <time>2023-02-25T08:26:09Z</time>
      </trkpt>
      <trkpt lat="43.90286" lon="5.16683">
        <ele>232.2</ele>
        <time>2023-02-25T08:26:10Z</time>
      </trkpt>
      <trkpt lat="43.90287" lon="5.16686">
        <ele>232.6</ele>
        <time>2023-02-25T08:26:12Z</time>
      </trkpt>
      <trkpt lat="43.90288" lon="5.16689">
        <ele>233</ele>
        <time>2023-02-25T08:26:14Z</time>
      </trkpt>
      <trkpt lat="43.90289" lon="5.16691">
        <ele>233</ele>
        <time>2023-02-25T08:26:15Z</time>
      </trkpt>
      <trkpt lat="43.9029" lon="5.16693">
        <ele>233.2</ele>
        <time>2023-02-25T08:26:16Z</time>
      </trkpt>
      <trkpt lat="43.90297" lon="5.16703">
        <ele>234.2</ele>
        <time>2023-02-25T08:26:23Z</time>
      </trkpt>
      <trkpt lat="43.90299" lon="5.16708">
        <ele>235.2</ele>
        <time>2023-02-25T08:26:27Z</time>
      </trkpt>
      <trkpt lat="43.903" lon="5.1671">
        <ele>235.4</ele>
        <time>2023-02-25T08:26:28Z</time>
      </trkpt>
      <trkpt lat="43.903" lon="5.16711">
        <ele>235.6</ele>
        <time>2023-02-25T08:26:29Z</time>
      </trkpt>
      <trkpt lat="43.90306" lon="5.1672">
        <ele>236.6</ele>
        <time>2023-02-25T08:26:35Z</time>
      </trkpt>
      <trkpt lat="43.90306" lon="5.16721">
        <ele>236.8</ele>
        <time>2023-02-25T08:26:36Z</time>
      </trkpt>
      <trkpt lat="43.90307" lon="5.16724">
        <ele>237.4</ele>
        <time>2023-02-25T08:26:38Z</time>
      </trkpt>
      <trkpt lat="43.90308" lon="5.16727">
        <ele>237.6</ele>
        <time>2023-02-25T08:26:40Z</time>
      </trkpt>
      <trkpt lat="43.90309" lon="5.16728">
        <ele>238</ele>
        <time>2023-02-25T08:26:41Z</time>
      </trkpt>
      <trkpt lat="43.90309" lon="5.1673">
        <ele>238</ele>
        <time>2023-02-25T08:26:42Z</time>
      </trkpt>
      <trkpt lat="43.90309" lon="5.16741">
        <ele>238.6</ele>
        <time>2023-02-25T08:26:48Z</time>
      </trkpt>
      <trkpt lat="43.90312" lon="5.16753">
        <ele>239.4</ele>
        <time>2023-02-25T08:26:54Z</time>
      </trkpt>
      <trkpt lat="43.90311" lon="5.16757">
        <ele>239.8</ele>
        <time>2023-02-25T08:26:56Z</time>
      </trkpt>
      <trkpt lat="43.90312" lon="5.16772">
        <ele>240.4</ele>
        <time>2023-02-25T08:27:03Z</time>
      </trkpt>
      <trkpt lat="43.90314" lon="5.16781">
        <ele>240.8</ele>
        <time>2023-02-25T08:27:07Z</time>
      </trkpt>
      <trkpt lat="43.90314" lon="5.1679">
        <ele>241.2</ele>
        <time>2023-02-25T08:27:11Z</time>
      </trkpt>
      <trkpt lat="43.90317" lon="5.16811">
        <ele>241.6</ele>
        <time>2023-02-25T08:27:20Z</time>
      </trkpt>
      <trkpt lat="43.90317" lon="5.16814">
        <ele>241.6</ele>
        <time>2023-02-25T08:27:21Z</time>
      </trkpt>
      <trkpt lat="43.90317" lon="5.16826">
        <ele>241.8</ele>
        <time>2023-02-25T08:27:26Z</time>
      </trkpt>
      <trkpt lat="43.90317" lon="5.16828">
        <ele>241.8</ele>
        <time>2023-02-25T08:27:27Z</time>
      </trkpt>
      <trkpt lat="43.90317" lon="5.16843">
        <ele>242.2</ele>
        <time>2023-02-25T08:27:33Z</time>
      </trkpt>
      <trkpt lat="43.9032" lon="5.16867">
        <ele>243</ele>
        <time>2023-02-25T08:27:43Z</time>
      </trkpt>
      <trkpt lat="43.90323" lon="5.16888">
        <ele>243.6</ele>
        <time>2023-02-25T08:27:52Z</time>
      </trkpt>
      <trkpt lat="43.90324" lon="5.16901">
        <ele>244</ele>
        <time>2023-02-25T08:27:58Z</time>
      </trkpt>
      <trkpt lat="43.90324" lon="5.16906">
        <ele>244</ele>
        <time>2023-02-25T08:28:00Z</time>
      </trkpt>
      <trkpt lat="43.90326" lon="5.16926">
        <ele>244.6</ele>
        <time>2023-02-25T08:28:09Z</time>
      </trkpt>
      <trkpt lat="43.90325" lon="5.16946">
        <ele>244.8</ele>
        <time>2023-02-25T08:28:18Z</time>
      </trkpt>
      <trkpt lat="43.90327" lon="5.1696">
        <ele>245</ele>
        <time>2023-02-25T08:28:24Z</time>
      </trkpt>
      <trkpt lat="43.90327" lon="5.16976">
        <ele>245.2</ele>
        <time>2023-02-25T08:28:32Z</time>
      </trkpt>
      <trkpt lat="43.90329" lon="5.16997">
        <ele>245.8</ele>
        <time>2023-02-25T08:28:41Z</time>
      </trkpt>
      <trkpt lat="43.9033" lon="5.1701">
        <ele>246</ele>
        <time>2023-02-25T08:28:47Z</time>
      </trkpt>
      <trkpt lat="43.90332" lon="5.17016">
        <ele>246.2</ele>
        <time>2023-02-25T08:28:50Z</time>
      </trkpt>
      <trkpt lat="43.90337" lon="5.17037">
        <ele>246.4</ele>
        <time>2023-02-25T08:29:00Z</time>
      </trkpt>
      <trkpt lat="43.90342" lon="5.17056">
        <ele>246.8</ele>
        <time>2023-02-25T08:29:09Z</time>
      </trkpt>
      <trkpt lat="43.90343" lon="5.17078">
        <ele>247</ele>
        <time>2023-02-25T08:29:19Z</time>
      </trkpt>
      <trkpt lat="43.90343" lon="5.17082">
        <ele>247</ele>
        <time>2023-02-25T08:29:21Z</time>
      </trkpt>
      <trkpt lat="43.90343" lon="5.17094">
        <ele>247.4</ele>
        <time>2023-02-25T08:29:26Z</time>
      </trkpt>
      <trkpt lat="43.90343" lon="5.17105">
        <ele>247.6</ele>
        <time>2023-02-25T08:29:31Z</time>
      </trkpt>
      <trkpt lat="43.90344" lon="5.17116">
        <ele>247.8</ele>
        <time>2023-02-25T08:29:36Z</time>
      </trkpt>
      <trkpt lat="43.90344" lon="5.1713">
        <ele>248</ele>
        <time>2023-02-25T08:29:42Z</time>
      </trkpt>
      <trkpt lat="43.90345" lon="5.17136">
        <ele>248.2</ele>
        <time>2023-02-25T08:29:45Z</time>
      </trkpt>
      <trkpt lat="43.90345" lon="5.17154">
        <ele>248</ele>
        <time>2023-02-25T08:29:53Z</time>
      </trkpt>
      <trkpt lat="43.90344" lon="5.17175">
        <ele>248</ele>
        <time>2023-02-25T08:30:02Z</time>
      </trkpt>
      <trkpt lat="43.90343" lon="5.17185">
        <ele>247.8</ele>
        <time>2023-02-25T08:30:07Z</time>
      </trkpt>
      <trkpt lat="43.90341" lon="5.17192">
        <ele>247.8</ele>
        <time>2023-02-25T08:30:10Z</time>
      </trkpt>
      <trkpt lat="43.9034" lon="5.17212">
        <ele>248</ele>
        <time>2023-02-25T08:30:19Z</time>
      </trkpt>
      <trkpt lat="43.90341" lon="5.17237">
        <ele>248.2</ele>
        <time>2023-02-25T08:30:30Z</time>
      </trkpt>
      <trkpt lat="43.90342" lon="5.17257">
        <ele>248.2</ele>
        <time>2023-02-25T08:30:39Z</time>
      </trkpt>
      <trkpt lat="43.90342" lon="5.17279">
        <ele>248.2</ele>
        <time>2023-02-25T08:30:49Z</time>
      </trkpt>
      <trkpt lat="43.90342" lon="5.17298">
        <ele>248.2</ele>
        <time>2023-02-25T08:30:57Z</time>
      </trkpt>
      <trkpt lat="43.90341" lon="5.17317">
        <ele>248</ele>
        <time>2023-02-25T08:31:06Z</time>
      </trkpt>
      <trkpt lat="43.9034" lon="5.17332">
        <ele>248</ele>
        <time>2023-02-25T08:31:13Z</time>
      </trkpt>
      <trkpt lat="43.90341" lon="5.17349">
        <ele>247.8</ele>
        <time>2023-02-25T08:31:21Z</time>
      </trkpt>
      <trkpt lat="43.90341" lon="5.17363">
        <ele>247.2</ele>
        <time>2023-02-25T08:31:28Z</time>
      </trkpt>
      <trkpt lat="43.90341" lon="5.17367">
        <ele>247</ele>
        <time>2023-02-25T08:31:30Z</time>
      </trkpt>
      <trkpt lat="43.90341" lon="5.17369">
        <ele>246.8</ele>
        <time>2023-02-25T08:31:32Z</time>
      </trkpt>
      <trkpt lat="43.9034" lon="5.17369">
        <ele>246.6</ele>
        <time>2023-02-25T08:31:34Z</time>
      </trkpt>
      <trkpt lat="43.90339" lon="5.17368">
        <ele>246.2</ele>
        <time>2023-02-25T08:31:41Z</time>
      </trkpt>
      <trkpt lat="43.90339" lon="5.17368">
        <ele>246</ele>
        <time>2023-02-25T08:31:55Z</time>
      </trkpt>
      <trkpt lat="43.90328" lon="5.17376">
        <ele>245.6</ele>
        <time>2023-02-25T08:33:10Z</time>
      </trkpt>
      <trkpt lat="43.90317" lon="5.17379">
        <ele>245</ele>
        <time>2023-02-25T08:33:16Z</time>
      </trkpt>
      <trkpt lat="43.90313" lon="5.17381">
        <ele>244.8</ele>
        <time>2023-02-25T08:33:18Z</time>
      </trkpt>
      <trkpt lat="43.90307" lon="5.17393">
        <ele>244.8</ele>
        <time>2023-02-25T08:33:25Z</time>
      </trkpt>
      <trkpt lat="43.90304" lon="5.1741">
        <ele>244.8</ele>
        <time>2023-02-25T08:33:33Z</time>
      </trkpt>
      <trkpt lat="43.90297" lon="5.17426">
        <ele>244.8</ele>
        <time>2023-02-25T08:33:42Z</time>
      </trkpt>
      <trkpt lat="43.90288" lon="5.17446">
        <ele>245</ele>
        <time>2023-02-25T08:33:53Z</time>
      </trkpt>
      <trkpt lat="43.90285" lon="5.17462">
        <ele>244.6</ele>
        <time>2023-02-25T08:34:00Z</time>
      </trkpt>
      <trkpt lat="43.90281" lon="5.17474">
        <ele>244.4</ele>
        <time>2023-02-25T08:34:06Z</time>
      </trkpt>
      <trkpt lat="43.90275" lon="5.1749">
        <ele>244.2</ele>
        <time>2023-02-25T08:34:14Z</time>
      </trkpt>
      <trkpt lat="43.90267" lon="5.17513">
        <ele>244.2</ele>
        <time>2023-02-25T08:34:24Z</time>
      </trkpt>
      <trkpt lat="43.90262" lon="5.17529">
        <ele>243.8</ele>
        <time>2023-02-25T08:34:32Z</time>
      </trkpt>
      <trkpt lat="43.90259" lon="5.17552">
        <ele>243.8</ele>
        <time>2023-02-25T08:34:41Z</time>
      </trkpt>
      <trkpt lat="43.90257" lon="5.17573">
        <ele>244.2</ele>
        <time>2023-02-25T08:34:50Z</time>
      </trkpt>
      <trkpt lat="43.90259" lon="5.17594">
        <ele>243.8</ele>
        <time>2023-02-25T08:34:59Z</time>
      </trkpt>
      <trkpt lat="43.90264" lon="5.17616">
        <ele>244.4</ele>
        <time>2023-02-25T08:35:09Z</time>
      </trkpt>
      <trkpt lat="43.90267" lon="5.17629">
        <ele>245</ele>
        <time>2023-02-25T08:35:16Z</time>
      </trkpt>
      <trkpt lat="43.90268" lon="5.17635">
        <ele>245.2</ele>
        <time>2023-02-25T08:35:19Z</time>
      </trkpt>
      <trkpt lat="43.90269" lon="5.17644">
        <ele>244.8</ele>
        <time>2023-02-25T08:35:23Z</time>
      </trkpt>
      <trkpt lat="43.90271" lon="5.17651">
        <ele>244.8</ele>
        <time>2023-02-25T08:35:26Z</time>
      </trkpt>
      <trkpt lat="43.90273" lon="5.17667">
        <ele>245</ele>
        <time>2023-02-25T08:35:33Z</time>
      </trkpt>
      <trkpt lat="43.90273" lon="5.17669">
        <ele>245</ele>
        <time>2023-02-25T08:35:34Z</time>
      </trkpt>
      <trkpt lat="43.90275" lon="5.17687">
        <ele>245</ele>
        <time>2023-02-25T08:35:41Z</time>
      </trkpt>
      <trkpt lat="43.90271" lon="5.17702">
        <ele>244.8</ele>
        <time>2023-02-25T08:35:48Z</time>
      </trkpt>
      <trkpt lat="43.90265" lon="5.17724">
        <ele>244</ele>
        <time>2023-02-25T08:35:57Z</time>
      </trkpt>
      <trkpt lat="43.90262" lon="5.17734">
        <ele>244</ele>
        <time>2023-02-25T08:36:02Z</time>
      </trkpt>
      <trkpt lat="43.90259" lon="5.17746">
        <ele>243.6</ele>
        <time>2023-02-25T08:36:07Z</time>
      </trkpt>
      <trkpt lat="43.90253" lon="5.1777">
        <ele>243.2</ele>
        <time>2023-02-25T08:36:18Z</time>
      </trkpt>
      <trkpt lat="43.90251" lon="5.17777">
        <ele>242.8</ele>
        <time>2023-02-25T08:36:21Z</time>
      </trkpt>
      <trkpt lat="43.90248" lon="5.17791">
        <ele>242.4</ele>
        <time>2023-02-25T08:36:27Z</time>
      </trkpt>
      <trkpt lat="43.90243" lon="5.17809">
        <ele>242.2</ele>
        <time>2023-02-25T08:36:35Z</time>
      </trkpt>
      <trkpt lat="43.90242" lon="5.17819">
        <ele>241.6</ele>
        <time>2023-02-25T08:36:39Z</time>
      </trkpt>
      <trkpt lat="43.9024" lon="5.17831">
        <ele>241.4</ele>
        <time>2023-02-25T08:36:44Z</time>
      </trkpt>
      <trkpt lat="43.90235" lon="5.1785">
        <ele>241</ele>
        <time>2023-02-25T08:36:53Z</time>
      </trkpt>
      <trkpt lat="43.90232" lon="5.17858">
        <ele>240.6</ele>
        <time>2023-02-25T08:36:57Z</time>
      </trkpt>
      <trkpt lat="43.90229" lon="5.17864">
        <ele>240.6</ele>
        <time>2023-02-25T08:37:00Z</time>
      </trkpt>
      <trkpt lat="43.90225" lon="5.17884">
        <ele>239.6</ele>
        <time>2023-02-25T08:37:09Z</time>
      </trkpt>
      <trkpt lat="43.90224" lon="5.17886">
        <ele>239.6</ele>
        <time>2023-02-25T08:37:10Z</time>
      </trkpt>
      <trkpt lat="43.90218" lon="5.17903">
        <ele>238.8</ele>
        <time>2023-02-25T08:37:18Z</time>
      </trkpt>
      <trkpt lat="43.90212" lon="5.17915">
        <ele>238.4</ele>
        <time>2023-02-25T08:37:25Z</time>
      </trkpt>
      <trkpt lat="43.90212" lon="5.17917">
        <ele>238.4</ele>
        <time>2023-02-25T08:37:26Z</time>
      </trkpt>
      <trkpt lat="43.90206" lon="5.17935">
        <ele>237.8</ele>
        <time>2023-02-25T08:37:34Z</time>
      </trkpt>
      <trkpt lat="43.90202" lon="5.17956">
        <ele>237.4</ele>
        <time>2023-02-25T08:37:44Z</time>
      </trkpt>
      <trkpt lat="43.90197" lon="5.17967">
        <ele>237.2</ele>
        <time>2023-02-25T08:37:49Z</time>
      </trkpt>
      <trkpt lat="43.90194" lon="5.17969">
        <ele>237</ele>
        <time>2023-02-25T08:37:51Z</time>
      </trkpt>
      <trkpt lat="43.90188" lon="5.1798">
        <ele>236.8</ele>
        <time>2023-02-25T08:37:58Z</time>
      </trkpt>
      <trkpt lat="43.90185" lon="5.18005">
        <ele>236.6</ele>
        <time>2023-02-25T08:38:08Z</time>
      </trkpt>
      <trkpt lat="43.90183" lon="5.1801">
        <ele>236.6</ele>
        <time>2023-02-25T08:38:11Z</time>
      </trkpt>
      <trkpt lat="43.9018" lon="5.18015">
        <ele>236.4</ele>
        <time>2023-02-25T08:38:14Z</time>
      </trkpt>
      <trkpt lat="43.90169" lon="5.18034">
        <ele>235.8</ele>
        <time>2023-02-25T08:38:24Z</time>
      </trkpt>
      <trkpt lat="43.90167" lon="5.18042">
        <ele>235.4</ele>
        <time>2023-02-25T08:38:28Z</time>
      </trkpt>
      <trkpt lat="43.90163" lon="5.18053">
        <ele>234.8</ele>
        <time>2023-02-25T08:38:33Z</time>
      </trkpt>
      <trkpt lat="43.90157" lon="5.18069">
        <ele>234.2</ele>
        <time>2023-02-25T08:38:41Z</time>
      </trkpt>
      <trkpt lat="43.90147" lon="5.18084">
        <ele>233.4</ele>
        <time>2023-02-25T08:38:50Z</time>
      </trkpt>
      <trkpt lat="43.90142" lon="5.18089">
        <ele>233.2</ele>
        <time>2023-02-25T08:38:54Z</time>
      </trkpt>
      <trkpt lat="43.90142" lon="5.18088">
        <ele>233</ele>
        <time>2023-02-25T08:38:57Z</time>
      </trkpt>
      <trkpt lat="43.9014" lon="5.18088">
        <ele>232.8</ele>
        <time>2023-02-25T08:39:10Z</time>
      </trkpt>
      <trkpt lat="43.90134" lon="5.18092">
        <ele>232.4</ele>
        <time>2023-02-25T08:39:19Z</time>
      </trkpt>
      <trkpt lat="43.90132" lon="5.18095">
        <ele>232.2</ele>
        <time>2023-02-25T08:39:21Z</time>
      </trkpt>
      <trkpt lat="43.90131" lon="5.18099">
        <ele>232</ele>
        <time>2023-02-25T08:39:24Z</time>
      </trkpt>
      <trkpt lat="43.90133" lon="5.18099">
        <ele>232.2</ele>
        <time>2023-02-25T08:39:29Z</time>
      </trkpt>
      <trkpt lat="43.90134" lon="5.18101">
        <ele>232.4</ele>
        <time>2023-02-25T08:39:39Z</time>
      </trkpt>
      <trkpt lat="43.90132" lon="5.18108">
        <ele>232</ele>
        <time>2023-02-25T08:40:02Z</time>
      </trkpt>
      <trkpt lat="43.90131" lon="5.18126">
        <ele>231.8</ele>
        <time>2023-02-25T08:40:10Z</time>
      </trkpt>
      <trkpt lat="43.9013" lon="5.18127">
        <ele>231.8</ele>
        <time>2023-02-25T08:40:11Z</time>
      </trkpt>
      <trkpt lat="43.90127" lon="5.1813">
        <ele>231.6</ele>
        <time>2023-02-25T08:40:15Z</time>
      </trkpt>
      <trkpt lat="43.90126" lon="5.18129">
        <ele>231.8</ele>
        <time>2023-02-25T08:40:20Z</time>
      </trkpt>
      <trkpt lat="43.90124" lon="5.18129">
        <ele>231.8</ele>
        <time>2023-02-25T08:40:54Z</time>
      </trkpt>
      <trkpt lat="43.90115" lon="5.18128">
        <ele>232.2</ele>
        <time>2023-02-25T08:41:00Z</time>
      </trkpt>
      <trkpt lat="43.90111" lon="5.18121">
        <ele>232.4</ele>
        <time>2023-02-25T08:41:06Z</time>
      </trkpt>
      <trkpt lat="43.9012" lon="5.18113">
        <ele>232.4</ele>
        <time>2023-02-25T08:41:13Z</time>
      </trkpt>
      <trkpt lat="43.90126" lon="5.18097">
        <ele>232</ele>
        <time>2023-02-25T08:41:21Z</time>
      </trkpt>
      <trkpt lat="43.90128" lon="5.18093">
        <ele>231.8</ele>
        <time>2023-02-25T08:41:23Z</time>
      </trkpt>
      <trkpt lat="43.90132" lon="5.18092">
        <ele>231.8</ele>
        <time>2023-02-25T08:41:26Z</time>
      </trkpt>
      <trkpt lat="43.90137" lon="5.18096">
        <ele>231.8</ele>
        <time>2023-02-25T08:41:30Z</time>
      </trkpt>
      <trkpt lat="43.90137" lon="5.18097">
        <ele>231.8</ele>
        <time>2023-02-25T08:41:32Z</time>
      </trkpt>
      <trkpt lat="43.9014" lon="5.181">
        <ele>231.6</ele>
        <time>2023-02-25T08:41:36Z</time>
      </trkpt>
      <trkpt lat="43.90141" lon="5.18102">
        <ele>231.6</ele>
        <time>2023-02-25T08:41:37Z</time>
      </trkpt>
      <trkpt lat="43.90144" lon="5.18104">
        <ele>231.2</ele>
        <time>2023-02-25T08:41:39Z</time>
      </trkpt>
      <trkpt lat="43.9015" lon="5.18114">
        <ele>230.2</ele>
        <time>2023-02-25T08:41:46Z</time>
      </trkpt>
      <trkpt lat="43.90153" lon="5.1812">
        <ele>229.2</ele>
        <time>2023-02-25T08:41:50Z</time>
      </trkpt>
      <trkpt lat="43.90155" lon="5.18126">
        <ele>228.4</ele>
        <time>2023-02-25T08:41:53Z</time>
      </trkpt>
      <trkpt lat="43.90155" lon="5.18127">
        <ele>228</ele>
        <time>2023-02-25T08:41:54Z</time>
      </trkpt>
      <trkpt lat="43.9016" lon="5.18132">
        <ele>226.8</ele>
        <time>2023-02-25T08:41:59Z</time>
      </trkpt>
      <trkpt lat="43.90161" lon="5.18133">
        <ele>226.2</ele>
        <time>2023-02-25T08:42:01Z</time>
      </trkpt>
      <trkpt lat="43.90162" lon="5.18133">
        <ele>225.8</ele>
        <time>2023-02-25T08:42:05Z</time>
      </trkpt>
      <trkpt lat="43.90163" lon="5.18132">
        <ele>225.6</ele>
        <time>2023-02-25T08:42:06Z</time>
      </trkpt>
      <trkpt lat="43.90165" lon="5.18132">
        <ele>225.4</ele>
        <time>2023-02-25T08:42:07Z</time>
      </trkpt>
      <trkpt lat="43.90171" lon="5.18132">
        <ele>224.4</ele>
        <time>2023-02-25T08:42:11Z</time>
      </trkpt>
      <trkpt lat="43.90178" lon="5.18135">
        <ele>223.2</ele>
        <time>2023-02-25T08:42:16Z</time>
      </trkpt>
      <trkpt lat="43.9018" lon="5.18136">
        <ele>222.6</ele>
        <time>2023-02-25T08:42:18Z</time>
      </trkpt>
      <trkpt lat="43.90181" lon="5.18139">
        <ele>222</ele>
        <time>2023-02-25T08:42:20Z</time>
      </trkpt>
      <trkpt lat="43.90179" lon="5.18142">
        <ele>221.6</ele>
        <time>2023-02-25T08:42:22Z</time>
      </trkpt>
      <trkpt lat="43.90178" lon="5.18143">
        <ele>221.4</ele>
        <time>2023-02-25T08:42:23Z</time>
      </trkpt>
      <trkpt lat="43.90171" lon="5.18147">
        <ele>221</ele>
        <time>2023-02-25T08:42:27Z</time>
      </trkpt>
      <trkpt lat="43.9017" lon="5.18147">
        <ele>221</ele>
        <time>2023-02-25T08:42:28Z</time>
      </trkpt>
      <trkpt lat="43.90168" lon="5.18149">
        <ele>220.6</ele>
        <time>2023-02-25T08:42:30Z</time>
      </trkpt>
      <trkpt lat="43.90167" lon="5.18153">
        <ele>220</ele>
        <time>2023-02-25T08:42:33Z</time>
      </trkpt>
      <trkpt lat="43.90168" lon="5.18154">
        <ele>219.8</ele>
        <time>2023-02-25T08:42:34Z</time>
      </trkpt>
      <trkpt lat="43.90169" lon="5.18154">
        <ele>219.4</ele>
        <time>2023-02-25T08:42:35Z</time>
      </trkpt>
      <trkpt lat="43.90171" lon="5.18154">
        <ele>218.8</ele>
        <time>2023-02-25T08:42:37Z</time>
      </trkpt>
      <trkpt lat="43.90175" lon="5.18152">
        <ele>218</ele>
        <time>2023-02-25T08:42:40Z</time>
      </trkpt>
      <trkpt lat="43.90179" lon="5.18152">
        <ele>217.6</ele>
        <time>2023-02-25T08:42:42Z</time>
      </trkpt>
      <trkpt lat="43.90183" lon="5.18153">
        <ele>217</ele>
        <time>2023-02-25T08:42:46Z</time>
      </trkpt>
      <trkpt lat="43.90185" lon="5.18153">
        <ele>216.4</ele>
        <time>2023-02-25T08:42:48Z</time>
      </trkpt>
      <trkpt lat="43.90188" lon="5.18158">
        <ele>215.2</ele>
        <time>2023-02-25T08:42:52Z</time>
      </trkpt>
      <trkpt lat="43.90189" lon="5.18164">
        <ele>214</ele>
        <time>2023-02-25T08:42:56Z</time>
      </trkpt>
      <trkpt lat="43.90189" lon="5.1817">
        <ele>213</ele>
        <time>2023-02-25T08:43:00Z</time>
      </trkpt>
      <trkpt lat="43.90189" lon="5.18172">
        <ele>212.8</ele>
        <time>2023-02-25T08:43:01Z</time>
      </trkpt>
      <trkpt lat="43.9019" lon="5.1818">
        <ele>211.8</ele>
        <time>2023-02-25T08:43:05Z</time>
      </trkpt>
      <trkpt lat="43.9019" lon="5.18181">
        <ele>211.6</ele>
        <time>2023-02-25T08:43:06Z</time>
      </trkpt>
      <trkpt lat="43.90191" lon="5.18185">
        <ele>211</ele>
        <time>2023-02-25T08:43:08Z</time>
      </trkpt>
      <trkpt lat="43.90191" lon="5.18187">
        <ele>210.8</ele>
        <time>2023-02-25T08:43:09Z</time>
      </trkpt>
      <trkpt lat="43.90191" lon="5.18194">
        <ele>209.8</ele>
        <time>2023-02-25T08:43:13Z</time>
      </trkpt>
      <trkpt lat="43.90193" lon="5.18203">
        <ele>208.6</ele>
        <time>2023-02-25T08:43:18Z</time>
      </trkpt>
      <trkpt lat="43.90194" lon="5.18205">
        <ele>208.4</ele>
        <time>2023-02-25T08:43:19Z</time>
      </trkpt>
      <trkpt lat="43.90196" lon="5.18214">
        <ele>207.2</ele>
        <time>2023-02-25T08:43:24Z</time>
      </trkpt>
      <trkpt lat="43.90197" lon="5.18215">
        <ele>207</ele>
        <time>2023-02-25T08:43:26Z</time>
      </trkpt>
      <trkpt lat="43.90195" lon="5.18215">
        <ele>206.8</ele>
        <time>2023-02-25T08:43:33Z</time>
      </trkpt>
      <trkpt lat="43.90199" lon="5.18223">
        <ele>207.4</ele>
        <time>2023-02-25T08:43:41Z</time>
      </trkpt>
      <trkpt lat="43.90199" lon="5.18228">
        <ele>208.4</ele>
        <time>2023-02-25T08:43:45Z</time>
      </trkpt>
      <trkpt lat="43.90201" lon="5.18233">
        <ele>209.2</ele>
        <time>2023-02-25T08:43:49Z</time>
      </trkpt>
      <trkpt lat="43.90201" lon="5.18237">
        <ele>209.4</ele>
        <time>2023-02-25T08:43:51Z</time>
      </trkpt>
      <trkpt lat="43.90199" lon="5.18245">
        <ele>210.6</ele>
        <time>2023-02-25T08:43:56Z</time>
      </trkpt>
      <trkpt lat="43.902" lon="5.18246">
        <ele>211.2</ele>
        <time>2023-02-25T08:43:59Z</time>
      </trkpt>
      <trkpt lat="43.90202" lon="5.18246">
        <ele>211.6</ele>
        <time>2023-02-25T08:44:01Z</time>
      </trkpt>
      <trkpt lat="43.90206" lon="5.1825">
        <ele>212.6</ele>
        <time>2023-02-25T08:44:08Z</time>
      </trkpt>
      <trkpt lat="43.90206" lon="5.1825">
        <ele>212.6</ele>
        <time>2023-02-25T08:44:09Z</time>
      </trkpt>
      <trkpt lat="43.90209" lon="5.18242">
        <ele>212.8</ele>
        <time>2023-02-25T08:44:17Z</time>
      </trkpt>
      <trkpt lat="43.90218" lon="5.18229">
        <ele>213</ele>
        <time>2023-02-25T08:44:25Z</time>
      </trkpt>
      <trkpt lat="43.90228" lon="5.18215">
        <ele>213.2</ele>
        <time>2023-02-25T08:44:34Z</time>
      </trkpt>
      <trkpt lat="43.90229" lon="5.18214">
        <ele>213.2</ele>
        <time>2023-02-25T08:44:35Z</time>
      </trkpt>
      <trkpt lat="43.90235" lon="5.18206">
        <ele>213.4</ele>
        <time>2023-02-25T08:44:40Z</time>
      </trkpt>
      <trkpt lat="43.90239" lon="5.18199">
        <ele>213.6</ele>
        <time>2023-02-25T08:44:44Z</time>
      </trkpt>
      <trkpt lat="43.9024" lon="5.18198">
        <ele>213.6</ele>
        <time>2023-02-25T08:44:45Z</time>
      </trkpt>
      <trkpt lat="43.90243" lon="5.18196">
        <ele>213.6</ele>
        <time>2023-02-25T08:44:47Z</time>
      </trkpt>
      <trkpt lat="43.90245" lon="5.18195">
        <ele>213.6</ele>
        <time>2023-02-25T08:44:48Z</time>
      </trkpt>
      <trkpt lat="43.90253" lon="5.18187">
        <ele>214.8</ele>
        <time>2023-02-25T08:44:54Z</time>
      </trkpt>
      <trkpt lat="43.90255" lon="5.18181">
        <ele>215.2</ele>
        <time>2023-02-25T08:44:58Z</time>
      </trkpt>
      <trkpt lat="43.90256" lon="5.18176">
        <ele>215.2</ele>
        <time>2023-02-25T08:45:00Z</time>
      </trkpt>
      <trkpt lat="43.9026" lon="5.18159">
        <ele>215.2</ele>
        <time>2023-02-25T08:45:07Z</time>
      </trkpt>
      <trkpt lat="43.90264" lon="5.18143">
        <ele>215.4</ele>
        <time>2023-02-25T08:45:15Z</time>
      </trkpt>
      <trkpt lat="43.90268" lon="5.18124">
        <ele>214.8</ele>
        <time>2023-02-25T08:45:24Z</time>
      </trkpt>
      <trkpt lat="43.90273" lon="5.1811">
        <ele>213.8</ele>
        <time>2023-02-25T08:45:31Z</time>
      </trkpt>
      <trkpt lat="43.90274" lon="5.18106">
        <ele>213.6</ele>
        <time>2023-02-25T08:45:33Z</time>
      </trkpt>
      <trkpt lat="43.90283" lon="5.1809">
        <ele>214.6</ele>
        <time>2023-02-25T08:45:42Z</time>
      </trkpt>
      <trkpt lat="43.90284" lon="5.18088">
        <ele>214.8</ele>
        <time>2023-02-25T08:45:43Z</time>
      </trkpt>
      <trkpt lat="43.90286" lon="5.18077">
        <ele>214.6</ele>
        <time>2023-02-25T08:45:49Z</time>
      </trkpt>
      <trkpt lat="43.90293" lon="5.18059">
        <ele>215.2</ele>
        <time>2023-02-25T08:45:58Z</time>
      </trkpt>
      <trkpt lat="43.90295" lon="5.18056">
        <ele>215.4</ele>
        <time>2023-02-25T08:46:00Z</time>
      </trkpt>
      <trkpt lat="43.90299" lon="5.18051">
        <ele>215.2</ele>
        <time>2023-02-25T08:46:04Z</time>
      </trkpt>
      <trkpt lat="43.90312" lon="5.18041">
        <ele>215.6</ele>
        <time>2023-02-25T08:46:12Z</time>
      </trkpt>
      <trkpt lat="43.90313" lon="5.1804">
        <ele>215.8</ele>
        <time>2023-02-25T08:46:13Z</time>
      </trkpt>
      <trkpt lat="43.90319" lon="5.18036">
        <ele>215.6</ele>
        <time>2023-02-25T08:46:18Z</time>
      </trkpt>
      <trkpt lat="43.9032" lon="5.18035">
        <ele>215.6</ele>
        <time>2023-02-25T08:46:19Z</time>
      </trkpt>
      <trkpt lat="43.90333" lon="5.1803">
        <ele>216</ele>
        <time>2023-02-25T08:46:26Z</time>
      </trkpt>
      <trkpt lat="43.90338" lon="5.18026">
        <ele>216.8</ele>
        <time>2023-02-25T08:46:29Z</time>
      </trkpt>
      <trkpt lat="43.90344" lon="5.18022">
        <ele>217.2</ele>
        <time>2023-02-25T08:46:33Z</time>
      </trkpt>
      <trkpt lat="43.90352" lon="5.18017">
        <ele>216.2</ele>
        <time>2023-02-25T08:46:39Z</time>
      </trkpt>
      <trkpt lat="43.90355" lon="5.18016">
        <ele>215.6</ele>
        <time>2023-02-25T08:46:41Z</time>
      </trkpt>
      <trkpt lat="43.9036" lon="5.18011">
        <ele>215.2</ele>
        <time>2023-02-25T08:46:45Z</time>
      </trkpt>
      <trkpt lat="43.90363" lon="5.18003">
        <ele>215.8</ele>
        <time>2023-02-25T08:46:51Z</time>
      </trkpt>
      <trkpt lat="43.90364" lon="5.18002">
        <ele>216.2</ele>
        <time>2023-02-25T08:46:52Z</time>
      </trkpt>
      <trkpt lat="43.90367" lon="5.18">
        <ele>216.8</ele>
        <time>2023-02-25T08:46:54Z</time>
      </trkpt>
      <trkpt lat="43.90377" lon="5.17997">
        <ele>217.4</ele>
        <time>2023-02-25T08:47:00Z</time>
      </trkpt>
      <trkpt lat="43.90388" lon="5.17992">
        <ele>217.8</ele>
        <time>2023-02-25T08:47:08Z</time>
      </trkpt>
      <trkpt lat="43.9039" lon="5.17991">
        <ele>217.8</ele>
        <time>2023-02-25T08:47:09Z</time>
      </trkpt>
      <trkpt lat="43.90398" lon="5.17988">
        <ele>217.8</ele>
        <time>2023-02-25T08:47:15Z</time>
      </trkpt>
      <trkpt lat="43.904" lon="5.17986">
        <ele>217.4</ele>
        <time>2023-02-25T08:47:17Z</time>
      </trkpt>
      <trkpt lat="43.90404" lon="5.17983">
        <ele>217.2</ele>
        <time>2023-02-25T08:47:20Z</time>
      </trkpt>
      <trkpt lat="43.90408" lon="5.17976">
        <ele>218</ele>
        <time>2023-02-25T08:47:27Z</time>
      </trkpt>
      <trkpt lat="43.90409" lon="5.17971">
        <ele>219.2</ele>
        <time>2023-02-25T08:47:31Z</time>
      </trkpt>
      <trkpt lat="43.90412" lon="5.17968">
        <ele>220.2</ele>
        <time>2023-02-25T08:47:34Z</time>
      </trkpt>
      <trkpt lat="43.90413" lon="5.17966">
        <ele>220.6</ele>
        <time>2023-02-25T08:47:35Z</time>
      </trkpt>
      <trkpt lat="43.90414" lon="5.17965">
        <ele>220.8</ele>
        <time>2023-02-25T08:47:36Z</time>
      </trkpt>
      <trkpt lat="43.90412" lon="5.17961">
        <ele>221</ele>
        <time>2023-02-25T08:47:39Z</time>
      </trkpt>
      <trkpt lat="43.90412" lon="5.17959">
        <ele>221.2</ele>
        <time>2023-02-25T08:47:40Z</time>
      </trkpt>
      <trkpt lat="43.90412" lon="5.17951">
        <ele>221.2</ele>
        <time>2023-02-25T08:47:44Z</time>
      </trkpt>
      <trkpt lat="43.90411" lon="5.17946">
        <ele>221.6</ele>
        <time>2023-02-25T08:47:46Z</time>
      </trkpt>
      <trkpt lat="43.90408" lon="5.17933">
        <ele>222.2</ele>
        <time>2023-02-25T08:47:53Z</time>
      </trkpt>
      <trkpt lat="43.90408" lon="5.17931">
        <ele>222.2</ele>
        <time>2023-02-25T08:47:54Z</time>
      </trkpt>
      <trkpt lat="43.90411" lon="5.17922">
        <ele>222.4</ele>
        <time>2023-02-25T08:47:59Z</time>
      </trkpt>
      <trkpt lat="43.90414" lon="5.17921">
        <ele>222.8</ele>
        <time>2023-02-25T08:48:01Z</time>
      </trkpt>
      <trkpt lat="43.90418" lon="5.17918">
        <ele>223.6</ele>
        <time>2023-02-25T08:48:05Z</time>
      </trkpt>
      <trkpt lat="43.90418" lon="5.17916">
        <ele>224</ele>
        <time>2023-02-25T08:48:06Z</time>
      </trkpt>
      <trkpt lat="43.90417" lon="5.17911">
        <ele>225</ele>
        <time>2023-02-25T08:48:09Z</time>
      </trkpt>
      <trkpt lat="43.90416" lon="5.1791">
        <ele>225.2</ele>
        <time>2023-02-25T08:48:10Z</time>
      </trkpt>
      <trkpt lat="43.90414" lon="5.17907">
        <ele>225.6</ele>
        <time>2023-02-25T08:48:12Z</time>
      </trkpt>
      <trkpt lat="43.90413" lon="5.17905">
        <ele>225.6</ele>
        <time>2023-02-25T08:48:13Z</time>
      </trkpt>
      <trkpt lat="43.90406" lon="5.17888">
        <ele>225.6</ele>
        <time>2023-02-25T08:48:21Z</time>
      </trkpt>
      <trkpt lat="43.90404" lon="5.17877">
        <ele>226.2</ele>
        <time>2023-02-25T08:48:26Z</time>
      </trkpt>
      <trkpt lat="43.90403" lon="5.17869">
        <ele>226.2</ele>
        <time>2023-02-25T08:48:30Z</time>
      </trkpt>
      <trkpt lat="43.90407" lon="5.1785">
        <ele>226.4</ele>
        <time>2023-02-25T08:48:38Z</time>
      </trkpt>
      <trkpt lat="43.90416" lon="5.17834">
        <ele>227</ele>
        <time>2023-02-25T08:48:47Z</time>
      </trkpt>
      <trkpt lat="43.90417" lon="5.17832">
        <ele>227.2</ele>
        <time>2023-02-25T08:48:48Z</time>
      </trkpt>
      <trkpt lat="43.9042" lon="5.17831">
        <ele>227.6</ele>
        <time>2023-02-25T08:48:50Z</time>
      </trkpt>
      <trkpt lat="43.90422" lon="5.17829">
        <ele>228.2</ele>
        <time>2023-02-25T08:48:52Z</time>
      </trkpt>
      <trkpt lat="43.90423" lon="5.17824">
        <ele>228.2</ele>
        <time>2023-02-25T08:48:55Z</time>
      </trkpt>
      <trkpt lat="43.90424" lon="5.17818">
        <ele>227.6</ele>
        <time>2023-02-25T08:48:58Z</time>
      </trkpt>
      <trkpt lat="43.90432" lon="5.17809">
        <ele>227</ele>
        <time>2023-02-25T08:49:04Z</time>
      </trkpt>
      <trkpt lat="43.90434" lon="5.17808">
        <ele>226.8</ele>
        <time>2023-02-25T08:49:05Z</time>
      </trkpt>
      <trkpt lat="43.9044" lon="5.17806">
        <ele>228.2</ele>
        <time>2023-02-25T08:49:10Z</time>
      </trkpt>
      <trkpt lat="43.90442" lon="5.17804">
        <ele>228.8</ele>
        <time>2023-02-25T08:49:12Z</time>
      </trkpt>
      <trkpt lat="43.90448" lon="5.17796">
        <ele>229</ele>
        <time>2023-02-25T08:49:18Z</time>
      </trkpt>
      <trkpt lat="43.90456" lon="5.17787">
        <ele>229</ele>
        <time>2023-02-25T08:49:25Z</time>
      </trkpt>
      <trkpt lat="43.90469" lon="5.17774">
        <ele>229.6</ele>
        <time>2023-02-25T08:49:35Z</time>
      </trkpt>
      <trkpt lat="43.90472" lon="5.17771">
        <ele>229.8</ele>
        <time>2023-02-25T08:49:37Z</time>
      </trkpt>
      <trkpt lat="43.90479" lon="5.17763">
        <ele>229.8</ele>
        <time>2023-02-25T08:49:43Z</time>
      </trkpt>
      <trkpt lat="43.90486" lon="5.17756">
        <ele>230.4</ele>
        <time>2023-02-25T08:49:49Z</time>
      </trkpt>
      <trkpt lat="43.90495" lon="5.17747">
        <ele>230.4</ele>
        <time>2023-02-25T08:49:56Z</time>
      </trkpt>
      <trkpt lat="43.90499" lon="5.17743">
        <ele>230.8</ele>
        <time>2023-02-25T08:49:59Z</time>
      </trkpt>
      <trkpt lat="43.90504" lon="5.17735">
        <ele>231</ele>
        <time>2023-02-25T08:50:04Z</time>
      </trkpt>
      <trkpt lat="43.90513" lon="5.17725">
        <ele>231.8</ele>
        <time>2023-02-25T08:50:12Z</time>
      </trkpt>
      <trkpt lat="43.90513" lon="5.17726">
        <ele>231.8</ele>
        <time>2023-02-25T08:50:13Z</time>
      </trkpt>
      <trkpt lat="43.90512" lon="5.1773">
        <ele>231.8</ele>
        <time>2023-02-25T08:50:22Z</time>
      </trkpt>
      <trkpt lat="43.90512" lon="5.17731">
        <ele>231.6</ele>
        <time>2023-02-25T08:50:37Z</time>
      </trkpt>
      <trkpt lat="43.90512" lon="5.17731">
        <ele>231.8</ele>
        <time>2023-02-25T08:50:43Z</time>
      </trkpt>
      <trkpt lat="43.90518" lon="5.17731">
        <ele>232.6</ele>
        <time>2023-02-25T08:50:47Z</time>
      </trkpt>
      <trkpt lat="43.9052" lon="5.17731">
        <ele>233</ele>
        <time>2023-02-25T08:50:48Z</time>
      </trkpt>
      <trkpt lat="43.90523" lon="5.1773">
        <ele>234</ele>
        <time>2023-02-25T08:50:50Z</time>
      </trkpt>
      <trkpt lat="43.90528" lon="5.17728">
        <ele>235.2</ele>
        <time>2023-02-25T08:50:54Z</time>
      </trkpt>
      <trkpt lat="43.9053" lon="5.17728">
        <ele>235.6</ele>
        <time>2023-02-25T08:50:55Z</time>
      </trkpt>
      <trkpt lat="43.90532" lon="5.17727">
        <ele>236.4</ele>
        <time>2023-02-25T08:50:57Z</time>
      </trkpt>
      <trkpt lat="43.90538" lon="5.17726">
        <ele>237.4</ele>
        <time>2023-02-25T08:51:01Z</time>
      </trkpt>
      <trkpt lat="43.90539" lon="5.17725">
        <ele>237.4</ele>
        <time>2023-02-25T08:51:02Z</time>
      </trkpt>
      <trkpt lat="43.9054" lon="5.17724">
        <ele>237.6</ele>
        <time>2023-02-25T08:51:03Z</time>
      </trkpt>
      <trkpt lat="43.9055" lon="5.17715">
        <ele>238.6</ele>
        <time>2023-02-25T08:51:11Z</time>
      </trkpt>
      <trkpt lat="43.90563" lon="5.17706">
        <ele>239.6</ele>
        <time>2023-02-25T08:51:20Z</time>
      </trkpt>
      <trkpt lat="43.90569" lon="5.17708">
        <ele>240.8</ele>
        <time>2023-02-25T08:51:25Z</time>
      </trkpt>
      <trkpt lat="43.90571" lon="5.1771">
        <ele>241.6</ele>
        <time>2023-02-25T08:51:27Z</time>
      </trkpt>
      <trkpt lat="43.90572" lon="5.17711">
        <ele>242</ele>
        <time>2023-02-25T08:51:28Z</time>
      </trkpt>
      <trkpt lat="43.90574" lon="5.17717">
        <ele>243</ele>
        <time>2023-02-25T08:51:32Z</time>
      </trkpt>
      <trkpt lat="43.90575" lon="5.17719">
        <ele>244.2</ele>
        <time>2023-02-25T08:51:34Z</time>
      </trkpt>
      <trkpt lat="43.90576" lon="5.17723">
        <ele>245.2</ele>
        <time>2023-02-25T08:51:37Z</time>
      </trkpt>
      <trkpt lat="43.90576" lon="5.17725">
        <ele>246</ele>
        <time>2023-02-25T08:51:39Z</time>
      </trkpt>
      <trkpt lat="43.90575" lon="5.17728">
        <ele>246.6</ele>
        <time>2023-02-25T08:51:41Z</time>
      </trkpt>
      <trkpt lat="43.90574" lon="5.17732">
        <ele>247.6</ele>
        <time>2023-02-25T08:51:44Z</time>
      </trkpt>
      <trkpt lat="43.90574" lon="5.17734">
        <ele>247.8</ele>
        <time>2023-02-25T08:51:45Z</time>
      </trkpt>
      <trkpt lat="43.90574" lon="5.17738">
        <ele>248.8</ele>
        <time>2023-02-25T08:51:48Z</time>
      </trkpt>
      <trkpt lat="43.90572" lon="5.17742">
        <ele>250</ele>
        <time>2023-02-25T08:51:51Z</time>
      </trkpt>
      <trkpt lat="43.90559" lon="5.17755">
        <ele>250</ele>
        <time>2023-02-25T08:52:01Z</time>
      </trkpt>
      <trkpt lat="43.90557" lon="5.17762">
        <ele>250.2</ele>
        <time>2023-02-25T08:52:06Z</time>
      </trkpt>
      <trkpt lat="43.90557" lon="5.17763">
        <ele>250.4</ele>
        <time>2023-02-25T08:52:08Z</time>
      </trkpt>
      <trkpt lat="43.90562" lon="5.17762">
        <ele>251.2</ele>
        <time>2023-02-25T08:52:12Z</time>
      </trkpt>
      <trkpt lat="43.90564" lon="5.17763">
        <ele>251.8</ele>
        <time>2023-02-25T08:52:13Z</time>
      </trkpt>
      <trkpt lat="43.90564" lon="5.17765">
        <ele>252.4</ele>
        <time>2023-02-25T08:52:14Z</time>
      </trkpt>
      <trkpt lat="43.90564" lon="5.17768">
        <ele>252.6</ele>
        <time>2023-02-25T08:52:15Z</time>
      </trkpt>
      <trkpt lat="43.90563" lon="5.17774">
        <ele>253.8</ele>
        <time>2023-02-25T08:52:18Z</time>
      </trkpt>
      <trkpt lat="43.90563" lon="5.17776">
        <ele>254.8</ele>
        <time>2023-02-25T08:52:20Z</time>
      </trkpt>
      <trkpt lat="43.90563" lon="5.17779">
        <ele>255.2</ele>
        <time>2023-02-25T08:52:21Z</time>
      </trkpt>
      <trkpt lat="43.90563" lon="5.17782">
        <ele>256</ele>
        <time>2023-02-25T08:52:23Z</time>
      </trkpt>
      <trkpt lat="43.90562" lon="5.17784">
        <ele>256.4</ele>
        <time>2023-02-25T08:52:25Z</time>
      </trkpt>
      <trkpt lat="43.90562" lon="5.17788">
        <ele>257</ele>
        <time>2023-02-25T08:52:27Z</time>
      </trkpt>
      <trkpt lat="43.90561" lon="5.17789">
        <ele>257.2</ele>
        <time>2023-02-25T08:52:28Z</time>
      </trkpt>
      <trkpt lat="43.90562" lon="5.1779">
        <ele>257.6</ele>
        <time>2023-02-25T08:52:29Z</time>
      </trkpt>
      <trkpt lat="43.90563" lon="5.1779">
        <ele>258.2</ele>
        <time>2023-02-25T08:52:30Z</time>
      </trkpt>
      <trkpt lat="43.90566" lon="5.17791">
        <ele>259.2</ele>
        <time>2023-02-25T08:52:33Z</time>
      </trkpt>
      <trkpt lat="43.90566" lon="5.17792">
        <ele>259.6</ele>
        <time>2023-02-25T08:52:34Z</time>
      </trkpt>
      <trkpt lat="43.90569" lon="5.17796">
        <ele>260.4</ele>
        <time>2023-02-25T08:52:38Z</time>
      </trkpt>
      <trkpt lat="43.90573" lon="5.17796">
        <ele>261.6</ele>
        <time>2023-02-25T08:52:41Z</time>
      </trkpt>
      <trkpt lat="43.90577" lon="5.17799">
        <ele>262.6</ele>
        <time>2023-02-25T08:52:45Z</time>
      </trkpt>
      <trkpt lat="43.90579" lon="5.17807">
        <ele>263.8</ele>
        <time>2023-02-25T08:52:49Z</time>
      </trkpt>
      <trkpt lat="43.90578" lon="5.17812">
        <ele>265</ele>
        <time>2023-02-25T08:52:52Z</time>
      </trkpt>
      <trkpt lat="43.90578" lon="5.17814">
        <ele>265.2</ele>
        <time>2023-02-25T08:52:53Z</time>
      </trkpt>
      <trkpt lat="43.90579" lon="5.17817">
        <ele>265.4</ele>
        <time>2023-02-25T08:52:55Z</time>
      </trkpt>
      <trkpt lat="43.9058" lon="5.17818">
        <ele>265.8</ele>
        <time>2023-02-25T08:52:56Z</time>
      </trkpt>
      <trkpt lat="43.90583" lon="5.17818">
        <ele>266</ele>
        <time>2023-02-25T08:52:58Z</time>
      </trkpt>
      <trkpt lat="43.90587" lon="5.17818">
        <ele>266.8</ele>
        <time>2023-02-25T08:53:01Z</time>
      </trkpt>
      <trkpt lat="43.9059" lon="5.17817">
        <ele>267.2</ele>
        <time>2023-02-25T08:53:03Z</time>
      </trkpt>
      <trkpt lat="43.906" lon="5.17815">
        <ele>268</ele>
        <time>2023-02-25T08:53:10Z</time>
      </trkpt>
      <trkpt lat="43.90604" lon="5.17814">
        <ele>268.2</ele>
        <time>2023-02-25T08:53:13Z</time>
      </trkpt>
      <trkpt lat="43.90611" lon="5.17809">
        <ele>268.8</ele>
        <time>2023-02-25T08:53:18Z</time>
      </trkpt>
      <trkpt lat="43.90615" lon="5.17807">
        <ele>269.2</ele>
        <time>2023-02-25T08:53:21Z</time>
      </trkpt>
      <trkpt lat="43.90621" lon="5.17805">
        <ele>270</ele>
        <time>2023-02-25T08:53:26Z</time>
      </trkpt>
      <trkpt lat="43.90624" lon="5.17804">
        <ele>270.2</ele>
        <time>2023-02-25T08:53:28Z</time>
      </trkpt>
      <trkpt lat="43.90631" lon="5.17803">
        <ele>271</ele>
        <time>2023-02-25T08:53:34Z</time>
      </trkpt>
      <trkpt lat="43.90634" lon="5.17802">
        <ele>271.6</ele>
        <time>2023-02-25T08:53:36Z</time>
      </trkpt>
      <trkpt lat="43.90641" lon="5.17799">
        <ele>272.6</ele>
        <time>2023-02-25T08:53:41Z</time>
      </trkpt>
      <trkpt lat="43.90646" lon="5.17797">
        <ele>273.2</ele>
        <time>2023-02-25T08:53:45Z</time>
      </trkpt>
      <trkpt lat="43.90648" lon="5.17795">
        <ele>273.8</ele>
        <time>2023-02-25T08:53:47Z</time>
      </trkpt>
      <trkpt lat="43.90651" lon="5.17788">
        <ele>274</ele>
        <time>2023-02-25T08:53:52Z</time>
      </trkpt>
      <trkpt lat="43.90656" lon="5.17777">
        <ele>274.4</ele>
        <time>2023-02-25T08:53:59Z</time>
      </trkpt>
      <trkpt lat="43.90662" lon="5.17777">
        <ele>274.8</ele>
        <time>2023-02-25T08:54:04Z</time>
      </trkpt>
      <trkpt lat="43.90663" lon="5.17776">
        <ele>275</ele>
        <time>2023-02-25T08:54:05Z</time>
      </trkpt>
      <trkpt lat="43.9067" lon="5.17768">
        <ele>275.6</ele>
        <time>2023-02-25T08:54:12Z</time>
      </trkpt>
      <trkpt lat="43.90672" lon="5.17765">
        <ele>276</ele>
        <time>2023-02-25T08:54:14Z</time>
      </trkpt>
      <trkpt lat="43.90676" lon="5.17761">
        <ele>276.8</ele>
        <time>2023-02-25T08:54:19Z</time>
      </trkpt>
      <trkpt lat="43.90676" lon="5.17758">
        <ele>276.8</ele>
        <time>2023-02-25T08:54:24Z</time>
      </trkpt>
      <trkpt lat="43.90677" lon="5.17761">
        <ele>276.8</ele>
        <time>2023-02-25T08:54:29Z</time>
      </trkpt>
      <trkpt lat="43.90676" lon="5.17763">
        <ele>276.8</ele>
        <time>2023-02-25T08:54:35Z</time>
      </trkpt>
      <trkpt lat="43.90678" lon="5.17764">
        <ele>276.6</ele>
        <time>2023-02-25T08:54:47Z</time>
      </trkpt>
      <trkpt lat="43.9068" lon="5.17764">
        <ele>276.2</ele>
        <time>2023-02-25T08:55:26Z</time>
      </trkpt>
      <trkpt lat="43.90682" lon="5.17762">
        <ele>275.4</ele>
        <time>2023-02-25T08:56:48Z</time>
      </trkpt>
      <trkpt lat="43.90678" lon="5.17754">
        <ele>276</ele>
        <time>2023-02-25T08:57:55Z</time>
      </trkpt>
      <trkpt lat="43.90689" lon="5.17738">
        <ele>275.8</ele>
        <time>2023-02-25T08:58:03Z</time>
      </trkpt>
      <trkpt lat="43.90699" lon="5.17731">
        <ele>276.4</ele>
        <time>2023-02-25T08:58:10Z</time>
      </trkpt>
      <trkpt lat="43.90712" lon="5.1773">
        <ele>276.6</ele>
        <time>2023-02-25T08:58:18Z</time>
      </trkpt>
      <trkpt lat="43.90715" lon="5.17732">
        <ele>277.2</ele>
        <time>2023-02-25T08:58:20Z</time>
      </trkpt>
      <trkpt lat="43.90724" lon="5.17734">
        <ele>278</ele>
        <time>2023-02-25T08:58:26Z</time>
      </trkpt>
      <trkpt lat="43.90727" lon="5.17735">
        <ele>278.2</ele>
        <time>2023-02-25T08:58:28Z</time>
      </trkpt>
      <trkpt lat="43.90735" lon="5.17738">
        <ele>278.8</ele>
        <time>2023-02-25T08:58:33Z</time>
      </trkpt>
      <trkpt lat="43.90739" lon="5.17741">
        <ele>279.2</ele>
        <time>2023-02-25T08:58:36Z</time>
      </trkpt>
      <trkpt lat="43.90745" lon="5.17743">
        <ele>279.8</ele>
        <time>2023-02-25T08:58:40Z</time>
      </trkpt>
      <trkpt lat="43.90754" lon="5.17741">
        <ele>280.4</ele>
        <time>2023-02-25T08:58:45Z</time>
      </trkpt>
      <trkpt lat="43.90756" lon="5.17742">
        <ele>280.4</ele>
        <time>2023-02-25T08:58:46Z</time>
      </trkpt>
      <trkpt lat="43.90758" lon="5.17742">
        <ele>280.6</ele>
        <time>2023-02-25T08:58:48Z</time>
      </trkpt>
      <trkpt lat="43.90761" lon="5.1774">
        <ele>281</ele>
        <time>2023-02-25T08:58:50Z</time>
      </trkpt>
      <trkpt lat="43.90763" lon="5.1774">
        <ele>281.2</ele>
        <time>2023-02-25T08:58:51Z</time>
      </trkpt>
      <trkpt lat="43.9077" lon="5.17741">
        <ele>281.6</ele>
        <time>2023-02-25T08:58:56Z</time>
      </trkpt>
      <trkpt lat="43.90776" lon="5.17745">
        <ele>282.2</ele>
        <time>2023-02-25T08:59:00Z</time>
      </trkpt>
      <trkpt lat="43.90778" lon="5.17748">
        <ele>282.8</ele>
        <time>2023-02-25T08:59:02Z</time>
      </trkpt>
      <trkpt lat="43.90781" lon="5.17749">
        <ele>283.2</ele>
        <time>2023-02-25T08:59:04Z</time>
      </trkpt>
      <trkpt lat="43.90783" lon="5.17748">
        <ele>283.4</ele>
        <time>2023-02-25T08:59:06Z</time>
      </trkpt>
      <trkpt lat="43.90793" lon="5.17746">
        <ele>283.8</ele>
        <time>2023-02-25T08:59:12Z</time>
      </trkpt>
      <trkpt lat="43.908" lon="5.17745">
        <ele>284.4</ele>
        <time>2023-02-25T08:59:16Z</time>
      </trkpt>
      <trkpt lat="43.90813" lon="5.17744">
        <ele>284.6</ele>
        <time>2023-02-25T08:59:24Z</time>
      </trkpt>
      <trkpt lat="43.90815" lon="5.17745">
        <ele>284.8</ele>
        <time>2023-02-25T08:59:25Z</time>
      </trkpt>
      <trkpt lat="43.90825" lon="5.17749">
        <ele>285.2</ele>
        <time>2023-02-25T08:59:31Z</time>
      </trkpt>
      <trkpt lat="43.9084" lon="5.1775">
        <ele>285</ele>
        <time>2023-02-25T08:59:40Z</time>
      </trkpt>
      <trkpt lat="43.9085" lon="5.17756">
        <ele>284</ele>
        <time>2023-02-25T08:59:47Z</time>
      </trkpt>
      <trkpt lat="43.90853" lon="5.17756">
        <ele>283.6</ele>
        <time>2023-02-25T08:59:49Z</time>
      </trkpt>
      <trkpt lat="43.90861" lon="5.17758">
        <ele>283</ele>
        <time>2023-02-25T08:59:54Z</time>
      </trkpt>
      <trkpt lat="43.9087" lon="5.17758">
        <ele>282.4</ele>
        <time>2023-02-25T09:00:00Z</time>
      </trkpt>
      <trkpt lat="43.90873" lon="5.17759">
        <ele>281.8</ele>
        <time>2023-02-25T09:00:02Z</time>
      </trkpt>
      <trkpt lat="43.90875" lon="5.17761">
        <ele>281.4</ele>
        <time>2023-02-25T09:00:04Z</time>
      </trkpt>
      <trkpt lat="43.90877" lon="5.17761">
        <ele>281.2</ele>
        <time>2023-02-25T09:00:05Z</time>
      </trkpt>
      <trkpt lat="43.90882" lon="5.17762">
        <ele>280.6</ele>
        <time>2023-02-25T09:00:08Z</time>
      </trkpt>
      <trkpt lat="43.90891" lon="5.17762">
        <ele>280</ele>
        <time>2023-02-25T09:00:13Z</time>
      </trkpt>
      <trkpt lat="43.909" lon="5.17762">
        <ele>279.6</ele>
        <time>2023-02-25T09:00:19Z</time>
      </trkpt>
      <trkpt lat="43.90906" lon="5.17763">
        <ele>279</ele>
        <time>2023-02-25T09:00:23Z</time>
      </trkpt>
      <trkpt lat="43.90913" lon="5.17764">
        <ele>278.4</ele>
        <time>2023-02-25T09:00:27Z</time>
      </trkpt>
      <trkpt lat="43.90923" lon="5.17766">
        <ele>277.8</ele>
        <time>2023-02-25T09:00:33Z</time>
      </trkpt>
      <trkpt lat="43.90927" lon="5.17765">
        <ele>277.8</ele>
        <time>2023-02-25T09:00:35Z</time>
      </trkpt>
      <trkpt lat="43.90933" lon="5.17764">
        <ele>276.8</ele>
        <time>2023-02-25T09:00:39Z</time>
      </trkpt>
      <trkpt lat="43.90939" lon="5.17763">
        <ele>276</ele>
        <time>2023-02-25T09:00:43Z</time>
      </trkpt>
      <trkpt lat="43.90942" lon="5.17763">
        <ele>275.6</ele>
        <time>2023-02-25T09:00:45Z</time>
      </trkpt>
      <trkpt lat="43.90954" lon="5.17762">
        <ele>274.8</ele>
        <time>2023-02-25T09:00:52Z</time>
      </trkpt>
      <trkpt lat="43.90956" lon="5.17761">
        <ele>274.6</ele>
        <time>2023-02-25T09:00:53Z</time>
      </trkpt>
      <trkpt lat="43.90962" lon="5.17759">
        <ele>273.8</ele>
        <time>2023-02-25T09:00:57Z</time>
      </trkpt>
      <trkpt lat="43.90962" lon="5.17758">
        <ele>273.4</ele>
        <time>2023-02-25T09:00:58Z</time>
      </trkpt>
      <trkpt lat="43.90958" lon="5.17757">
        <ele>272.6</ele>
        <time>2023-02-25T09:01:02Z</time>
      </trkpt>
      <trkpt lat="43.90955" lon="5.1776">
        <ele>272.2</ele>
        <time>2023-02-25T09:01:04Z</time>
      </trkpt>
      <trkpt lat="43.90947" lon="5.17761">
        <ele>271</ele>
        <time>2023-02-25T09:01:09Z</time>
      </trkpt>
      <trkpt lat="43.90942" lon="5.1776">
        <ele>270.6</ele>
        <time>2023-02-25T09:01:12Z</time>
      </trkpt>
      <trkpt lat="43.90943" lon="5.17756">
        <ele>270</ele>
        <time>2023-02-25T09:01:14Z</time>
      </trkpt>
      <trkpt lat="43.90945" lon="5.17755">
        <ele>269.4</ele>
        <time>2023-02-25T09:01:16Z</time>
      </trkpt>
      <trkpt lat="43.90949" lon="5.17753">
        <ele>268.8</ele>
        <time>2023-02-25T09:01:18Z</time>
      </trkpt>
      <trkpt lat="43.90951" lon="5.17752">
        <ele>268.4</ele>
        <time>2023-02-25T09:01:20Z</time>
      </trkpt>
      <trkpt lat="43.90956" lon="5.17749">
        <ele>267.8</ele>
        <time>2023-02-25T09:01:23Z</time>
      </trkpt>
      <trkpt lat="43.90962" lon="5.17747">
        <ele>266.8</ele>
        <time>2023-02-25T09:01:27Z</time>
      </trkpt>
      <trkpt lat="43.90963" lon="5.17746">
        <ele>266.6</ele>
        <time>2023-02-25T09:01:28Z</time>
      </trkpt>
      <trkpt lat="43.90969" lon="5.17743">
        <ele>265.8</ele>
        <time>2023-02-25T09:01:32Z</time>
      </trkpt>
      <trkpt lat="43.90977" lon="5.1774">
        <ele>264.8</ele>
        <time>2023-02-25T09:01:37Z</time>
      </trkpt>
      <trkpt lat="43.90979" lon="5.17739">
        <ele>264.6</ele>
        <time>2023-02-25T09:01:38Z</time>
      </trkpt>
      <trkpt lat="43.90984" lon="5.17735">
        <ele>263.4</ele>
        <time>2023-02-25T09:01:42Z</time>
      </trkpt>
      <trkpt lat="43.90987" lon="5.17733">
        <ele>263</ele>
        <time>2023-02-25T09:01:44Z</time>
      </trkpt>
      <trkpt lat="43.90994" lon="5.1773">
        <ele>262.4</ele>
        <time>2023-02-25T09:01:48Z</time>
      </trkpt>
      <trkpt lat="43.90999" lon="5.17726">
        <ele>261.8</ele>
        <time>2023-02-25T09:01:51Z</time>
      </trkpt>
      <trkpt lat="43.91005" lon="5.17721">
        <ele>261.2</ele>
        <time>2023-02-25T09:01:55Z</time>
      </trkpt>
      <trkpt lat="43.91011" lon="5.17716">
        <ele>260.2</ele>
        <time>2023-02-25T09:01:59Z</time>
      </trkpt>
      <trkpt lat="43.91012" lon="5.17715">
        <ele>259.8</ele>
        <time>2023-02-25T09:02:00Z</time>
      </trkpt>
      <trkpt lat="43.91017" lon="5.17709">
        <ele>258.8</ele>
        <time>2023-02-25T09:02:04Z</time>
      </trkpt>
      <trkpt lat="43.91018" lon="5.17708">
        <ele>258.6</ele>
        <time>2023-02-25T09:02:05Z</time>
      </trkpt>
      <trkpt lat="43.91023" lon="5.17701">
        <ele>257.6</ele>
        <time>2023-02-25T09:02:10Z</time>
      </trkpt>
      <trkpt lat="43.91025" lon="5.17698">
        <ele>257.2</ele>
        <time>2023-02-25T09:02:12Z</time>
      </trkpt>
      <trkpt lat="43.91027" lon="5.17695">
        <ele>256.6</ele>
        <time>2023-02-25T09:02:14Z</time>
      </trkpt>
      <trkpt lat="43.91032" lon="5.17686">
        <ele>256</ele>
        <time>2023-02-25T09:02:19Z</time>
      </trkpt>
      <trkpt lat="43.91035" lon="5.17677">
        <ele>255.6</ele>
        <time>2023-02-25T09:02:23Z</time>
      </trkpt>
      <trkpt lat="43.91038" lon="5.17672">
        <ele>255.2</ele>
        <time>2023-02-25T09:02:26Z</time>
      </trkpt>
      <trkpt lat="43.9104" lon="5.17669">
        <ele>255</ele>
        <time>2023-02-25T09:02:28Z</time>
      </trkpt>
      <trkpt lat="43.91043" lon="5.17663">
        <ele>254.8</ele>
        <time>2023-02-25T09:02:32Z</time>
      </trkpt>
      <trkpt lat="43.91044" lon="5.17659">
        <ele>254.6</ele>
        <time>2023-02-25T09:02:34Z</time>
      </trkpt>
      <trkpt lat="43.91046" lon="5.17658">
        <ele>254.4</ele>
        <time>2023-02-25T09:02:35Z</time>
      </trkpt>
      <trkpt lat="43.91052" lon="5.17651">
        <ele>253.4</ele>
        <time>2023-02-25T09:02:40Z</time>
      </trkpt>
      <trkpt lat="43.9106" lon="5.17644">
        <ele>252.2</ele>
        <time>2023-02-25T09:02:46Z</time>
      </trkpt>
      <trkpt lat="43.91064" lon="5.1764">
        <ele>251.4</ele>
        <time>2023-02-25T09:02:49Z</time>
      </trkpt>
      <trkpt lat="43.91067" lon="5.17637">
        <ele>251</ele>
        <time>2023-02-25T09:02:51Z</time>
      </trkpt>
      <trkpt lat="43.91071" lon="5.17633">
        <ele>250.4</ele>
        <time>2023-02-25T09:02:54Z</time>
      </trkpt>
      <trkpt lat="43.91074" lon="5.1763">
        <ele>250.4</ele>
        <time>2023-02-25T09:02:56Z</time>
      </trkpt>
      <trkpt lat="43.91077" lon="5.17626">
        <ele>249.8</ele>
        <time>2023-02-25T09:02:58Z</time>
      </trkpt>
      <trkpt lat="43.91078" lon="5.17625">
        <ele>249.8</ele>
        <time>2023-02-25T09:02:59Z</time>
      </trkpt>
      <trkpt lat="43.91084" lon="5.17619">
        <ele>249.2</ele>
        <time>2023-02-25T09:03:03Z</time>
      </trkpt>
      <trkpt lat="43.9109" lon="5.17611">
        <ele>248.6</ele>
        <time>2023-02-25T09:03:07Z</time>
      </trkpt>
      <trkpt lat="43.91093" lon="5.17607">
        <ele>248.2</ele>
        <time>2023-02-25T09:03:10Z</time>
      </trkpt>
      <trkpt lat="43.91096" lon="5.17605">
        <ele>247.4</ele>
        <time>2023-02-25T09:03:12Z</time>
      </trkpt>
      <trkpt lat="43.91099" lon="5.17602">
        <ele>246.2</ele>
        <time>2023-02-25T09:03:15Z</time>
      </trkpt>
      <trkpt lat="43.911" lon="5.17601">
        <ele>245.8</ele>
        <time>2023-02-25T09:03:16Z</time>
      </trkpt>
      <trkpt lat="43.91103" lon="5.17599">
        <ele>245</ele>
        <time>2023-02-25T09:03:18Z</time>
      </trkpt>
      <trkpt lat="43.91112" lon="5.17596">
        <ele>244</ele>
        <time>2023-02-25T09:03:24Z</time>
      </trkpt>
      <trkpt lat="43.91115" lon="5.17594">
        <ele>244</ele>
        <time>2023-02-25T09:03:27Z</time>
      </trkpt>
      <trkpt lat="43.91117" lon="5.17594">
        <ele>244</ele>
        <time>2023-02-25T09:03:30Z</time>
      </trkpt>
      <trkpt lat="43.91118" lon="5.17595">
        <ele>244</ele>
        <time>2023-02-25T09:03:31Z</time>
      </trkpt>
      <trkpt lat="43.91118" lon="5.17595">
        <ele>244</ele>
        <time>2023-02-25T09:03:32Z</time>
      </trkpt>
      <trkpt lat="43.91117" lon="5.17595">
        <ele>244</ele>
        <time>2023-02-25T09:03:34Z</time>
      </trkpt>
      <trkpt lat="43.91119" lon="5.17597">
        <ele>244</ele>
        <time>2023-02-25T09:03:44Z</time>
      </trkpt>
      <trkpt lat="43.91125" lon="5.17596">
        <ele>244.6</ele>
        <time>2023-02-25T09:04:33Z</time>
      </trkpt>
      <trkpt lat="43.91138" lon="5.1759">
        <ele>245.2</ele>
        <time>2023-02-25T09:04:40Z</time>
      </trkpt>
      <trkpt lat="43.91145" lon="5.17587">
        <ele>246</ele>
        <time>2023-02-25T09:04:45Z</time>
      </trkpt>
      <trkpt lat="43.91146" lon="5.17585">
        <ele>246.2</ele>
        <time>2023-02-25T09:04:46Z</time>
      </trkpt>
      <trkpt lat="43.91153" lon="5.17574">
        <ele>247</ele>
        <time>2023-02-25T09:04:53Z</time>
      </trkpt>
      <trkpt lat="43.91154" lon="5.17574">
        <ele>247</ele>
        <time>2023-02-25T09:04:54Z</time>
      </trkpt>
      <trkpt lat="43.91156" lon="5.17573">
        <ele>247.2</ele>
        <time>2023-02-25T09:04:55Z</time>
      </trkpt>
      <trkpt lat="43.91168" lon="5.1757">
        <ele>248.2</ele>
        <time>2023-02-25T09:05:03Z</time>
      </trkpt>
      <trkpt lat="43.9117" lon="5.1757">
        <ele>248.2</ele>
        <time>2023-02-25T09:05:04Z</time>
      </trkpt>
      <trkpt lat="43.9118" lon="5.1757">
        <ele>249.4</ele>
        <time>2023-02-25T09:05:10Z</time>
      </trkpt>
      <trkpt lat="43.91189" lon="5.17571">
        <ele>249.8</ele>
        <time>2023-02-25T09:05:17Z</time>
      </trkpt>
      <trkpt lat="43.91196" lon="5.17568">
        <ele>250.6</ele>
        <time>2023-02-25T09:05:21Z</time>
      </trkpt>
      <trkpt lat="43.91205" lon="5.17564">
        <ele>251</ele>
        <time>2023-02-25T09:05:26Z</time>
      </trkpt>
      <trkpt lat="43.91217" lon="5.17566">
        <ele>250.8</ele>
        <time>2023-02-25T09:05:34Z</time>
      </trkpt>
      <trkpt lat="43.91235" lon="5.17571">
        <ele>251.2</ele>
        <time>2023-02-25T09:05:44Z</time>
      </trkpt>
      <trkpt lat="43.91246" lon="5.17575">
        <ele>250.4</ele>
        <time>2023-02-25T09:05:51Z</time>
      </trkpt>
      <trkpt lat="43.91248" lon="5.17573">
        <ele>250.2</ele>
        <time>2023-02-25T09:05:53Z</time>
      </trkpt>
      <trkpt lat="43.9125" lon="5.17571">
        <ele>249.8</ele>
        <time>2023-02-25T09:05:56Z</time>
      </trkpt>
      <trkpt lat="43.91252" lon="5.17564">
        <ele>251.2</ele>
        <time>2023-02-25T09:06:01Z</time>
      </trkpt>
      <trkpt lat="43.91253" lon="5.17563">
        <ele>251.8</ele>
        <time>2023-02-25T09:06:02Z</time>
      </trkpt>
      <trkpt lat="43.91255" lon="5.17562">
        <ele>252.2</ele>
        <time>2023-02-25T09:06:03Z</time>
      </trkpt>
      <trkpt lat="43.91267" lon="5.17562">
        <ele>252.8</ele>
        <time>2023-02-25T09:06:11Z</time>
      </trkpt>
      <trkpt lat="43.91279" lon="5.17566">
        <ele>253.6</ele>
        <time>2023-02-25T09:06:19Z</time>
      </trkpt>
      <trkpt lat="43.91283" lon="5.17567">
        <ele>253.8</ele>
        <time>2023-02-25T09:06:22Z</time>
      </trkpt>
      <trkpt lat="43.91286" lon="5.17569">
        <ele>254</ele>
        <time>2023-02-25T09:06:24Z</time>
      </trkpt>
      <trkpt lat="43.9129" lon="5.17574">
        <ele>254</ele>
        <time>2023-02-25T09:06:27Z</time>
      </trkpt>
      <trkpt lat="43.91296" lon="5.17585">
        <ele>252.8</ele>
        <time>2023-02-25T09:06:33Z</time>
      </trkpt>
      <trkpt lat="43.91297" lon="5.17587">
        <ele>252.4</ele>
        <time>2023-02-25T09:06:34Z</time>
      </trkpt>
      <trkpt lat="43.91299" lon="5.1759">
        <ele>251.8</ele>
        <time>2023-02-25T09:06:36Z</time>
      </trkpt>
      <trkpt lat="43.91304" lon="5.17594">
        <ele>251.8</ele>
        <time>2023-02-25T09:06:40Z</time>
      </trkpt>
      <trkpt lat="43.9131" lon="5.17596">
        <ele>253</ele>
        <time>2023-02-25T09:06:44Z</time>
      </trkpt>
      <trkpt lat="43.91314" lon="5.17598">
        <ele>253.8</ele>
        <time>2023-02-25T09:06:48Z</time>
      </trkpt>
      <trkpt lat="43.91325" lon="5.176">
        <ele>254</ele>
        <time>2023-02-25T09:06:54Z</time>
      </trkpt>
      <trkpt lat="43.9133" lon="5.17603">
        <ele>254.4</ele>
        <time>2023-02-25T09:06:57Z</time>
      </trkpt>
      <trkpt lat="43.91339" lon="5.17604">
        <ele>255</ele>
        <time>2023-02-25T09:07:02Z</time>
      </trkpt>
      <trkpt lat="43.91343" lon="5.17606">
        <ele>255.2</ele>
        <time>2023-02-25T09:07:05Z</time>
      </trkpt>
      <trkpt lat="43.9135" lon="5.17609">
        <ele>255</ele>
        <time>2023-02-25T09:07:11Z</time>
      </trkpt>
      <trkpt lat="43.91364" lon="5.17609">
        <ele>254.4</ele>
        <time>2023-02-25T09:07:20Z</time>
      </trkpt>
      <trkpt lat="43.9137" lon="5.17607">
        <ele>254.8</ele>
        <time>2023-02-25T09:07:24Z</time>
      </trkpt>
      <trkpt lat="43.91373" lon="5.17608">
        <ele>255</ele>
        <time>2023-02-25T09:07:26Z</time>
      </trkpt>
      <trkpt lat="43.91381" lon="5.1761">
        <ele>256.2</ele>
        <time>2023-02-25T09:07:33Z</time>
      </trkpt>
      <trkpt lat="43.91382" lon="5.1761">
        <ele>256.4</ele>
        <time>2023-02-25T09:07:34Z</time>
      </trkpt>
      <trkpt lat="43.91391" lon="5.17615">
        <ele>257.2</ele>
        <time>2023-02-25T09:07:40Z</time>
      </trkpt>
      <trkpt lat="43.91396" lon="5.17616">
        <ele>257.4</ele>
        <time>2023-02-25T09:07:43Z</time>
      </trkpt>
      <trkpt lat="43.91399" lon="5.17616">
        <ele>257.6</ele>
        <time>2023-02-25T09:07:45Z</time>
      </trkpt>
      <trkpt lat="43.91407" lon="5.17615">
        <ele>258</ele>
        <time>2023-02-25T09:07:50Z</time>
      </trkpt>
      <trkpt lat="43.9141" lon="5.17615">
        <ele>258.4</ele>
        <time>2023-02-25T09:07:52Z</time>
      </trkpt>
      <trkpt lat="43.91418" lon="5.17616">
        <ele>259.6</ele>
        <time>2023-02-25T09:07:56Z</time>
      </trkpt>
      <trkpt lat="43.91422" lon="5.17616">
        <ele>260</ele>
        <time>2023-02-25T09:07:58Z</time>
      </trkpt>
      <trkpt lat="43.91433" lon="5.17618">
        <ele>260.6</ele>
        <time>2023-02-25T09:08:06Z</time>
      </trkpt>
      <trkpt lat="43.91434" lon="5.17619">
        <ele>260.6</ele>
        <time>2023-02-25T09:08:07Z</time>
      </trkpt>
      <trkpt lat="43.91436" lon="5.17619">
        <ele>260.6</ele>
        <time>2023-02-25T09:08:08Z</time>
      </trkpt>
      <trkpt lat="43.91443" lon="5.17621">
        <ele>260.8</ele>
        <time>2023-02-25T09:08:13Z</time>
      </trkpt>
      <trkpt lat="43.91456" lon="5.17626">
        <ele>261</ele>
        <time>2023-02-25T09:08:21Z</time>
      </trkpt>
      <trkpt lat="43.91468" lon="5.17632">
        <ele>261.4</ele>
        <time>2023-02-25T09:08:29Z</time>
      </trkpt>
      <trkpt lat="43.91475" lon="5.17635">
        <ele>261.6</ele>
        <time>2023-02-25T09:08:33Z</time>
      </trkpt>
      <trkpt lat="43.91486" lon="5.17643">
        <ele>262</ele>
        <time>2023-02-25T09:08:39Z</time>
      </trkpt>
      <trkpt lat="43.91488" lon="5.17655">
        <ele>262.2</ele>
        <time>2023-02-25T09:08:45Z</time>
      </trkpt>
      <trkpt lat="43.9149" lon="5.17662">
        <ele>262.2</ele>
        <time>2023-02-25T09:08:49Z</time>
      </trkpt>
      <trkpt lat="43.9149" lon="5.17663">
        <ele>262.4</ele>
        <time>2023-02-25T09:08:51Z</time>
      </trkpt>
      <trkpt lat="43.91484" lon="5.17668">
        <ele>262</ele>
        <time>2023-02-25T09:09:03Z</time>
      </trkpt>
      <trkpt lat="43.91487" lon="5.17665">
        <ele>262</ele>
        <time>2023-02-25T09:09:19Z</time>
      </trkpt>
      <trkpt lat="43.91488" lon="5.17665">
        <ele>262</ele>
        <time>2023-02-25T09:09:41Z</time>
      </trkpt>
      <trkpt lat="43.91486" lon="5.17665">
        <ele>262</ele>
        <time>2023-02-25T09:10:18Z</time>
      </trkpt>
      <trkpt lat="43.91491" lon="5.17668">
        <ele>262</ele>
        <time>2023-02-25T09:10:22Z</time>
      </trkpt>
      <trkpt lat="43.91493" lon="5.17667">
        <ele>262.2</ele>
        <time>2023-02-25T09:10:23Z</time>
      </trkpt>
      <trkpt lat="43.91499" lon="5.17662">
        <ele>262.4</ele>
        <time>2023-02-25T09:10:27Z</time>
      </trkpt>
      <trkpt lat="43.91504" lon="5.1766">
        <ele>262.6</ele>
        <time>2023-02-25T09:10:31Z</time>
      </trkpt>
      <trkpt lat="43.91507" lon="5.17657">
        <ele>262.8</ele>
        <time>2023-02-25T09:10:34Z</time>
      </trkpt>
      <trkpt lat="43.91516" lon="5.17651">
        <ele>263.4</ele>
        <time>2023-02-25T09:10:40Z</time>
      </trkpt>
      <trkpt lat="43.91522" lon="5.17649">
        <ele>263.8</ele>
        <time>2023-02-25T09:10:43Z</time>
      </trkpt>
      <trkpt lat="43.91533" lon="5.17642">
        <ele>264.4</ele>
        <time>2023-02-25T09:10:51Z</time>
      </trkpt>
      <trkpt lat="43.91537" lon="5.17637">
        <ele>264.4</ele>
        <time>2023-02-25T09:10:54Z</time>
      </trkpt>
      <trkpt lat="43.91541" lon="5.17635">
        <ele>264.8</ele>
        <time>2023-02-25T09:10:56Z</time>
      </trkpt>
      <trkpt lat="43.91544" lon="5.17634">
        <ele>265</ele>
        <time>2023-02-25T09:10:58Z</time>
      </trkpt>
      <trkpt lat="43.91558" lon="5.17631">
        <ele>265.6</ele>
        <time>2023-02-25T09:11:07Z</time>
      </trkpt>
      <trkpt lat="43.91575" lon="5.17631">
        <ele>265.6</ele>
        <time>2023-02-25T09:11:17Z</time>
      </trkpt>
      <trkpt lat="43.91581" lon="5.17632">
        <ele>265.8</ele>
        <time>2023-02-25T09:11:20Z</time>
      </trkpt>
      <trkpt lat="43.9159" lon="5.17633">
        <ele>266.4</ele>
        <time>2023-02-25T09:11:26Z</time>
      </trkpt>
      <trkpt lat="43.91603" lon="5.17633">
        <ele>266.6</ele>
        <time>2023-02-25T09:11:34Z</time>
      </trkpt>
      <trkpt lat="43.91608" lon="5.17633">
        <ele>266.8</ele>
        <time>2023-02-25T09:11:37Z</time>
      </trkpt>
      <trkpt lat="43.91617" lon="5.17639">
        <ele>267.2</ele>
        <time>2023-02-25T09:11:42Z</time>
      </trkpt>
      <trkpt lat="43.9163" lon="5.17644">
        <ele>267.6</ele>
        <time>2023-02-25T09:11:50Z</time>
      </trkpt>
      <trkpt lat="43.91632" lon="5.17646">
        <ele>267.8</ele>
        <time>2023-02-25T09:11:52Z</time>
      </trkpt>
      <trkpt lat="43.91638" lon="5.17649">
        <ele>268.4</ele>
        <time>2023-02-25T09:11:57Z</time>
      </trkpt>
      <trkpt lat="43.91652" lon="5.17648">
        <ele>269</ele>
        <time>2023-02-25T09:12:05Z</time>
      </trkpt>
      <trkpt lat="43.91654" lon="5.17648">
        <ele>269</ele>
        <time>2023-02-25T09:12:06Z</time>
      </trkpt>
      <trkpt lat="43.91663" lon="5.17644">
        <ele>269.6</ele>
        <time>2023-02-25T09:12:13Z</time>
      </trkpt>
      <trkpt lat="43.91665" lon="5.17642">
        <ele>270</ele>
        <time>2023-02-25T09:12:15Z</time>
      </trkpt>
      <trkpt lat="43.91675" lon="5.17638">
        <ele>271.2</ele>
        <time>2023-02-25T09:12:22Z</time>
      </trkpt>
      <trkpt lat="43.91678" lon="5.17637">
        <ele>271.4</ele>
        <time>2023-02-25T09:12:24Z</time>
      </trkpt>
      <trkpt lat="43.91691" lon="5.17633">
        <ele>272.2</ele>
        <time>2023-02-25T09:12:32Z</time>
      </trkpt>
      <trkpt lat="43.91694" lon="5.17631">
        <ele>272.4</ele>
        <time>2023-02-25T09:12:34Z</time>
      </trkpt>
      <trkpt lat="43.91704" lon="5.17625">
        <ele>273.2</ele>
        <time>2023-02-25T09:12:43Z</time>
      </trkpt>
      <trkpt lat="43.91708" lon="5.17623">
        <ele>273.6</ele>
        <time>2023-02-25T09:12:45Z</time>
      </trkpt>
      <trkpt lat="43.91713" lon="5.17622">
        <ele>273.8</ele>
        <time>2023-02-25T09:12:48Z</time>
      </trkpt>
      <trkpt lat="43.91716" lon="5.17621">
        <ele>273.8</ele>
        <time>2023-02-25T09:12:51Z</time>
      </trkpt>
      <trkpt lat="43.91733" lon="5.17617">
        <ele>274.2</ele>
        <time>2023-02-25T09:13:01Z</time>
      </trkpt>
      <trkpt lat="43.91735" lon="5.17618">
        <ele>274</ele>
        <time>2023-02-25T09:13:03Z</time>
      </trkpt>
      <trkpt lat="43.91742" lon="5.17622">
        <ele>274.4</ele>
        <time>2023-02-25T09:13:08Z</time>
      </trkpt>
      <trkpt lat="43.91743" lon="5.17623">
        <ele>274.6</ele>
        <time>2023-02-25T09:13:09Z</time>
      </trkpt>
      <trkpt lat="43.91753" lon="5.17624">
        <ele>275</ele>
        <time>2023-02-25T09:13:15Z</time>
      </trkpt>
      <trkpt lat="43.91761" lon="5.17623">
        <ele>275.6</ele>
        <time>2023-02-25T09:13:20Z</time>
      </trkpt>
      <trkpt lat="43.91764" lon="5.17623">
        <ele>276</ele>
        <time>2023-02-25T09:13:22Z</time>
      </trkpt>
      <trkpt lat="43.91771" lon="5.1762">
        <ele>276.8</ele>
        <time>2023-02-25T09:13:27Z</time>
      </trkpt>
      <trkpt lat="43.91773" lon="5.17617">
        <ele>276.8</ele>
        <time>2023-02-25T09:13:29Z</time>
      </trkpt>
      <trkpt lat="43.91775" lon="5.17604">
        <ele>277.4</ele>
        <time>2023-02-25T09:13:36Z</time>
      </trkpt>
      <trkpt lat="43.91775" lon="5.17591">
        <ele>277.8</ele>
        <time>2023-02-25T09:13:42Z</time>
      </trkpt>
      <trkpt lat="43.91773" lon="5.17579">
        <ele>278.6</ele>
        <time>2023-02-25T09:13:49Z</time>
      </trkpt>
      <trkpt lat="43.91773" lon="5.17571">
        <ele>278.8</ele>
        <time>2023-02-25T09:13:53Z</time>
      </trkpt>
      <trkpt lat="43.91774" lon="5.17559">
        <ele>279.6</ele>
        <time>2023-02-25T09:13:58Z</time>
      </trkpt>
      <trkpt lat="43.91774" lon="5.17556">
        <ele>279.8</ele>
        <time>2023-02-25T09:14:00Z</time>
      </trkpt>
      <trkpt lat="43.91773" lon="5.17542">
        <ele>280.2</ele>
        <time>2023-02-25T09:14:06Z</time>
      </trkpt>
      <trkpt lat="43.91776" lon="5.17534">
        <ele>281</ele>
        <time>2023-02-25T09:14:10Z</time>
      </trkpt>
      <trkpt lat="43.91777" lon="5.17533">
        <ele>281.2</ele>
        <time>2023-02-25T09:14:11Z</time>
      </trkpt>
      <trkpt lat="43.91786" lon="5.17522">
        <ele>281.8</ele>
        <time>2023-02-25T09:14:18Z</time>
      </trkpt>
      <trkpt lat="43.91787" lon="5.17519">
        <ele>282</ele>
        <time>2023-02-25T09:14:20Z</time>
      </trkpt>
      <trkpt lat="43.91795" lon="5.17511">
        <ele>282.8</ele>
        <time>2023-02-25T09:14:26Z</time>
      </trkpt>
      <trkpt lat="43.91797" lon="5.17508">
        <ele>283.2</ele>
        <time>2023-02-25T09:14:28Z</time>
      </trkpt>
      <trkpt lat="43.9181" lon="5.175">
        <ele>283.6</ele>
        <time>2023-02-25T09:14:36Z</time>
      </trkpt>
      <trkpt lat="43.91817" lon="5.17489">
        <ele>284.2</ele>
        <time>2023-02-25T09:14:42Z</time>
      </trkpt>
      <trkpt lat="43.91819" lon="5.17484">
        <ele>284.2</ele>
        <time>2023-02-25T09:14:45Z</time>
      </trkpt>
      <trkpt lat="43.91819" lon="5.17482">
        <ele>284.4</ele>
        <time>2023-02-25T09:14:46Z</time>
      </trkpt>
      <trkpt lat="43.91819" lon="5.17476">
        <ele>284.6</ele>
        <time>2023-02-25T09:14:50Z</time>
      </trkpt>
      <trkpt lat="43.91823" lon="5.17474">
        <ele>285</ele>
        <time>2023-02-25T09:15:05Z</time>
      </trkpt>
      <trkpt lat="43.91824" lon="5.17474">
        <ele>285.2</ele>
        <time>2023-02-25T09:15:29Z</time>
      </trkpt>
      <trkpt lat="43.91817" lon="5.17477">
        <ele>286.2</ele>
        <time>2023-02-25T09:17:34Z</time>
      </trkpt>
      <trkpt lat="43.91816" lon="5.17476">
        <ele>286.4</ele>
        <time>2023-02-25T09:17:35Z</time>
      </trkpt>
      <trkpt lat="43.91809" lon="5.17473">
        <ele>287</ele>
        <time>2023-02-25T09:17:39Z</time>
      </trkpt>
      <trkpt lat="43.91803" lon="5.17466">
        <ele>287.6</ele>
        <time>2023-02-25T09:17:43Z</time>
      </trkpt>
      <trkpt lat="43.918" lon="5.17459">
        <ele>288.4</ele>
        <time>2023-02-25T09:17:47Z</time>
      </trkpt>
      <trkpt lat="43.91797" lon="5.17454">
        <ele>288.6</ele>
        <time>2023-02-25T09:17:50Z</time>
      </trkpt>
      <trkpt lat="43.91796" lon="5.17444">
        <ele>289.2</ele>
        <time>2023-02-25T09:17:54Z</time>
      </trkpt>
      <trkpt lat="43.91795" lon="5.1744">
        <ele>289.8</ele>
        <time>2023-02-25T09:17:56Z</time>
      </trkpt>
      <trkpt lat="43.91791" lon="5.1743">
        <ele>290.4</ele>
        <time>2023-02-25T09:18:02Z</time>
      </trkpt>
      <trkpt lat="43.91789" lon="5.17426">
        <ele>290.8</ele>
        <time>2023-02-25T09:18:04Z</time>
      </trkpt>
      <trkpt lat="43.91786" lon="5.17414">
        <ele>292</ele>
        <time>2023-02-25T09:18:11Z</time>
      </trkpt>
      <trkpt lat="43.91785" lon="5.17402">
        <ele>293</ele>
        <time>2023-02-25T09:18:16Z</time>
      </trkpt>
      <trkpt lat="43.91786" lon="5.17395">
        <ele>293.4</ele>
        <time>2023-02-25T09:18:19Z</time>
      </trkpt>
      <trkpt lat="43.91787" lon="5.17393">
        <ele>293.4</ele>
        <time>2023-02-25T09:18:20Z</time>
      </trkpt>
      <trkpt lat="43.91789" lon="5.17382">
        <ele>294.2</ele>
        <time>2023-02-25T09:18:26Z</time>
      </trkpt>
      <trkpt lat="43.9179" lon="5.17381">
        <ele>294.4</ele>
        <time>2023-02-25T09:18:27Z</time>
      </trkpt>
      <trkpt lat="43.91791" lon="5.17364">
        <ele>295.4</ele>
        <time>2023-02-25T09:18:35Z</time>
      </trkpt>
      <trkpt lat="43.91792" lon="5.17356">
        <ele>296</ele>
        <time>2023-02-25T09:18:39Z</time>
      </trkpt>
      <trkpt lat="43.91793" lon="5.17349">
        <ele>296.4</ele>
        <time>2023-02-25T09:18:42Z</time>
      </trkpt>
      <trkpt lat="43.91793" lon="5.17347">
        <ele>296.6</ele>
        <time>2023-02-25T09:18:43Z</time>
      </trkpt>
      <trkpt lat="43.9179" lon="5.17336">
        <ele>297.8</ele>
        <time>2023-02-25T09:18:49Z</time>
      </trkpt>
      <trkpt lat="43.9179" lon="5.17335">
        <ele>298</ele>
        <time>2023-02-25T09:18:50Z</time>
      </trkpt>
      <trkpt lat="43.91791" lon="5.17323">
        <ele>298.8</ele>
        <time>2023-02-25T09:18:56Z</time>
      </trkpt>
      <trkpt lat="43.91791" lon="5.17321">
        <ele>299</ele>
        <time>2023-02-25T09:18:57Z</time>
      </trkpt>
      <trkpt lat="43.91791" lon="5.17315">
        <ele>299.4</ele>
        <time>2023-02-25T09:19:00Z</time>
      </trkpt>
      <trkpt lat="43.91793" lon="5.17308">
        <ele>300</ele>
        <time>2023-02-25T09:19:04Z</time>
      </trkpt>
      <trkpt lat="43.91794" lon="5.17307">
        <ele>300.2</ele>
        <time>2023-02-25T09:19:05Z</time>
      </trkpt>
      <trkpt lat="43.91795" lon="5.17298">
        <ele>300.8</ele>
        <time>2023-02-25T09:19:10Z</time>
      </trkpt>
      <trkpt lat="43.91792" lon="5.17292">
        <ele>301.2</ele>
        <time>2023-02-25T09:19:13Z</time>
      </trkpt>
      <trkpt lat="43.91792" lon="5.17283">
        <ele>302.2</ele>
        <time>2023-02-25T09:19:17Z</time>
      </trkpt>
      <trkpt lat="43.91791" lon="5.17275">
        <ele>302.6</ele>
        <time>2023-02-25T09:19:21Z</time>
      </trkpt>
      <trkpt lat="43.9179" lon="5.17269">
        <ele>303.2</ele>
        <time>2023-02-25T09:19:24Z</time>
      </trkpt>
      <trkpt lat="43.91789" lon="5.17257">
        <ele>304.4</ele>
        <time>2023-02-25T09:19:31Z</time>
      </trkpt>
      <trkpt lat="43.91789" lon="5.17256">
        <ele>304.8</ele>
        <time>2023-02-25T09:19:32Z</time>
      </trkpt>
      <trkpt lat="43.91785" lon="5.17244">
        <ele>305.6</ele>
        <time>2023-02-25T09:19:40Z</time>
      </trkpt>
      <trkpt lat="43.91785" lon="5.17236">
        <ele>306.8</ele>
        <time>2023-02-25T09:19:45Z</time>
      </trkpt>
      <trkpt lat="43.91784" lon="5.17233">
        <ele>307</ele>
        <time>2023-02-25T09:19:47Z</time>
      </trkpt>
      <trkpt lat="43.9178" lon="5.1723">
        <ele>308</ele>
        <time>2023-02-25T09:19:51Z</time>
      </trkpt>
      <trkpt lat="43.91777" lon="5.17232">
        <ele>308.4</ele>
        <time>2023-02-25T09:19:54Z</time>
      </trkpt>
      <trkpt lat="43.91777" lon="5.17235">
        <ele>309</ele>
        <time>2023-02-25T09:19:56Z</time>
      </trkpt>
      <trkpt lat="43.91776" lon="5.17243">
        <ele>309.6</ele>
        <time>2023-02-25T09:20:00Z</time>
      </trkpt>
      <trkpt lat="43.91778" lon="5.17247">
        <ele>310.2</ele>
        <time>2023-02-25T09:20:03Z</time>
      </trkpt>
      <trkpt lat="43.9178" lon="5.17249">
        <ele>310.6</ele>
        <time>2023-02-25T09:20:05Z</time>
      </trkpt>
      <trkpt lat="43.91781" lon="5.17252">
        <ele>311.2</ele>
        <time>2023-02-25T09:20:07Z</time>
      </trkpt>
      <trkpt lat="43.91782" lon="5.17254">
        <ele>311.4</ele>
        <time>2023-02-25T09:20:08Z</time>
      </trkpt>
      <trkpt lat="43.91782" lon="5.17257">
        <ele>311.6</ele>
        <time>2023-02-25T09:20:10Z</time>
      </trkpt>
      <trkpt lat="43.91783" lon="5.17262">
        <ele>311.8</ele>
        <time>2023-02-25T09:20:12Z</time>
      </trkpt>
      <trkpt lat="43.91783" lon="5.17271">
        <ele>312.6</ele>
        <time>2023-02-25T09:20:15Z</time>
      </trkpt>
      <trkpt lat="43.91783" lon="5.17273">
        <ele>312.6</ele>
        <time>2023-02-25T09:20:16Z</time>
      </trkpt>
      <trkpt lat="43.9178" lon="5.17288">
        <ele>313</ele>
        <time>2023-02-25T09:20:23Z</time>
      </trkpt>
      <trkpt lat="43.9178" lon="5.17295">
        <ele>313.6</ele>
        <time>2023-02-25T09:20:27Z</time>
      </trkpt>
      <trkpt lat="43.9178" lon="5.17296">
        <ele>313.6</ele>
        <time>2023-02-25T09:20:28Z</time>
      </trkpt>
      <trkpt lat="43.91776" lon="5.17308">
        <ele>314.6</ele>
        <time>2023-02-25T09:20:34Z</time>
      </trkpt>
      <trkpt lat="43.91776" lon="5.1731">
        <ele>314.6</ele>
        <time>2023-02-25T09:20:35Z</time>
      </trkpt>
      <trkpt lat="43.91774" lon="5.17326">
        <ele>315.4</ele>
        <time>2023-02-25T09:20:43Z</time>
      </trkpt>
      <trkpt lat="43.91769" lon="5.17333">
        <ele>315.6</ele>
        <time>2023-02-25T09:20:47Z</time>
      </trkpt>
      <trkpt lat="43.91765" lon="5.17339">
        <ele>316.8</ele>
        <time>2023-02-25T09:20:52Z</time>
      </trkpt>
      <trkpt lat="43.91758" lon="5.17354">
        <ele>317.8</ele>
        <time>2023-02-25T09:20:59Z</time>
      </trkpt>
      <trkpt lat="43.91751" lon="5.17364">
        <ele>319</ele>
        <time>2023-02-25T09:21:05Z</time>
      </trkpt>
      <trkpt lat="43.9175" lon="5.17365">
        <ele>319</ele>
        <time>2023-02-25T09:21:06Z</time>
      </trkpt>
      <trkpt lat="43.91748" lon="5.17371">
        <ele>319.4</ele>
        <time>2023-02-25T09:21:10Z</time>
      </trkpt>
      <trkpt lat="43.91748" lon="5.17375">
        <ele>319.8</ele>
        <time>2023-02-25T09:21:12Z</time>
      </trkpt>
      <trkpt lat="43.91747" lon="5.17377">
        <ele>320</ele>
        <time>2023-02-25T09:21:13Z</time>
      </trkpt>
      <trkpt lat="43.91743" lon="5.17393">
        <ele>320.8</ele>
        <time>2023-02-25T09:21:21Z</time>
      </trkpt>
      <trkpt lat="43.91742" lon="5.17395">
        <ele>321.2</ele>
        <time>2023-02-25T09:21:22Z</time>
      </trkpt>
      <trkpt lat="43.91738" lon="5.17401">
        <ele>322.2</ele>
        <time>2023-02-25T09:21:27Z</time>
      </trkpt>
      <trkpt lat="43.91734" lon="5.17405">
        <ele>323.2</ele>
        <time>2023-02-25T09:21:31Z</time>
      </trkpt>
      <trkpt lat="43.91733" lon="5.17405">
        <ele>323.6</ele>
        <time>2023-02-25T09:21:32Z</time>
      </trkpt>
      <trkpt lat="43.91724" lon="5.17406">
        <ele>324.2</ele>
        <time>2023-02-25T09:21:38Z</time>
      </trkpt>
      <trkpt lat="43.91714" lon="5.17407">
        <ele>325.4</ele>
        <time>2023-02-25T09:21:44Z</time>
      </trkpt>
      <trkpt lat="43.91708" lon="5.17407">
        <ele>326</ele>
        <time>2023-02-25T09:21:47Z</time>
      </trkpt>
      <trkpt lat="43.91705" lon="5.17407">
        <ele>326.4</ele>
        <time>2023-02-25T09:21:49Z</time>
      </trkpt>
      <trkpt lat="43.91695" lon="5.1741">
        <ele>326.8</ele>
        <time>2023-02-25T09:21:55Z</time>
      </trkpt>
      <trkpt lat="43.91683" lon="5.17408">
        <ele>327.4</ele>
        <time>2023-02-25T09:22:03Z</time>
      </trkpt>
      <trkpt lat="43.9168" lon="5.17408">
        <ele>327.6</ele>
        <time>2023-02-25T09:22:05Z</time>
      </trkpt>
      <trkpt lat="43.91676" lon="5.17407">
        <ele>327.8</ele>
        <time>2023-02-25T09:22:08Z</time>
      </trkpt>
      <trkpt lat="43.91674" lon="5.17406">
        <ele>327.8</ele>
        <time>2023-02-25T09:22:10Z</time>
      </trkpt>
      <trkpt lat="43.91669" lon="5.17403">
        <ele>328</ele>
        <time>2023-02-25T09:22:14Z</time>
      </trkpt>
      <trkpt lat="43.91663" lon="5.17399">
        <ele>328.6</ele>
        <time>2023-02-25T09:22:18Z</time>
      </trkpt>
      <trkpt lat="43.91654" lon="5.17396">
        <ele>329.6</ele>
        <time>2023-02-25T09:22:25Z</time>
      </trkpt>
      <trkpt lat="43.9165" lon="5.17396">
        <ele>330.2</ele>
        <time>2023-02-25T09:22:27Z</time>
      </trkpt>
      <trkpt lat="43.91644" lon="5.17395">
        <ele>330.8</ele>
        <time>2023-02-25T09:22:31Z</time>
      </trkpt>
      <trkpt lat="43.91637" lon="5.17395">
        <ele>331</ele>
        <time>2023-02-25T09:22:36Z</time>
      </trkpt>
      <trkpt lat="43.91631" lon="5.17395">
        <ele>331.8</ele>
        <time>2023-02-25T09:22:40Z</time>
      </trkpt>
      <trkpt lat="43.91623" lon="5.17395">
        <ele>332.6</ele>
        <time>2023-02-25T09:22:46Z</time>
      </trkpt>
      <trkpt lat="43.91619" lon="5.17395">
        <ele>332.8</ele>
        <time>2023-02-25T09:22:48Z</time>
      </trkpt>
      <trkpt lat="43.9161" lon="5.17394">
        <ele>333.4</ele>
        <time>2023-02-25T09:22:55Z</time>
      </trkpt>
      <trkpt lat="43.9161" lon="5.17392">
        <ele>333.2</ele>
        <time>2023-02-25T09:23:01Z</time>
      </trkpt>
      <trkpt lat="43.91612" lon="5.17391">
        <ele>333.2</ele>
        <time>2023-02-25T09:23:10Z</time>
      </trkpt>
      <trkpt lat="43.91611" lon="5.17385">
        <ele>332.6</ele>
        <time>2023-02-25T09:24:13Z</time>
      </trkpt>
      <trkpt lat="43.91607" lon="5.17387">
        <ele>332.4</ele>
        <time>2023-02-25T09:24:22Z</time>
      </trkpt>
      <trkpt lat="43.91597" lon="5.17381">
        <ele>332.2</ele>
        <time>2023-02-25T09:24:29Z</time>
      </trkpt>
      <trkpt lat="43.91593" lon="5.17379">
        <ele>331.6</ele>
        <time>2023-02-25T09:24:32Z</time>
      </trkpt>
      <trkpt lat="43.91581" lon="5.17375">
        <ele>330.8</ele>
        <time>2023-02-25T09:24:39Z</time>
      </trkpt>
      <trkpt lat="43.91572" lon="5.17369">
        <ele>330.8</ele>
        <time>2023-02-25T09:24:45Z</time>
      </trkpt>
      <trkpt lat="43.91558" lon="5.17366">
        <ele>331.6</ele>
        <time>2023-02-25T09:24:54Z</time>
      </trkpt>
      <trkpt lat="43.91546" lon="5.17363">
        <ele>332</ele>
        <time>2023-02-25T09:25:03Z</time>
      </trkpt>
      <trkpt lat="43.91537" lon="5.17362">
        <ele>332.8</ele>
        <time>2023-02-25T09:25:10Z</time>
      </trkpt>
      <trkpt lat="43.91528" lon="5.17362">
        <ele>333.4</ele>
        <time>2023-02-25T09:25:16Z</time>
      </trkpt>
      <trkpt lat="43.91518" lon="5.17362">
        <ele>333.8</ele>
        <time>2023-02-25T09:25:22Z</time>
      </trkpt>
      <trkpt lat="43.91514" lon="5.17363">
        <ele>333.8</ele>
        <time>2023-02-25T09:25:25Z</time>
      </trkpt>
      <trkpt lat="43.91507" lon="5.17369">
        <ele>334.4</ele>
        <time>2023-02-25T09:25:32Z</time>
      </trkpt>
      <trkpt lat="43.91505" lon="5.17371">
        <ele>335</ele>
        <time>2023-02-25T09:25:34Z</time>
      </trkpt>
      <trkpt lat="43.91499" lon="5.17377">
        <ele>335.6</ele>
        <time>2023-02-25T09:25:38Z</time>
      </trkpt>
      <trkpt lat="43.91493" lon="5.17381">
        <ele>336</ele>
        <time>2023-02-25T09:25:42Z</time>
      </trkpt>
      <trkpt lat="43.91486" lon="5.17386">
        <ele>336.8</ele>
        <time>2023-02-25T09:25:47Z</time>
      </trkpt>
      <trkpt lat="43.91484" lon="5.17388">
        <ele>337</ele>
        <time>2023-02-25T09:25:49Z</time>
      </trkpt>
      <trkpt lat="43.91478" lon="5.17391">
        <ele>338</ele>
        <time>2023-02-25T09:25:54Z</time>
      </trkpt>
      <trkpt lat="43.91469" lon="5.17393">
        <ele>339.2</ele>
        <time>2023-02-25T09:26:00Z</time>
      </trkpt>
      <trkpt lat="43.91465" lon="5.17395">
        <ele>340.2</ele>
        <time>2023-02-25T09:26:03Z</time>
      </trkpt>
      <trkpt lat="43.91464" lon="5.17394">
        <ele>340.2</ele>
        <time>2023-02-25T09:26:04Z</time>
      </trkpt>
      <trkpt lat="43.91458" lon="5.17392">
        <ele>341.4</ele>
        <time>2023-02-25T09:26:09Z</time>
      </trkpt>
      <trkpt lat="43.91456" lon="5.17393">
        <ele>341.8</ele>
        <time>2023-02-25T09:26:10Z</time>
      </trkpt>
      <trkpt lat="43.91455" lon="5.17393">
        <ele>342.2</ele>
        <time>2023-02-25T09:26:11Z</time>
      </trkpt>
      <trkpt lat="43.91454" lon="5.17393">
        <ele>342.6</ele>
        <time>2023-02-25T09:26:12Z</time>
      </trkpt>
      <trkpt lat="43.91447" lon="5.17391">
        <ele>343.8</ele>
        <time>2023-02-25T09:26:18Z</time>
      </trkpt>
      <trkpt lat="43.91441" lon="5.1739">
        <ele>344.8</ele>
        <time>2023-02-25T09:26:22Z</time>
      </trkpt>
      <trkpt lat="43.91436" lon="5.17388">
        <ele>345.6</ele>
        <time>2023-02-25T09:26:26Z</time>
      </trkpt>
      <trkpt lat="43.91435" lon="5.17387">
        <ele>345.8</ele>
        <time>2023-02-25T09:26:27Z</time>
      </trkpt>
      <trkpt lat="43.91432" lon="5.17384">
        <ele>346</ele>
        <time>2023-02-25T09:26:29Z</time>
      </trkpt>
      <trkpt lat="43.91425" lon="5.17377">
        <ele>346.4</ele>
        <time>2023-02-25T09:26:34Z</time>
      </trkpt>
      <trkpt lat="43.91424" lon="5.17377">
        <ele>346.4</ele>
        <time>2023-02-25T09:26:35Z</time>
      </trkpt>
      <trkpt lat="43.9142" lon="5.17371">
        <ele>346.2</ele>
        <time>2023-02-25T09:26:39Z</time>
      </trkpt>
      <trkpt lat="43.91411" lon="5.17365">
        <ele>346</ele>
        <time>2023-02-25T09:26:45Z</time>
      </trkpt>
      <trkpt lat="43.91402" lon="5.17359">
        <ele>346</ele>
        <time>2023-02-25T09:26:52Z</time>
      </trkpt>
      <trkpt lat="43.91394" lon="5.1735">
        <ele>345.4</ele>
        <time>2023-02-25T09:26:59Z</time>
      </trkpt>
      <trkpt lat="43.91392" lon="5.17349">
        <ele>345.4</ele>
        <time>2023-02-25T09:27:00Z</time>
      </trkpt>
      <trkpt lat="43.91383" lon="5.17341">
        <ele>345.8</ele>
        <time>2023-02-25T09:27:06Z</time>
      </trkpt>
      <trkpt lat="43.91372" lon="5.17331">
        <ele>346.4</ele>
        <time>2023-02-25T09:27:14Z</time>
      </trkpt>
      <trkpt lat="43.91366" lon="5.17329">
        <ele>346.2</ele>
        <time>2023-02-25T09:27:18Z</time>
      </trkpt>
      <trkpt lat="43.91363" lon="5.17329">
        <ele>346</ele>
        <time>2023-02-25T09:27:20Z</time>
      </trkpt>
      <trkpt lat="43.91351" lon="5.1733">
        <ele>345</ele>
        <time>2023-02-25T09:27:28Z</time>
      </trkpt>
      <trkpt lat="43.9135" lon="5.1733">
        <ele>344.8</ele>
        <time>2023-02-25T09:27:29Z</time>
      </trkpt>
      <trkpt lat="43.91339" lon="5.1733">
        <ele>344.2</ele>
        <time>2023-02-25T09:27:36Z</time>
      </trkpt>
      <trkpt lat="43.91332" lon="5.17329">
        <ele>344</ele>
        <time>2023-02-25T09:27:41Z</time>
      </trkpt>
      <trkpt lat="43.9133" lon="5.17329">
        <ele>343.8</ele>
        <time>2023-02-25T09:27:42Z</time>
      </trkpt>
      <trkpt lat="43.91326" lon="5.17327">
        <ele>343.6</ele>
        <time>2023-02-25T09:27:45Z</time>
      </trkpt>
      <trkpt lat="43.91314" lon="5.17326">
        <ele>342.8</ele>
        <time>2023-02-25T09:27:51Z</time>
      </trkpt>
      <trkpt lat="43.913" lon="5.17328">
        <ele>341.6</ele>
        <time>2023-02-25T09:28:00Z</time>
      </trkpt>
      <trkpt lat="43.91299" lon="5.17328">
        <ele>341.2</ele>
        <time>2023-02-25T09:28:01Z</time>
      </trkpt>
      <trkpt lat="43.91293" lon="5.17328">
        <ele>340.4</ele>
        <time>2023-02-25T09:28:05Z</time>
      </trkpt>
      <trkpt lat="43.91289" lon="5.17328">
        <ele>340</ele>
        <time>2023-02-25T09:28:08Z</time>
      </trkpt>
      <trkpt lat="43.91286" lon="5.17328">
        <ele>339.2</ele>
        <time>2023-02-25T09:28:11Z</time>
      </trkpt>
      <trkpt lat="43.91286" lon="5.17327">
        <ele>338.8</ele>
        <time>2023-02-25T09:28:14Z</time>
      </trkpt>
      <trkpt lat="43.91287" lon="5.17328">
        <ele>339</ele>
        <time>2023-02-25T09:28:20Z</time>
      </trkpt>
      <trkpt lat="43.91288" lon="5.17327">
        <ele>339</ele>
        <time>2023-02-25T09:28:27Z</time>
      </trkpt>
      <trkpt lat="43.91284" lon="5.17328">
        <ele>338.2</ele>
        <time>2023-02-25T09:28:38Z</time>
      </trkpt>
      <trkpt lat="43.91279" lon="5.17331">
        <ele>337.6</ele>
        <time>2023-02-25T09:28:40Z</time>
      </trkpt>
      <trkpt lat="43.91275" lon="5.17332">
        <ele>337</ele>
        <time>2023-02-25T09:28:42Z</time>
      </trkpt>
      <trkpt lat="43.91265" lon="5.17333">
        <ele>336.2</ele>
        <time>2023-02-25T09:28:47Z</time>
      </trkpt>
      <trkpt lat="43.91261" lon="5.17334">
        <ele>335.8</ele>
        <time>2023-02-25T09:28:50Z</time>
      </trkpt>
      <trkpt lat="43.91251" lon="5.17338">
        <ele>335.2</ele>
        <time>2023-02-25T09:28:56Z</time>
      </trkpt>
      <trkpt lat="43.91244" lon="5.1734">
        <ele>334.8</ele>
        <time>2023-02-25T09:29:00Z</time>
      </trkpt>
      <trkpt lat="43.9124" lon="5.1734">
        <ele>334.6</ele>
        <time>2023-02-25T09:29:03Z</time>
      </trkpt>
      <trkpt lat="43.91232" lon="5.1734">
        <ele>333.4</ele>
        <time>2023-02-25T09:29:08Z</time>
      </trkpt>
      <trkpt lat="43.91231" lon="5.1734">
        <ele>333.2</ele>
        <time>2023-02-25T09:29:09Z</time>
      </trkpt>
      <trkpt lat="43.91224" lon="5.1734">
        <ele>332.4</ele>
        <time>2023-02-25T09:29:14Z</time>
      </trkpt>
      <trkpt lat="43.91217" lon="5.17337">
        <ele>332</ele>
        <time>2023-02-25T09:29:18Z</time>
      </trkpt>
      <trkpt lat="43.91211" lon="5.17326">
        <ele>331.8</ele>
        <time>2023-02-25T09:29:24Z</time>
      </trkpt>
      <trkpt lat="43.91209" lon="5.17324">
        <ele>331.4</ele>
        <time>2023-02-25T09:29:26Z</time>
      </trkpt>
      <trkpt lat="43.91206" lon="5.17324">
        <ele>331.2</ele>
        <time>2023-02-25T09:29:28Z</time>
      </trkpt>
      <trkpt lat="43.91205" lon="5.17325">
        <ele>331</ele>
        <time>2023-02-25T09:29:29Z</time>
      </trkpt>
      <trkpt lat="43.91202" lon="5.17328">
        <ele>330.8</ele>
        <time>2023-02-25T09:29:32Z</time>
      </trkpt>
      <trkpt lat="43.91201" lon="5.17336">
        <ele>330.4</ele>
        <time>2023-02-25T09:29:36Z</time>
      </trkpt>
      <trkpt lat="43.912" lon="5.17338">
        <ele>330.2</ele>
        <time>2023-02-25T09:29:40Z</time>
      </trkpt>
      <trkpt lat="43.912" lon="5.17338">
        <ele>330.2</ele>
        <time>2023-02-25T09:29:42Z</time>
      </trkpt>
      <trkpt lat="43.91194" lon="5.17344">
        <ele>330</ele>
        <time>2023-02-25T09:29:49Z</time>
      </trkpt>
      <trkpt lat="43.91187" lon="5.17351">
        <ele>329.2</ele>
        <time>2023-02-25T09:29:55Z</time>
      </trkpt>
      <trkpt lat="43.91185" lon="5.17353">
        <ele>329</ele>
        <time>2023-02-25T09:29:56Z</time>
      </trkpt>
      <trkpt lat="43.91178" lon="5.17366">
        <ele>328</ele>
        <time>2023-02-25T09:30:04Z</time>
      </trkpt>
      <trkpt lat="43.91175" lon="5.17372">
        <ele>327.4</ele>
        <time>2023-02-25T09:30:07Z</time>
      </trkpt>
      <trkpt lat="43.9117" lon="5.17376">
        <ele>326.8</ele>
        <time>2023-02-25T09:30:10Z</time>
      </trkpt>
      <trkpt lat="43.91167" lon="5.17381">
        <ele>326.4</ele>
        <time>2023-02-25T09:30:13Z</time>
      </trkpt>
      <trkpt lat="43.91167" lon="5.17383">
        <ele>326.4</ele>
        <time>2023-02-25T09:30:14Z</time>
      </trkpt>
      <trkpt lat="43.91164" lon="5.1739">
        <ele>325.8</ele>
        <time>2023-02-25T09:30:18Z</time>
      </trkpt>
      <trkpt lat="43.91161" lon="5.17393">
        <ele>325.4</ele>
        <time>2023-02-25T09:30:20Z</time>
      </trkpt>
      <trkpt lat="43.91159" lon="5.17394">
        <ele>325</ele>
        <time>2023-02-25T09:30:22Z</time>
      </trkpt>
      <trkpt lat="43.91159" lon="5.17394">
        <ele>324.8</ele>
        <time>2023-02-25T09:30:25Z</time>
      </trkpt>
      <trkpt lat="43.9116" lon="5.17395">
        <ele>324.8</ele>
        <time>2023-02-25T09:30:32Z</time>
      </trkpt>
      <trkpt lat="43.91161" lon="5.17395">
        <ele>324.8</ele>
        <time>2023-02-25T09:30:33Z</time>
      </trkpt>
      <trkpt lat="43.91152" lon="5.17396">
        <ele>323.6</ele>
        <time>2023-02-25T09:31:32Z</time>
      </trkpt>
      <trkpt lat="43.91141" lon="5.17395">
        <ele>322.4</ele>
        <time>2023-02-25T09:31:38Z</time>
      </trkpt>
      <trkpt lat="43.91139" lon="5.17394">
        <ele>322.4</ele>
        <time>2023-02-25T09:31:39Z</time>
      </trkpt>
      <trkpt lat="43.91129" lon="5.1739">
        <ele>321.8</ele>
        <time>2023-02-25T09:31:47Z</time>
      </trkpt>
      <trkpt lat="43.91119" lon="5.17393">
        <ele>321.4</ele>
        <time>2023-02-25T09:31:54Z</time>
      </trkpt>
      <trkpt lat="43.91116" lon="5.17394">
        <ele>320.8</ele>
        <time>2023-02-25T09:31:56Z</time>
      </trkpt>
      <trkpt lat="43.91112" lon="5.17396">
        <ele>320.2</ele>
        <time>2023-02-25T09:31:59Z</time>
      </trkpt>
      <trkpt lat="43.91104" lon="5.17396">
        <ele>319.2</ele>
        <time>2023-02-25T09:32:04Z</time>
      </trkpt>
      <trkpt lat="43.91097" lon="5.17396">
        <ele>318.4</ele>
        <time>2023-02-25T09:32:09Z</time>
      </trkpt>
      <trkpt lat="43.91094" lon="5.17398">
        <ele>318</ele>
        <time>2023-02-25T09:32:11Z</time>
      </trkpt>
      <trkpt lat="43.91093" lon="5.17399">
        <ele>318</ele>
        <time>2023-02-25T09:32:12Z</time>
      </trkpt>
      <trkpt lat="43.91092" lon="5.17399">
        <ele>317.8</ele>
        <time>2023-02-25T09:32:13Z</time>
      </trkpt>
      <trkpt lat="43.91089" lon="5.17399">
        <ele>317.2</ele>
        <time>2023-02-25T09:32:17Z</time>
      </trkpt>
      <trkpt lat="43.91087" lon="5.17399">
        <ele>317</ele>
        <time>2023-02-25T09:32:19Z</time>
      </trkpt>
      <trkpt lat="43.91086" lon="5.174">
        <ele>317</ele>
        <time>2023-02-25T09:32:20Z</time>
      </trkpt>
      <trkpt lat="43.91082" lon="5.17402">
        <ele>316.6</ele>
        <time>2023-02-25T09:32:23Z</time>
      </trkpt>
      <trkpt lat="43.91075" lon="5.17404">
        <ele>316</ele>
        <time>2023-02-25T09:32:28Z</time>
      </trkpt>
      <trkpt lat="43.91073" lon="5.17408">
        <ele>315.8</ele>
        <time>2023-02-25T09:32:30Z</time>
      </trkpt>
      <trkpt lat="43.91072" lon="5.17426">
        <ele>315</ele>
        <time>2023-02-25T09:32:38Z</time>
      </trkpt>
      <trkpt lat="43.91073" lon="5.17428">
        <ele>315</ele>
        <time>2023-02-25T09:32:39Z</time>
      </trkpt>
      <trkpt lat="43.91072" lon="5.1743">
        <ele>314.8</ele>
        <time>2023-02-25T09:32:40Z</time>
      </trkpt>
      <trkpt lat="43.9107" lon="5.17436">
        <ele>314.4</ele>
        <time>2023-02-25T09:32:43Z</time>
      </trkpt>
      <trkpt lat="43.91065" lon="5.17439">
        <ele>313.8</ele>
        <time>2023-02-25T09:32:47Z</time>
      </trkpt>
      <trkpt lat="43.9106" lon="5.17441">
        <ele>313.4</ele>
        <time>2023-02-25T09:32:50Z</time>
      </trkpt>
      <trkpt lat="43.91052" lon="5.17444">
        <ele>312.6</ele>
        <time>2023-02-25T09:32:55Z</time>
      </trkpt>
      <trkpt lat="43.91048" lon="5.17448">
        <ele>312</ele>
        <time>2023-02-25T09:33:00Z</time>
      </trkpt>
      <trkpt lat="43.91048" lon="5.17448">
        <ele>311.6</ele>
        <time>2023-02-25T09:33:07Z</time>
      </trkpt>
      <trkpt lat="43.91048" lon="5.17448">
        <ele>311.6</ele>
        <time>2023-02-25T09:33:16Z</time>
      </trkpt>
      <trkpt lat="43.91048" lon="5.17448">
        <ele>311.6</ele>
        <time>2023-02-25T09:33:42Z</time>
      </trkpt>
      <trkpt lat="43.91048" lon="5.17449">
        <ele>311.6</ele>
        <time>2023-02-25T09:33:46Z</time>
      </trkpt>
      <trkpt lat="43.91043" lon="5.1745">
        <ele>311</ele>
        <time>2023-02-25T09:33:56Z</time>
      </trkpt>
      <trkpt lat="43.91034" lon="5.1745">
        <ele>310.6</ele>
        <time>2023-02-25T09:34:02Z</time>
      </trkpt>
      <trkpt lat="43.91032" lon="5.17453">
        <ele>310.4</ele>
        <time>2023-02-25T09:34:05Z</time>
      </trkpt>
      <trkpt lat="43.9103" lon="5.17456">
        <ele>309.6</ele>
        <time>2023-02-25T09:34:08Z</time>
      </trkpt>
      <trkpt lat="43.91028" lon="5.17457">
        <ele>309.2</ele>
        <time>2023-02-25T09:34:09Z</time>
      </trkpt>
      <trkpt lat="43.91021" lon="5.17456">
        <ele>308.6</ele>
        <time>2023-02-25T09:34:14Z</time>
      </trkpt>
      <trkpt lat="43.91018" lon="5.17454">
        <ele>308.2</ele>
        <time>2023-02-25T09:34:16Z</time>
      </trkpt>
      <trkpt lat="43.9101" lon="5.17449">
        <ele>307.8</ele>
        <time>2023-02-25T09:34:22Z</time>
      </trkpt>
      <trkpt lat="43.91" lon="5.17436">
        <ele>307.4</ele>
        <time>2023-02-25T09:34:30Z</time>
      </trkpt>
      <trkpt lat="43.90993" lon="5.17431">
        <ele>307.2</ele>
        <time>2023-02-25T09:34:35Z</time>
      </trkpt>
      <trkpt lat="43.90988" lon="5.1743">
        <ele>307</ele>
        <time>2023-02-25T09:34:38Z</time>
      </trkpt>
      <trkpt lat="43.90978" lon="5.17427">
        <ele>306</ele>
        <time>2023-02-25T09:34:45Z</time>
      </trkpt>
      <trkpt lat="43.90971" lon="5.17425">
        <ele>305.2</ele>
        <time>2023-02-25T09:34:49Z</time>
      </trkpt>
      <trkpt lat="43.90962" lon="5.1742">
        <ele>305</ele>
        <time>2023-02-25T09:34:55Z</time>
      </trkpt>
      <trkpt lat="43.90955" lon="5.17415">
        <ele>304.4</ele>
        <time>2023-02-25T09:34:59Z</time>
      </trkpt>
      <trkpt lat="43.90944" lon="5.17405">
        <ele>304</ele>
        <time>2023-02-25T09:35:08Z</time>
      </trkpt>
      <trkpt lat="43.90943" lon="5.17403">
        <ele>303.8</ele>
        <time>2023-02-25T09:35:09Z</time>
      </trkpt>
      <trkpt lat="43.9094" lon="5.17386">
        <ele>303.6</ele>
        <time>2023-02-25T09:35:16Z</time>
      </trkpt>
      <trkpt lat="43.90938" lon="5.17365">
        <ele>303.4</ele>
        <time>2023-02-25T09:35:25Z</time>
      </trkpt>
      <trkpt lat="43.90937" lon="5.17352">
        <ele>302.8</ele>
        <time>2023-02-25T09:35:32Z</time>
      </trkpt>
      <trkpt lat="43.90935" lon="5.17351">
        <ele>302.6</ele>
        <time>2023-02-25T09:35:33Z</time>
      </trkpt>
      <trkpt lat="43.90929" lon="5.17342">
        <ele>301.6</ele>
        <time>2023-02-25T09:35:39Z</time>
      </trkpt>
      <trkpt lat="43.90927" lon="5.17341">
        <ele>301.6</ele>
        <time>2023-02-25T09:35:40Z</time>
      </trkpt>
      <trkpt lat="43.90923" lon="5.17338">
        <ele>301.2</ele>
        <time>2023-02-25T09:35:43Z</time>
      </trkpt>
      <trkpt lat="43.90915" lon="5.17331">
        <ele>300.4</ele>
        <time>2023-02-25T09:35:49Z</time>
      </trkpt>
      <trkpt lat="43.90914" lon="5.1733">
        <ele>300.4</ele>
        <time>2023-02-25T09:35:50Z</time>
      </trkpt>
      <trkpt lat="43.90904" lon="5.17318">
        <ele>299.6</ele>
        <time>2023-02-25T09:35:59Z</time>
      </trkpt>
      <trkpt lat="43.90896" lon="5.17312">
        <ele>299.4</ele>
        <time>2023-02-25T09:36:04Z</time>
      </trkpt>
      <trkpt lat="43.90891" lon="5.17309">
        <ele>299</ele>
        <time>2023-02-25T09:36:07Z</time>
      </trkpt>
      <trkpt lat="43.90882" lon="5.17304">
        <ele>298.4</ele>
        <time>2023-02-25T09:36:13Z</time>
      </trkpt>
      <trkpt lat="43.90878" lon="5.17305">
        <ele>297.8</ele>
        <time>2023-02-25T09:36:16Z</time>
      </trkpt>
      <trkpt lat="43.90872" lon="5.17303">
        <ele>297.2</ele>
        <time>2023-02-25T09:36:20Z</time>
      </trkpt>
      <trkpt lat="43.90868" lon="5.17301">
        <ele>297</ele>
        <time>2023-02-25T09:36:23Z</time>
      </trkpt>
      <trkpt lat="43.90863" lon="5.173">
        <ele>296.2</ele>
        <time>2023-02-25T09:36:26Z</time>
      </trkpt>
      <trkpt lat="43.90856" lon="5.17293">
        <ele>295.4</ele>
        <time>2023-02-25T09:36:31Z</time>
      </trkpt>
      <trkpt lat="43.90856" lon="5.17291">
        <ele>295.2</ele>
        <time>2023-02-25T09:36:32Z</time>
      </trkpt>
      <trkpt lat="43.90857" lon="5.17284">
        <ele>294.8</ele>
        <time>2023-02-25T09:36:36Z</time>
      </trkpt>
      <trkpt lat="43.90865" lon="5.17276">
        <ele>295.4</ele>
        <time>2023-02-25T09:36:44Z</time>
      </trkpt>
      <trkpt lat="43.90871" lon="5.17275">
        <ele>296.2</ele>
        <time>2023-02-25T09:36:50Z</time>
      </trkpt>
      <trkpt lat="43.90873" lon="5.17274">
        <ele>296.2</ele>
        <time>2023-02-25T09:36:52Z</time>
      </trkpt>
      <trkpt lat="43.90876" lon="5.17273">
        <ele>296.6</ele>
        <time>2023-02-25T09:36:59Z</time>
      </trkpt>
      <trkpt lat="43.90877" lon="5.17272">
        <ele>296.8</ele>
        <time>2023-02-25T09:37:07Z</time>
      </trkpt>
      <trkpt lat="43.90881" lon="5.17271">
        <ele>297.2</ele>
        <time>2023-02-25T09:37:10Z</time>
      </trkpt>
      <trkpt lat="43.90884" lon="5.17269">
        <ele>297.4</ele>
        <time>2023-02-25T09:37:12Z</time>
      </trkpt>
      <trkpt lat="43.90891" lon="5.17266">
        <ele>298.2</ele>
        <time>2023-02-25T09:37:17Z</time>
      </trkpt>
      <trkpt lat="43.90895" lon="5.17264">
        <ele>298.6</ele>
        <time>2023-02-25T09:37:20Z</time>
      </trkpt>
      <trkpt lat="43.90905" lon="5.17262">
        <ele>299.2</ele>
        <time>2023-02-25T09:37:26Z</time>
      </trkpt>
      <trkpt lat="43.90907" lon="5.17262">
        <ele>299.6</ele>
        <time>2023-02-25T09:37:29Z</time>
      </trkpt>
      <trkpt lat="43.90917" lon="5.17263">
        <ele>300.4</ele>
        <time>2023-02-25T09:37:34Z</time>
      </trkpt>
      <trkpt lat="43.90922" lon="5.17263">
        <ele>301</ele>
        <time>2023-02-25T09:37:38Z</time>
      </trkpt>
      <trkpt lat="43.90927" lon="5.17263">
        <ele>301.4</ele>
        <time>2023-02-25T09:37:41Z</time>
      </trkpt>
      <trkpt lat="43.90938" lon="5.17263">
        <ele>302.2</ele>
        <time>2023-02-25T09:37:48Z</time>
      </trkpt>
      <trkpt lat="43.90941" lon="5.17263">
        <ele>302.4</ele>
        <time>2023-02-25T09:37:50Z</time>
      </trkpt>
      <trkpt lat="43.90941" lon="5.17264">
        <ele>302.4</ele>
        <time>2023-02-25T09:37:51Z</time>
      </trkpt>
      <trkpt lat="43.90941" lon="5.17264">
        <ele>302.6</ele>
        <time>2023-02-25T09:37:54Z</time>
      </trkpt>
      <trkpt lat="43.90944" lon="5.17259">
        <ele>302.8</ele>
        <time>2023-02-25T09:38:03Z</time>
      </trkpt>
      <trkpt lat="43.90951" lon="5.17251">
        <ele>303.4</ele>
        <time>2023-02-25T09:38:09Z</time>
      </trkpt>
      <trkpt lat="43.90954" lon="5.17245">
        <ele>303.6</ele>
        <time>2023-02-25T09:38:12Z</time>
      </trkpt>
      <trkpt lat="43.90963" lon="5.17234">
        <ele>304.2</ele>
        <time>2023-02-25T09:38:20Z</time>
      </trkpt>
      <trkpt lat="43.90969" lon="5.17227">
        <ele>304.6</ele>
        <time>2023-02-25T09:38:24Z</time>
      </trkpt>
      <trkpt lat="43.90978" lon="5.17219">
        <ele>305.2</ele>
        <time>2023-02-25T09:38:31Z</time>
      </trkpt>
      <trkpt lat="43.90984" lon="5.17215">
        <ele>305.6</ele>
        <time>2023-02-25T09:38:35Z</time>
      </trkpt>
      <trkpt lat="43.90992" lon="5.17212">
        <ele>305.8</ele>
        <time>2023-02-25T09:38:40Z</time>
      </trkpt>
      <trkpt lat="43.90999" lon="5.1721">
        <ele>306.6</ele>
        <time>2023-02-25T09:38:45Z</time>
      </trkpt>
      <trkpt lat="43.91008" lon="5.17206">
        <ele>307.2</ele>
        <time>2023-02-25T09:38:51Z</time>
      </trkpt>
      <trkpt lat="43.91012" lon="5.17205">
        <ele>307.6</ele>
        <time>2023-02-25T09:38:54Z</time>
      </trkpt>
      <trkpt lat="43.91022" lon="5.17201">
        <ele>308.6</ele>
        <time>2023-02-25T09:39:01Z</time>
      </trkpt>
      <trkpt lat="43.91024" lon="5.172">
        <ele>308.6</ele>
        <time>2023-02-25T09:39:02Z</time>
      </trkpt>
      <trkpt lat="43.91036" lon="5.17195">
        <ele>309.8</ele>
        <time>2023-02-25T09:39:10Z</time>
      </trkpt>
      <trkpt lat="43.91037" lon="5.17194">
        <ele>310</ele>
        <time>2023-02-25T09:39:11Z</time>
      </trkpt>
      <trkpt lat="43.91044" lon="5.1719">
        <ele>310.8</ele>
        <time>2023-02-25T09:39:16Z</time>
      </trkpt>
      <trkpt lat="43.91048" lon="5.17184">
        <ele>311.4</ele>
        <time>2023-02-25T09:39:20Z</time>
      </trkpt>
      <trkpt lat="43.91055" lon="5.17174">
        <ele>311.8</ele>
        <time>2023-02-25T09:39:26Z</time>
      </trkpt>
      <trkpt lat="43.91058" lon="5.17168">
        <ele>312.2</ele>
        <time>2023-02-25T09:39:30Z</time>
      </trkpt>
      <trkpt lat="43.91066" lon="5.17157">
        <ele>312.8</ele>
        <time>2023-02-25T09:39:37Z</time>
      </trkpt>
      <trkpt lat="43.91076" lon="5.17144">
        <ele>313.8</ele>
        <time>2023-02-25T09:39:46Z</time>
      </trkpt>
      <trkpt lat="43.91077" lon="5.17143">
        <ele>314</ele>
        <time>2023-02-25T09:39:47Z</time>
      </trkpt>
      <trkpt lat="43.91085" lon="5.17135">
        <ele>314.6</ele>
        <time>2023-02-25T09:39:54Z</time>
      </trkpt>
      <trkpt lat="43.91085" lon="5.17128">
        <ele>314.6</ele>
        <time>2023-02-25T09:40:00Z</time>
      </trkpt>
      <trkpt lat="43.91085" lon="5.17117">
        <ele>315</ele>
        <time>2023-02-25T09:40:06Z</time>
      </trkpt>
      <trkpt lat="43.91084" lon="5.17104">
        <ele>314.6</ele>
        <time>2023-02-25T09:40:12Z</time>
      </trkpt>
      <trkpt lat="43.91076" lon="5.17094">
        <ele>314</ele>
        <time>2023-02-25T09:40:18Z</time>
      </trkpt>
      <trkpt lat="43.91075" lon="5.1709">
        <ele>313.8</ele>
        <time>2023-02-25T09:40:20Z</time>
      </trkpt>
      <trkpt lat="43.91069" lon="5.17077">
        <ele>313</ele>
        <time>2023-02-25T09:40:27Z</time>
      </trkpt>
      <trkpt lat="43.91062" lon="5.17065">
        <ele>312.2</ele>
        <time>2023-02-25T09:40:34Z</time>
      </trkpt>
      <trkpt lat="43.9106" lon="5.17059">
        <ele>311.8</ele>
        <time>2023-02-25T09:40:37Z</time>
      </trkpt>
      <trkpt lat="43.91053" lon="5.17052">
        <ele>311.4</ele>
        <time>2023-02-25T09:40:42Z</time>
      </trkpt>
      <trkpt lat="43.91047" lon="5.17047">
        <ele>310.8</ele>
        <time>2023-02-25T09:40:46Z</time>
      </trkpt>
      <trkpt lat="43.91041" lon="5.17038">
        <ele>309.6</ele>
        <time>2023-02-25T09:40:51Z</time>
      </trkpt>
      <trkpt lat="43.91034" lon="5.17028">
        <ele>308.4</ele>
        <time>2023-02-25T09:40:57Z</time>
      </trkpt>
      <trkpt lat="43.91032" lon="5.17026">
        <ele>308.2</ele>
        <time>2023-02-25T09:40:59Z</time>
      </trkpt>
      <trkpt lat="43.91028" lon="5.17019">
        <ele>307.4</ele>
        <time>2023-02-25T09:41:03Z</time>
      </trkpt>
      <trkpt lat="43.91027" lon="5.17015">
        <ele>307.2</ele>
        <time>2023-02-25T09:41:05Z</time>
      </trkpt>
      <trkpt lat="43.91024" lon="5.17005">
        <ele>306.4</ele>
        <time>2023-02-25T09:41:09Z</time>
      </trkpt>
      <trkpt lat="43.91024" lon="5.17003">
        <ele>306.4</ele>
        <time>2023-02-25T09:41:10Z</time>
      </trkpt>
      <trkpt lat="43.91024" lon="5.16998">
        <ele>306.2</ele>
        <time>2023-02-25T09:41:12Z</time>
      </trkpt>
      <trkpt lat="43.91025" lon="5.16984">
        <ele>305.6</ele>
        <time>2023-02-25T09:41:18Z</time>
      </trkpt>
      <trkpt lat="43.91025" lon="5.16978">
        <ele>305.4</ele>
        <time>2023-02-25T09:41:20Z</time>
      </trkpt>
      <trkpt lat="43.91022" lon="5.16965">
        <ele>304.2</ele>
        <time>2023-02-25T09:41:25Z</time>
      </trkpt>
      <trkpt lat="43.91021" lon="5.16961">
        <ele>303.8</ele>
        <time>2023-02-25T09:41:27Z</time>
      </trkpt>
      <trkpt lat="43.91022" lon="5.16955">
        <ele>303.4</ele>
        <time>2023-02-25T09:41:30Z</time>
      </trkpt>
      <trkpt lat="43.91022" lon="5.16953">
        <ele>303</ele>
        <time>2023-02-25T09:41:31Z</time>
      </trkpt>
      <trkpt lat="43.9102" lon="5.16947">
        <ele>302.4</ele>
        <time>2023-02-25T09:41:34Z</time>
      </trkpt>
      <trkpt lat="43.9102" lon="5.16945">
        <ele>302</ele>
        <time>2023-02-25T09:41:35Z</time>
      </trkpt>
      <trkpt lat="43.91019" lon="5.16943">
        <ele>301.8</ele>
        <time>2023-02-25T09:41:36Z</time>
      </trkpt>
      <trkpt lat="43.91016" lon="5.16932">
        <ele>300.6</ele>
        <time>2023-02-25T09:41:41Z</time>
      </trkpt>
      <trkpt lat="43.91016" lon="5.16926">
        <ele>300</ele>
        <time>2023-02-25T09:41:44Z</time>
      </trkpt>
      <trkpt lat="43.91016" lon="5.16922">
        <ele>299.4</ele>
        <time>2023-02-25T09:41:46Z</time>
      </trkpt>
      <trkpt lat="43.91016" lon="5.16913">
        <ele>298.2</ele>
        <time>2023-02-25T09:41:50Z</time>
      </trkpt>
      <trkpt lat="43.91016" lon="5.16911">
        <ele>298</ele>
        <time>2023-02-25T09:41:51Z</time>
      </trkpt>
      <trkpt lat="43.91016" lon="5.16904">
        <ele>297.2</ele>
        <time>2023-02-25T09:41:54Z</time>
      </trkpt>
      <trkpt lat="43.91017" lon="5.16892">
        <ele>295.8</ele>
        <time>2023-02-25T09:41:59Z</time>
      </trkpt>
      <trkpt lat="43.91016" lon="5.16883">
        <ele>294.6</ele>
        <time>2023-02-25T09:42:04Z</time>
      </trkpt>
      <trkpt lat="43.91017" lon="5.16878">
        <ele>294.2</ele>
        <time>2023-02-25T09:42:06Z</time>
      </trkpt>
      <trkpt lat="43.91017" lon="5.16865">
        <ele>293.4</ele>
        <time>2023-02-25T09:42:11Z</time>
      </trkpt>
      <trkpt lat="43.91017" lon="5.16863">
        <ele>293.2</ele>
        <time>2023-02-25T09:42:12Z</time>
      </trkpt>
      <trkpt lat="43.91018" lon="5.16852">
        <ele>292.4</ele>
        <time>2023-02-25T09:42:17Z</time>
      </trkpt>
      <trkpt lat="43.91018" lon="5.16846">
        <ele>292.2</ele>
        <time>2023-02-25T09:42:20Z</time>
      </trkpt>
      <trkpt lat="43.91017" lon="5.16839">
        <ele>291.8</ele>
        <time>2023-02-25T09:42:23Z</time>
      </trkpt>
      <trkpt lat="43.91015" lon="5.16834">
        <ele>291.6</ele>
        <time>2023-02-25T09:42:26Z</time>
      </trkpt>
      <trkpt lat="43.91009" lon="5.16826">
        <ele>291.2</ele>
        <time>2023-02-25T09:42:31Z</time>
      </trkpt>
      <trkpt lat="43.91006" lon="5.16825">
        <ele>291</ele>
        <time>2023-02-25T09:42:33Z</time>
      </trkpt>
      <trkpt lat="43.91001" lon="5.16824">
        <ele>290.2</ele>
        <time>2023-02-25T09:42:36Z</time>
      </trkpt>
      <trkpt lat="43.90996" lon="5.16824">
        <ele>289.2</ele>
        <time>2023-02-25T09:42:39Z</time>
      </trkpt>
      <trkpt lat="43.90994" lon="5.16823">
        <ele>288.8</ele>
        <time>2023-02-25T09:42:40Z</time>
      </trkpt>
      <trkpt lat="43.90989" lon="5.16822">
        <ele>288</ele>
        <time>2023-02-25T09:42:43Z</time>
      </trkpt>
      <trkpt lat="43.90981" lon="5.16822">
        <ele>286.8</ele>
        <time>2023-02-25T09:42:48Z</time>
      </trkpt>
      <trkpt lat="43.90975" lon="5.16819">
        <ele>285.6</ele>
        <time>2023-02-25T09:42:52Z</time>
      </trkpt>
      <trkpt lat="43.90971" lon="5.16814">
        <ele>284.8</ele>
        <time>2023-02-25T09:42:55Z</time>
      </trkpt>
      <trkpt lat="43.90969" lon="5.1681">
        <ele>284.6</ele>
        <time>2023-02-25T09:42:57Z</time>
      </trkpt>
      <trkpt lat="43.90963" lon="5.16799">
        <ele>284</ele>
        <time>2023-02-25T09:43:04Z</time>
      </trkpt>
      <trkpt lat="43.90961" lon="5.16796">
        <ele>283.6</ele>
        <time>2023-02-25T09:43:06Z</time>
      </trkpt>
      <trkpt lat="43.90956" lon="5.16783">
        <ele>282.6</ele>
        <time>2023-02-25T09:43:12Z</time>
      </trkpt>
      <trkpt lat="43.90955" lon="5.16781">
        <ele>282.4</ele>
        <time>2023-02-25T09:43:13Z</time>
      </trkpt>
      <trkpt lat="43.90947" lon="5.16766">
        <ele>281.6</ele>
        <time>2023-02-25T09:43:21Z</time>
      </trkpt>
      <trkpt lat="43.90936" lon="5.16745">
        <ele>280.8</ele>
        <time>2023-02-25T09:43:32Z</time>
      </trkpt>
      <trkpt lat="43.90935" lon="5.16741">
        <ele>280.4</ele>
        <time>2023-02-25T09:43:34Z</time>
      </trkpt>
      <trkpt lat="43.90928" lon="5.16726">
        <ele>280</ele>
        <time>2023-02-25T09:43:41Z</time>
      </trkpt>
      <trkpt lat="43.9092" lon="5.16702">
        <ele>279.4</ele>
        <time>2023-02-25T09:43:52Z</time>
      </trkpt>
      <trkpt lat="43.90913" lon="5.16686">
        <ele>278.6</ele>
        <time>2023-02-25T09:44:00Z</time>
      </trkpt>
      <trkpt lat="43.9091" lon="5.16678">
        <ele>278.4</ele>
        <time>2023-02-25T09:44:05Z</time>
      </trkpt>
      <trkpt lat="43.90909" lon="5.16675">
        <ele>278.4</ele>
        <time>2023-02-25T09:44:07Z</time>
      </trkpt>
      <trkpt lat="43.90911" lon="5.16674">
        <ele>278.4</ele>
        <time>2023-02-25T09:44:12Z</time>
      </trkpt>
      <trkpt lat="43.90914" lon="5.16671">
        <ele>278.2</ele>
        <time>2023-02-25T09:44:38Z</time>
      </trkpt>
      <trkpt lat="43.90914" lon="5.16664">
        <ele>278.4</ele>
        <time>2023-02-25T09:45:14Z</time>
      </trkpt>
      <trkpt lat="43.90914" lon="5.16662">
        <ele>278.6</ele>
        <time>2023-02-25T09:45:19Z</time>
      </trkpt>
      <trkpt lat="43.90913" lon="5.16663">
        <ele>278.6</ele>
        <time>2023-02-25T09:45:41Z</time>
      </trkpt>
      <trkpt lat="43.90912" lon="5.16654">
        <ele>278.8</ele>
        <time>2023-02-25T09:45:53Z</time>
      </trkpt>
      <trkpt lat="43.90905" lon="5.16632">
        <ele>279.2</ele>
        <time>2023-02-25T09:46:02Z</time>
      </trkpt>
      <trkpt lat="43.90897" lon="5.16615">
        <ele>279.4</ele>
        <time>2023-02-25T09:46:11Z</time>
      </trkpt>
      <trkpt lat="43.90895" lon="5.16609">
        <ele>279.4</ele>
        <time>2023-02-25T09:46:14Z</time>
      </trkpt>
      <trkpt lat="43.90891" lon="5.166">
        <ele>279.4</ele>
        <time>2023-02-25T09:46:19Z</time>
      </trkpt>
      <trkpt lat="43.90882" lon="5.16589">
        <ele>279</ele>
        <time>2023-02-25T09:46:26Z</time>
      </trkpt>
      <trkpt lat="43.90873" lon="5.16581">
        <ele>278.8</ele>
        <time>2023-02-25T09:46:32Z</time>
      </trkpt>
      <trkpt lat="43.90866" lon="5.16576">
        <ele>278.2</ele>
        <time>2023-02-25T09:46:37Z</time>
      </trkpt>
      <trkpt lat="43.90854" lon="5.16567">
        <ele>277.2</ele>
        <time>2023-02-25T09:46:45Z</time>
      </trkpt>
      <trkpt lat="43.90853" lon="5.16565">
        <ele>277</ele>
        <time>2023-02-25T09:46:46Z</time>
      </trkpt>
      <trkpt lat="43.90842" lon="5.16563">
        <ele>276.2</ele>
        <time>2023-02-25T09:46:52Z</time>
      </trkpt>
      <trkpt lat="43.90841" lon="5.16562">
        <ele>276</ele>
        <time>2023-02-25T09:46:53Z</time>
      </trkpt>
      <trkpt lat="43.90833" lon="5.16562">
        <ele>275</ele>
        <time>2023-02-25T09:46:58Z</time>
      </trkpt>
      <trkpt lat="43.90832" lon="5.16561">
        <ele>274.8</ele>
        <time>2023-02-25T09:46:59Z</time>
      </trkpt>
      <trkpt lat="43.90822" lon="5.1656">
        <ele>273.8</ele>
        <time>2023-02-25T09:47:05Z</time>
      </trkpt>
      <trkpt lat="43.90816" lon="5.16561">
        <ele>273.2</ele>
        <time>2023-02-25T09:47:08Z</time>
      </trkpt>
      <trkpt lat="43.90812" lon="5.16563">
        <ele>272.8</ele>
        <time>2023-02-25T09:47:10Z</time>
      </trkpt>
      <trkpt lat="43.90801" lon="5.16569">
        <ele>271.4</ele>
        <time>2023-02-25T09:47:16Z</time>
      </trkpt>
      <trkpt lat="43.90792" lon="5.16575">
        <ele>270.4</ele>
        <time>2023-02-25T09:47:22Z</time>
      </trkpt>
      <trkpt lat="43.90788" lon="5.16575">
        <ele>269.6</ele>
        <time>2023-02-25T09:47:25Z</time>
      </trkpt>
      <trkpt lat="43.90783" lon="5.16576">
        <ele>269.4</ele>
        <time>2023-02-25T09:47:28Z</time>
      </trkpt>
      <trkpt lat="43.90777" lon="5.16578">
        <ele>268.8</ele>
        <time>2023-02-25T09:47:32Z</time>
      </trkpt>
      <trkpt lat="43.90772" lon="5.16578">
        <ele>268.4</ele>
        <time>2023-02-25T09:47:35Z</time>
      </trkpt>
      <trkpt lat="43.90766" lon="5.16577">
        <ele>267.2</ele>
        <time>2023-02-25T09:47:39Z</time>
      </trkpt>
      <trkpt lat="43.90759" lon="5.16575">
        <ele>266.4</ele>
        <time>2023-02-25T09:47:43Z</time>
      </trkpt>
      <trkpt lat="43.90756" lon="5.16575">
        <ele>266</ele>
        <time>2023-02-25T09:47:45Z</time>
      </trkpt>
      <trkpt lat="43.90748" lon="5.16576">
        <ele>265</ele>
        <time>2023-02-25T09:47:50Z</time>
      </trkpt>
      <trkpt lat="43.90746" lon="5.16576">
        <ele>264.8</ele>
        <time>2023-02-25T09:47:51Z</time>
      </trkpt>
      <trkpt lat="43.90736" lon="5.16574">
        <ele>263.8</ele>
        <time>2023-02-25T09:47:57Z</time>
      </trkpt>
      <trkpt lat="43.90733" lon="5.16573">
        <ele>263.8</ele>
        <time>2023-02-25T09:47:58Z</time>
      </trkpt>
      <trkpt lat="43.90726" lon="5.16572">
        <ele>262.8</ele>
        <time>2023-02-25T09:48:02Z</time>
      </trkpt>
      <trkpt lat="43.9072" lon="5.16571">
        <ele>262.4</ele>
        <time>2023-02-25T09:48:05Z</time>
      </trkpt>
      <trkpt lat="43.90713" lon="5.16572">
        <ele>261.6</ele>
        <time>2023-02-25T09:48:09Z</time>
      </trkpt>
      <trkpt lat="43.90701" lon="5.1657">
        <ele>260.8</ele>
        <time>2023-02-25T09:48:15Z</time>
      </trkpt>
      <trkpt lat="43.90697" lon="5.16569">
        <ele>260.6</ele>
        <time>2023-02-25T09:48:17Z</time>
      </trkpt>
      <trkpt lat="43.90687" lon="5.16568">
        <ele>259.6</ele>
        <time>2023-02-25T09:48:23Z</time>
      </trkpt>
      <trkpt lat="43.90684" lon="5.16567">
        <ele>259.4</ele>
        <time>2023-02-25T09:48:25Z</time>
      </trkpt>
      <trkpt lat="43.90672" lon="5.16567">
        <ele>258.2</ele>
        <time>2023-02-25T09:48:33Z</time>
      </trkpt>
      <trkpt lat="43.90668" lon="5.16569">
        <ele>257.6</ele>
        <time>2023-02-25T09:48:35Z</time>
      </trkpt>
      <trkpt lat="43.90664" lon="5.16571">
        <ele>257.2</ele>
        <time>2023-02-25T09:48:38Z</time>
      </trkpt>
      <trkpt lat="43.90655" lon="5.16574">
        <ele>256.4</ele>
        <time>2023-02-25T09:48:44Z</time>
      </trkpt>
      <trkpt lat="43.90652" lon="5.16575">
        <ele>256</ele>
        <time>2023-02-25T09:48:46Z</time>
      </trkpt>
      <trkpt lat="43.90641" lon="5.16577">
        <ele>255</ele>
        <time>2023-02-25T09:48:52Z</time>
      </trkpt>
      <trkpt lat="43.90639" lon="5.16578">
        <ele>254.8</ele>
        <time>2023-02-25T09:48:53Z</time>
      </trkpt>
      <trkpt lat="43.90631" lon="5.16585">
        <ele>253.8</ele>
        <time>2023-02-25T09:48:58Z</time>
      </trkpt>
      <trkpt lat="43.9063" lon="5.16586">
        <ele>253.6</ele>
        <time>2023-02-25T09:48:59Z</time>
      </trkpt>
      <trkpt lat="43.90615" lon="5.16595">
        <ele>253</ele>
        <time>2023-02-25T09:49:08Z</time>
      </trkpt>
      <trkpt lat="43.90612" lon="5.16594">
        <ele>252.6</ele>
        <time>2023-02-25T09:49:10Z</time>
      </trkpt>
      <trkpt lat="43.90603" lon="5.16594">
        <ele>251.8</ele>
        <time>2023-02-25T09:49:15Z</time>
      </trkpt>
      <trkpt lat="43.906" lon="5.16594">
        <ele>251.4</ele>
        <time>2023-02-25T09:49:17Z</time>
      </trkpt>
      <trkpt lat="43.90594" lon="5.16594">
        <ele>251</ele>
        <time>2023-02-25T09:49:20Z</time>
      </trkpt>
      <trkpt lat="43.90588" lon="5.16594">
        <ele>250.6</ele>
        <time>2023-02-25T09:49:23Z</time>
      </trkpt>
      <trkpt lat="43.90583" lon="5.16593">
        <ele>250.4</ele>
        <time>2023-02-25T09:49:26Z</time>
      </trkpt>
      <trkpt lat="43.90571" lon="5.1659">
        <ele>249.8</ele>
        <time>2023-02-25T09:49:32Z</time>
      </trkpt>
      <trkpt lat="43.90567" lon="5.16587">
        <ele>249.4</ele>
        <time>2023-02-25T09:49:34Z</time>
      </trkpt>
      <trkpt lat="43.90558" lon="5.16575">
        <ele>248.8</ele>
        <time>2023-02-25T09:49:41Z</time>
      </trkpt>
      <trkpt lat="43.90552" lon="5.16569">
        <ele>248.2</ele>
        <time>2023-02-25T09:49:46Z</time>
      </trkpt>
      <trkpt lat="43.90544" lon="5.16563">
        <ele>247.4</ele>
        <time>2023-02-25T09:49:51Z</time>
      </trkpt>
      <trkpt lat="43.90541" lon="5.1656">
        <ele>247.2</ele>
        <time>2023-02-25T09:49:53Z</time>
      </trkpt>
      <trkpt lat="43.9053" lon="5.16551">
        <ele>246.2</ele>
        <time>2023-02-25T09:50:00Z</time>
      </trkpt>
      <trkpt lat="43.90527" lon="5.16549">
        <ele>246</ele>
        <time>2023-02-25T09:50:02Z</time>
      </trkpt>
      <trkpt lat="43.9052" lon="5.16547">
        <ele>245.6</ele>
        <time>2023-02-25T09:50:07Z</time>
      </trkpt>
      <trkpt lat="43.90512" lon="5.16546">
        <ele>244.8</ele>
        <time>2023-02-25T09:50:12Z</time>
      </trkpt>
      <trkpt lat="43.90503" lon="5.16546">
        <ele>243.8</ele>
        <time>2023-02-25T09:50:17Z</time>
      </trkpt>
      <trkpt lat="43.90501" lon="5.16546">
        <ele>243.6</ele>
        <time>2023-02-25T09:50:18Z</time>
      </trkpt>
      <trkpt lat="43.9049" lon="5.16548">
        <ele>242.8</ele>
        <time>2023-02-25T09:50:24Z</time>
      </trkpt>
      <trkpt lat="43.90485" lon="5.16549">
        <ele>242.4</ele>
        <time>2023-02-25T09:50:27Z</time>
      </trkpt>
      <trkpt lat="43.9048" lon="5.1655">
        <ele>241.6</ele>
        <time>2023-02-25T09:50:30Z</time>
      </trkpt>
      <trkpt lat="43.90469" lon="5.16551">
        <ele>240.6</ele>
        <time>2023-02-25T09:50:37Z</time>
      </trkpt>
      <trkpt lat="43.90458" lon="5.16552">
        <ele>239.6</ele>
        <time>2023-02-25T09:50:43Z</time>
      </trkpt>
      <trkpt lat="43.90453" lon="5.16552">
        <ele>239.2</ele>
        <time>2023-02-25T09:50:46Z</time>
      </trkpt>
      <trkpt lat="43.90442" lon="5.16554">
        <ele>238.6</ele>
        <time>2023-02-25T09:50:52Z</time>
      </trkpt>
      <trkpt lat="43.90434" lon="5.16554">
        <ele>237.6</ele>
        <time>2023-02-25T09:50:57Z</time>
      </trkpt>
      <trkpt lat="43.90432" lon="5.16554">
        <ele>237.4</ele>
        <time>2023-02-25T09:50:58Z</time>
      </trkpt>
      <trkpt lat="43.90422" lon="5.16554">
        <ele>236.6</ele>
        <time>2023-02-25T09:51:04Z</time>
      </trkpt>
      <trkpt lat="43.90419" lon="5.16554">
        <ele>236.2</ele>
        <time>2023-02-25T09:51:06Z</time>
      </trkpt>
      <trkpt lat="43.90411" lon="5.16554">
        <ele>235.6</ele>
        <time>2023-02-25T09:51:11Z</time>
      </trkpt>
      <trkpt lat="43.90406" lon="5.16554">
        <ele>235.2</ele>
        <time>2023-02-25T09:51:14Z</time>
      </trkpt>
      <trkpt lat="43.90391" lon="5.16554">
        <ele>234.4</ele>
        <time>2023-02-25T09:51:22Z</time>
      </trkpt>
      <trkpt lat="43.90377" lon="5.16553">
        <ele>234.2</ele>
        <time>2023-02-25T09:51:30Z</time>
      </trkpt>
      <trkpt lat="43.90376" lon="5.16552">
        <ele>234</ele>
        <time>2023-02-25T09:51:31Z</time>
      </trkpt>
      <trkpt lat="43.90358" lon="5.16549">
        <ele>233.4</ele>
        <time>2023-02-25T09:51:41Z</time>
      </trkpt>
      <trkpt lat="43.90346" lon="5.16548">
        <ele>233</ele>
        <time>2023-02-25T09:51:49Z</time>
      </trkpt>
      <trkpt lat="43.90345" lon="5.16547">
        <ele>232.8</ele>
        <time>2023-02-25T09:51:50Z</time>
      </trkpt>
      <trkpt lat="43.90329" lon="5.16542">
        <ele>231.8</ele>
        <time>2023-02-25T09:51:59Z</time>
      </trkpt>
      <trkpt lat="43.90325" lon="5.16541">
        <ele>231.6</ele>
        <time>2023-02-25T09:52:01Z</time>
      </trkpt>
      <trkpt lat="43.90311" lon="5.16539">
        <ele>231.4</ele>
        <time>2023-02-25T09:52:09Z</time>
      </trkpt>
      <trkpt lat="43.90298" lon="5.16535">
        <ele>231</ele>
        <time>2023-02-25T09:52:18Z</time>
      </trkpt>
      <trkpt lat="43.90296" lon="5.16534">
        <ele>230.8</ele>
        <time>2023-02-25T09:52:19Z</time>
      </trkpt>
      <trkpt lat="43.90285" lon="5.16531">
        <ele>230.6</ele>
        <time>2023-02-25T09:52:25Z</time>
      </trkpt>
      <trkpt lat="43.90273" lon="5.16529">
        <ele>229.8</ele>
        <time>2023-02-25T09:52:33Z</time>
      </trkpt>
      <trkpt lat="43.90263" lon="5.16526">
        <ele>229</ele>
        <time>2023-02-25T09:52:40Z</time>
      </trkpt>
      <trkpt lat="43.90261" lon="5.16523">
        <ele>228.8</ele>
        <time>2023-02-25T09:52:43Z</time>
      </trkpt>
      <trkpt lat="43.90262" lon="5.16521">
        <ele>228.6</ele>
        <time>2023-02-25T09:52:45Z</time>
      </trkpt>
      <trkpt lat="43.90263" lon="5.16518">
        <ele>228.6</ele>
        <time>2023-02-25T09:52:58Z</time>
      </trkpt>
      <trkpt lat="43.90263" lon="5.16514">
        <ele>228.6</ele>
        <time>2023-02-25T09:53:12Z</time>
      </trkpt>
      <trkpt lat="43.90265" lon="5.165">
        <ele>227.8</ele>
        <time>2023-02-25T09:53:19Z</time>
      </trkpt>
      <trkpt lat="43.90265" lon="5.16499">
        <ele>227.6</ele>
        <time>2023-02-25T09:53:20Z</time>
      </trkpt>
      <trkpt lat="43.90266" lon="5.16493">
        <ele>226.6</ele>
        <time>2023-02-25T09:53:24Z</time>
      </trkpt>
      <trkpt lat="43.90267" lon="5.16487">
        <ele>225.8</ele>
        <time>2023-02-25T09:53:29Z</time>
      </trkpt>
      <trkpt lat="43.90267" lon="5.16486">
        <ele>225.6</ele>
        <time>2023-02-25T09:53:30Z</time>
      </trkpt>
      <trkpt lat="43.90267" lon="5.16481">
        <ele>224.4</ele>
        <time>2023-02-25T09:53:34Z</time>
      </trkpt>
      <trkpt lat="43.90267" lon="5.16478">
        <ele>223.8</ele>
        <time>2023-02-25T09:53:36Z</time>
      </trkpt>
      <trkpt lat="43.90267" lon="5.16476">
        <ele>223.4</ele>
        <time>2023-02-25T09:53:38Z</time>
      </trkpt>
      <trkpt lat="43.90268" lon="5.16469">
        <ele>222.4</ele>
        <time>2023-02-25T09:53:42Z</time>
      </trkpt>
      <trkpt lat="43.90267" lon="5.16464">
        <ele>221.8</ele>
        <time>2023-02-25T09:53:44Z</time>
      </trkpt>
      <trkpt lat="43.90268" lon="5.16453">
        <ele>221.4</ele>
        <time>2023-02-25T09:53:49Z</time>
      </trkpt>
      <trkpt lat="43.90268" lon="5.16449">
        <ele>221.2</ele>
        <time>2023-02-25T09:53:51Z</time>
      </trkpt>
      <trkpt lat="43.90269" lon="5.16444">
        <ele>221.2</ele>
        <time>2023-02-25T09:53:53Z</time>
      </trkpt>
      <trkpt lat="43.9027" lon="5.16439">
        <ele>221.2</ele>
        <time>2023-02-25T09:53:56Z</time>
      </trkpt>
      <trkpt lat="43.90272" lon="5.16425">
        <ele>221.6</ele>
        <time>2023-02-25T09:54:04Z</time>
      </trkpt>
      <trkpt lat="43.90273" lon="5.16412">
        <ele>222.4</ele>
        <time>2023-02-25T09:54:11Z</time>
      </trkpt>
      <trkpt lat="43.90274" lon="5.16408">
        <ele>223</ele>
        <time>2023-02-25T09:54:13Z</time>
      </trkpt>
      <trkpt lat="43.90275" lon="5.16404">
        <ele>223.4</ele>
        <time>2023-02-25T09:54:15Z</time>
      </trkpt>
      <trkpt lat="43.90278" lon="5.16399">
        <ele>224.2</ele>
        <time>2023-02-25T09:54:19Z</time>
      </trkpt>
      <trkpt lat="43.90278" lon="5.16398">
        <ele>224.6</ele>
        <time>2023-02-25T09:54:20Z</time>
      </trkpt>
      <trkpt lat="43.90279" lon="5.16394">
        <ele>225.4</ele>
        <time>2023-02-25T09:54:22Z</time>
      </trkpt>
      <trkpt lat="43.90278" lon="5.16393">
        <ele>225.6</ele>
        <time>2023-02-25T09:54:23Z</time>
      </trkpt>
      <trkpt lat="43.90278" lon="5.16386">
        <ele>226.6</ele>
        <time>2023-02-25T09:54:26Z</time>
      </trkpt>
      <trkpt lat="43.90278" lon="5.16385">
        <ele>226.8</ele>
        <time>2023-02-25T09:54:27Z</time>
      </trkpt>
      <trkpt lat="43.90279" lon="5.16383">
        <ele>226.8</ele>
        <time>2023-02-25T09:54:28Z</time>
      </trkpt>
      <trkpt lat="43.90279" lon="5.16376">
        <ele>227.6</ele>
        <time>2023-02-25T09:54:32Z</time>
      </trkpt>
      <trkpt lat="43.90279" lon="5.16374">
        <ele>228</ele>
        <time>2023-02-25T09:54:33Z</time>
      </trkpt>
      <trkpt lat="43.90283" lon="5.16363">
        <ele>229</ele>
        <time>2023-02-25T09:54:40Z</time>
      </trkpt>
      <trkpt lat="43.90283" lon="5.16362">
        <ele>229</ele>
        <time>2023-02-25T09:54:41Z</time>
      </trkpt>
      <trkpt lat="43.90285" lon="5.16353">
        <ele>229.8</ele>
        <time>2023-02-25T09:54:47Z</time>
      </trkpt>
      <trkpt lat="43.90286" lon="5.16347">
        <ele>230.2</ele>
        <time>2023-02-25T09:54:50Z</time>
      </trkpt>
      <trkpt lat="43.90289" lon="5.16334">
        <ele>231</ele>
        <time>2023-02-25T09:54:58Z</time>
      </trkpt>
      <trkpt lat="43.90289" lon="5.16333">
        <ele>231.2</ele>
        <time>2023-02-25T09:54:59Z</time>
      </trkpt>
      <trkpt lat="43.90293" lon="5.16319">
        <ele>232.2</ele>
        <time>2023-02-25T09:55:07Z</time>
      </trkpt>
      <trkpt lat="43.90293" lon="5.16313">
        <ele>232.2</ele>
        <time>2023-02-25T09:55:10Z</time>
      </trkpt>
      <trkpt lat="43.90294" lon="5.163">
        <ele>232.6</ele>
        <time>2023-02-25T09:55:16Z</time>
      </trkpt>
      <trkpt lat="43.90295" lon="5.16294">
        <ele>233.2</ele>
        <time>2023-02-25T09:55:20Z</time>
      </trkpt>
      <trkpt lat="43.90295" lon="5.1629">
        <ele>233.2</ele>
        <time>2023-02-25T09:55:22Z</time>
      </trkpt>
      <trkpt lat="43.90296" lon="5.16288">
        <ele>233.4</ele>
        <time>2023-02-25T09:55:23Z</time>
      </trkpt>
      <trkpt lat="43.90296" lon="5.16274">
        <ele>233.8</ele>
        <time>2023-02-25T09:55:31Z</time>
      </trkpt>
      <trkpt lat="43.90297" lon="5.16264">
        <ele>234</ele>
        <time>2023-02-25T09:55:36Z</time>
      </trkpt>
      <trkpt lat="43.90298" lon="5.1626">
        <ele>234.2</ele>
        <time>2023-02-25T09:55:38Z</time>
      </trkpt>
      <trkpt lat="43.90298" lon="5.16257">
        <ele>234.4</ele>
        <time>2023-02-25T09:55:40Z</time>
      </trkpt>
      <trkpt lat="43.90299" lon="5.16244">
        <ele>235</ele>
        <time>2023-02-25T09:55:47Z</time>
      </trkpt>
      <trkpt lat="43.90299" lon="5.1623">
        <ele>235.4</ele>
        <time>2023-02-25T09:55:55Z</time>
      </trkpt>
      <trkpt lat="43.90299" lon="5.16228">
        <ele>235.6</ele>
        <time>2023-02-25T09:55:56Z</time>
      </trkpt>
      <trkpt lat="43.903" lon="5.16217">
        <ele>236.2</ele>
        <time>2023-02-25T09:56:02Z</time>
      </trkpt>
      <trkpt lat="43.90301" lon="5.16213">
        <ele>236.4</ele>
        <time>2023-02-25T09:56:04Z</time>
      </trkpt>
      <trkpt lat="43.90304" lon="5.16201">
        <ele>237.2</ele>
        <time>2023-02-25T09:56:11Z</time>
      </trkpt>
      <trkpt lat="43.90305" lon="5.16197">
        <ele>237.6</ele>
        <time>2023-02-25T09:56:13Z</time>
      </trkpt>
      <trkpt lat="43.90307" lon="5.16184">
        <ele>238.4</ele>
        <time>2023-02-25T09:56:19Z</time>
      </trkpt>
      <trkpt lat="43.90308" lon="5.16182">
        <ele>238.6</ele>
        <time>2023-02-25T09:56:20Z</time>
      </trkpt>
      <trkpt lat="43.9031" lon="5.16171">
        <ele>239.2</ele>
        <time>2023-02-25T09:56:26Z</time>
      </trkpt>
      <trkpt lat="43.90311" lon="5.16165">
        <ele>239.8</ele>
        <time>2023-02-25T09:56:29Z</time>
      </trkpt>
      <trkpt lat="43.90311" lon="5.16161">
        <ele>240.2</ele>
        <time>2023-02-25T09:56:31Z</time>
      </trkpt>
      <trkpt lat="43.90312" lon="5.16158">
        <ele>240.8</ele>
        <time>2023-02-25T09:56:33Z</time>
      </trkpt>
      <trkpt lat="43.90313" lon="5.16156">
        <ele>240.8</ele>
        <time>2023-02-25T09:56:34Z</time>
      </trkpt>
      <trkpt lat="43.90316" lon="5.16147">
        <ele>242</ele>
        <time>2023-02-25T09:56:39Z</time>
      </trkpt>
      <trkpt lat="43.90318" lon="5.16142">
        <ele>242.6</ele>
        <time>2023-02-25T09:56:42Z</time>
      </trkpt>
      <trkpt lat="43.9032" lon="5.16136">
        <ele>243</ele>
        <time>2023-02-25T09:56:45Z</time>
      </trkpt>
      <trkpt lat="43.90321" lon="5.16133">
        <ele>243.6</ele>
        <time>2023-02-25T09:56:47Z</time>
      </trkpt>
      <trkpt lat="43.90321" lon="5.16131">
        <ele>243.8</ele>
        <time>2023-02-25T09:56:48Z</time>
      </trkpt>
      <trkpt lat="43.90321" lon="5.16129">
        <ele>244</ele>
        <time>2023-02-25T09:56:49Z</time>
      </trkpt>
      <trkpt lat="43.90323" lon="5.1612">
        <ele>245.2</ele>
        <time>2023-02-25T09:56:54Z</time>
      </trkpt>
      <trkpt lat="43.90323" lon="5.16118">
        <ele>245.4</ele>
        <time>2023-02-25T09:56:55Z</time>
      </trkpt>
      <trkpt lat="43.90324" lon="5.1611">
        <ele>246.2</ele>
        <time>2023-02-25T09:56:59Z</time>
      </trkpt>
      <trkpt lat="43.90326" lon="5.16103">
        <ele>247.2</ele>
        <time>2023-02-25T09:57:03Z</time>
      </trkpt>
      <trkpt lat="43.90326" lon="5.16102">
        <ele>247.4</ele>
        <time>2023-02-25T09:57:04Z</time>
      </trkpt>
      <trkpt lat="43.90323" lon="5.16096">
        <ele>248</ele>
        <time>2023-02-25T09:57:08Z</time>
      </trkpt>
      <trkpt lat="43.90319" lon="5.16089">
        <ele>248.4</ele>
        <time>2023-02-25T09:57:13Z</time>
      </trkpt>
      <trkpt lat="43.90317" lon="5.16087">
        <ele>248.4</ele>
        <time>2023-02-25T09:57:15Z</time>
      </trkpt>
      <trkpt lat="43.90311" lon="5.16077">
        <ele>248.6</ele>
        <time>2023-02-25T09:57:22Z</time>
      </trkpt>
      <trkpt lat="43.90303" lon="5.16065">
        <ele>248.8</ele>
        <time>2023-02-25T09:57:30Z</time>
      </trkpt>
      <trkpt lat="43.90295" lon="5.16056">
        <ele>249</ele>
        <time>2023-02-25T09:57:38Z</time>
      </trkpt>
      <trkpt lat="43.90286" lon="5.16045">
        <ele>249.2</ele>
        <time>2023-02-25T09:57:45Z</time>
      </trkpt>
      <trkpt lat="43.90285" lon="5.16043">
        <ele>249.2</ele>
        <time>2023-02-25T09:57:47Z</time>
      </trkpt>
      <trkpt lat="43.90275" lon="5.16031">
        <ele>249.2</ele>
        <time>2023-02-25T09:57:55Z</time>
      </trkpt>
      <trkpt lat="43.90273" lon="5.16028">
        <ele>249.4</ele>
        <time>2023-02-25T09:57:57Z</time>
      </trkpt>
      <trkpt lat="43.90267" lon="5.16018">
        <ele>249.6</ele>
        <time>2023-02-25T09:58:03Z</time>
      </trkpt>
      <trkpt lat="43.90259" lon="5.16003">
        <ele>249.6</ele>
        <time>2023-02-25T09:58:11Z</time>
      </trkpt>
      <trkpt lat="43.90249" lon="5.1599">
        <ele>250</ele>
        <time>2023-02-25T09:58:20Z</time>
      </trkpt>
      <trkpt lat="43.90242" lon="5.15981">
        <ele>250.4</ele>
        <time>2023-02-25T09:58:26Z</time>
      </trkpt>
      <trkpt lat="43.90242" lon="5.15979">
        <ele>250.6</ele>
        <time>2023-02-25T09:58:27Z</time>
      </trkpt>
      <trkpt lat="43.90235" lon="5.15968">
        <ele>250.8</ele>
        <time>2023-02-25T09:58:33Z</time>
      </trkpt>
      <trkpt lat="43.90234" lon="5.15966">
        <ele>250.8</ele>
        <time>2023-02-25T09:58:34Z</time>
      </trkpt>
      <trkpt lat="43.90228" lon="5.15955">
        <ele>251.4</ele>
        <time>2023-02-25T09:58:40Z</time>
      </trkpt>
      <trkpt lat="43.90216" lon="5.15936">
        <ele>251.2</ele>
        <time>2023-02-25T09:58:51Z</time>
      </trkpt>
      <trkpt lat="43.90208" lon="5.15923">
        <ele>251</ele>
        <time>2023-02-25T09:58:59Z</time>
      </trkpt>
      <trkpt lat="43.90201" lon="5.15911">
        <ele>251</ele>
        <time>2023-02-25T09:59:06Z</time>
      </trkpt>
      <trkpt lat="43.90193" lon="5.15892">
        <ele>250.6</ele>
        <time>2023-02-25T09:59:16Z</time>
      </trkpt>
      <trkpt lat="43.90189" lon="5.15875">
        <ele>250.4</ele>
        <time>2023-02-25T09:59:24Z</time>
      </trkpt>
      <trkpt lat="43.90191" lon="5.15871">
        <ele>250.4</ele>
        <time>2023-02-25T09:59:26Z</time>
      </trkpt>
      <trkpt lat="43.90195" lon="5.15866">
        <ele>250.8</ele>
        <time>2023-02-25T09:59:31Z</time>
      </trkpt>
      <trkpt lat="43.90195" lon="5.15864">
        <ele>251</ele>
        <time>2023-02-25T09:59:39Z</time>
      </trkpt>
      <trkpt lat="43.90196" lon="5.15866">
        <ele>251</ele>
        <time>2023-02-25T09:59:43Z</time>
      </trkpt>
      <trkpt lat="43.90193" lon="5.15862">
        <ele>250.8</ele>
        <time>2023-02-25T09:59:50Z</time>
      </trkpt>
      <trkpt lat="43.90185" lon="5.15861">
        <ele>250.2</ele>
        <time>2023-02-25T09:59:59Z</time>
      </trkpt>
      <trkpt lat="43.90184" lon="5.15858">
        <ele>250</ele>
        <time>2023-02-25T10:00:05Z</time>
      </trkpt>
      <trkpt lat="43.90179" lon="5.15851">
        <ele>250.4</ele>
        <time>2023-02-25T10:00:11Z</time>
      </trkpt>
      <trkpt lat="43.90171" lon="5.15842">
        <ele>249.6</ele>
        <time>2023-02-25T10:00:18Z</time>
      </trkpt>
      <trkpt lat="43.90169" lon="5.15841">
        <ele>249.4</ele>
        <time>2023-02-25T10:00:19Z</time>
      </trkpt>
      <trkpt lat="43.90162" lon="5.15831">
        <ele>249</ele>
        <time>2023-02-25T10:00:26Z</time>
      </trkpt>
      <trkpt lat="43.90162" lon="5.15827">
        <ele>248.6</ele>
        <time>2023-02-25T10:00:28Z</time>
      </trkpt>
      <trkpt lat="43.90164" lon="5.15823">
        <ele>248.4</ele>
        <time>2023-02-25T10:00:30Z</time>
      </trkpt>
      <trkpt lat="43.90172" lon="5.15813">
        <ele>249.6</ele>
        <time>2023-02-25T10:00:37Z</time>
      </trkpt>
      <trkpt lat="43.90176" lon="5.1581">
        <ele>249.8</ele>
        <time>2023-02-25T10:00:40Z</time>
      </trkpt>
      <trkpt lat="43.9018" lon="5.15806">
        <ele>250.2</ele>
        <time>2023-02-25T10:00:43Z</time>
      </trkpt>
      <trkpt lat="43.90181" lon="5.15805">
        <ele>250.4</ele>
        <time>2023-02-25T10:00:44Z</time>
      </trkpt>
      <trkpt lat="43.90189" lon="5.15797">
        <ele>251.2</ele>
        <time>2023-02-25T10:00:51Z</time>
      </trkpt>
      <trkpt lat="43.90191" lon="5.15795">
        <ele>251.6</ele>
        <time>2023-02-25T10:00:53Z</time>
      </trkpt>
      <trkpt lat="43.90199" lon="5.15787">
        <ele>252.6</ele>
        <time>2023-02-25T10:00:59Z</time>
      </trkpt>
      <trkpt lat="43.902" lon="5.15786">
        <ele>252.6</ele>
        <time>2023-02-25T10:01:00Z</time>
      </trkpt>
      <trkpt lat="43.90201" lon="5.15785">
        <ele>252.8</ele>
        <time>2023-02-25T10:01:01Z</time>
      </trkpt>
      <trkpt lat="43.90209" lon="5.1578">
        <ele>253.8</ele>
        <time>2023-02-25T10:01:06Z</time>
      </trkpt>
      <trkpt lat="43.90211" lon="5.15776">
        <ele>254.2</ele>
        <time>2023-02-25T10:01:09Z</time>
      </trkpt>
      <trkpt lat="43.90217" lon="5.15771">
        <ele>254.8</ele>
        <time>2023-02-25T10:01:13Z</time>
      </trkpt>
      <trkpt lat="43.90221" lon="5.15768">
        <ele>255.4</ele>
        <time>2023-02-25T10:01:16Z</time>
      </trkpt>
      <trkpt lat="43.90225" lon="5.1576">
        <ele>256</ele>
        <time>2023-02-25T10:01:20Z</time>
      </trkpt>
      <trkpt lat="43.90227" lon="5.15755">
        <ele>256.6</ele>
        <time>2023-02-25T10:01:24Z</time>
      </trkpt>
      <trkpt lat="43.9023" lon="5.15751">
        <ele>257</ele>
        <time>2023-02-25T10:01:27Z</time>
      </trkpt>
      <trkpt lat="43.90235" lon="5.15744">
        <ele>258</ele>
        <time>2023-02-25T10:01:32Z</time>
      </trkpt>
      <trkpt lat="43.90237" lon="5.15742">
        <ele>258.4</ele>
        <time>2023-02-25T10:01:34Z</time>
      </trkpt>
      <trkpt lat="43.90242" lon="5.15735">
        <ele>259.2</ele>
        <time>2023-02-25T10:01:39Z</time>
      </trkpt>
      <trkpt lat="43.90246" lon="5.1573">
        <ele>259.8</ele>
        <time>2023-02-25T10:01:43Z</time>
      </trkpt>
      <trkpt lat="43.90248" lon="5.15728">
        <ele>260.4</ele>
        <time>2023-02-25T10:01:45Z</time>
      </trkpt>
      <trkpt lat="43.9025" lon="5.15725">
        <ele>260.8</ele>
        <time>2023-02-25T10:01:47Z</time>
      </trkpt>
      <trkpt lat="43.90253" lon="5.15724">
        <ele>261</ele>
        <time>2023-02-25T10:01:49Z</time>
      </trkpt>
      <trkpt lat="43.90258" lon="5.15722">
        <ele>261.6</ele>
        <time>2023-02-25T10:01:52Z</time>
      </trkpt>
      <trkpt lat="43.90262" lon="5.1572">
        <ele>262.2</ele>
        <time>2023-02-25T10:01:56Z</time>
      </trkpt>
      <trkpt lat="43.90267" lon="5.15717">
        <ele>262.6</ele>
        <time>2023-02-25T10:02:00Z</time>
      </trkpt>
      <trkpt lat="43.90272" lon="5.15713">
        <ele>263.4</ele>
        <time>2023-02-25T10:02:04Z</time>
      </trkpt>
      <trkpt lat="43.90272" lon="5.15711">
        <ele>263.4</ele>
        <time>2023-02-25T10:02:05Z</time>
      </trkpt>
      <trkpt lat="43.90272" lon="5.15708">
        <ele>263.8</ele>
        <time>2023-02-25T10:02:07Z</time>
      </trkpt>
      <trkpt lat="43.90272" lon="5.15706">
        <ele>264</ele>
        <time>2023-02-25T10:02:08Z</time>
      </trkpt>
      <trkpt lat="43.90273" lon="5.15705">
        <ele>264</ele>
        <time>2023-02-25T10:02:09Z</time>
      </trkpt>
      <trkpt lat="43.90275" lon="5.15688">
        <ele>264.6</ele>
        <time>2023-02-25T10:02:17Z</time>
      </trkpt>
      <trkpt lat="43.90276" lon="5.15686">
        <ele>264.8</ele>
        <time>2023-02-25T10:02:18Z</time>
      </trkpt>
      <trkpt lat="43.90276" lon="5.15684">
        <ele>264.8</ele>
        <time>2023-02-25T10:02:19Z</time>
      </trkpt>
      <trkpt lat="43.90278" lon="5.15676">
        <ele>265</ele>
        <time>2023-02-25T10:02:23Z</time>
      </trkpt>
      <trkpt lat="43.90284" lon="5.15662">
        <ele>265.8</ele>
        <time>2023-02-25T10:02:31Z</time>
      </trkpt>
      <trkpt lat="43.9029" lon="5.15647">
        <ele>265.8</ele>
        <time>2023-02-25T10:02:40Z</time>
      </trkpt>
      <trkpt lat="43.90291" lon="5.15644">
        <ele>265.6</ele>
        <time>2023-02-25T10:02:41Z</time>
      </trkpt>
      <trkpt lat="43.9029" lon="5.15642">
        <ele>265.6</ele>
        <time>2023-02-25T10:02:42Z</time>
      </trkpt>
      <trkpt lat="43.90285" lon="5.15637">
        <ele>264.8</ele>
        <time>2023-02-25T10:02:46Z</time>
      </trkpt>
      <trkpt lat="43.90274" lon="5.15637">
        <ele>264.2</ele>
        <time>2023-02-25T10:02:55Z</time>
      </trkpt>
      <trkpt lat="43.90265" lon="5.15638">
        <ele>263.8</ele>
        <time>2023-02-25T10:03:01Z</time>
      </trkpt>
      <trkpt lat="43.90256" lon="5.15638">
        <ele>263.4</ele>
        <time>2023-02-25T10:03:06Z</time>
      </trkpt>
      <trkpt lat="43.90246" lon="5.15635">
        <ele>263</ele>
        <time>2023-02-25T10:03:13Z</time>
      </trkpt>
      <trkpt lat="43.90245" lon="5.15635">
        <ele>262.8</ele>
        <time>2023-02-25T10:03:14Z</time>
      </trkpt>
      <trkpt lat="43.90237" lon="5.15635">
        <ele>261.6</ele>
        <time>2023-02-25T10:03:19Z</time>
      </trkpt>
      <trkpt lat="43.90236" lon="5.15634">
        <ele>261.6</ele>
        <time>2023-02-25T10:03:20Z</time>
      </trkpt>
      <trkpt lat="43.90223" lon="5.15632">
        <ele>260.6</ele>
        <time>2023-02-25T10:03:26Z</time>
      </trkpt>
      <trkpt lat="43.9022" lon="5.15631">
        <ele>260.2</ele>
        <time>2023-02-25T10:03:28Z</time>
      </trkpt>
      <trkpt lat="43.9021" lon="5.15626">
        <ele>259.4</ele>
        <time>2023-02-25T10:03:35Z</time>
      </trkpt>
      <trkpt lat="43.90199" lon="5.15623">
        <ele>258.2</ele>
        <time>2023-02-25T10:03:41Z</time>
      </trkpt>
      <trkpt lat="43.90193" lon="5.1562">
        <ele>258</ele>
        <time>2023-02-25T10:03:44Z</time>
      </trkpt>
      <trkpt lat="43.90184" lon="5.15617">
        <ele>257.2</ele>
        <time>2023-02-25T10:03:50Z</time>
      </trkpt>
      <trkpt lat="43.90182" lon="5.15616">
        <ele>257.2</ele>
        <time>2023-02-25T10:03:51Z</time>
      </trkpt>
      <trkpt lat="43.90178" lon="5.15615">
        <ele>256.8</ele>
        <time>2023-02-25T10:03:55Z</time>
      </trkpt>
      <trkpt lat="43.90176" lon="5.15617">
        <ele>256.4</ele>
        <time>2023-02-25T10:03:57Z</time>
      </trkpt>
      <trkpt lat="43.90175" lon="5.15618">
        <ele>256</ele>
        <time>2023-02-25T10:03:58Z</time>
      </trkpt>
      <trkpt lat="43.90172" lon="5.15622">
        <ele>255.4</ele>
        <time>2023-02-25T10:04:01Z</time>
      </trkpt>
      <trkpt lat="43.90167" lon="5.15623">
        <ele>254.8</ele>
        <time>2023-02-25T10:04:04Z</time>
      </trkpt>
      <trkpt lat="43.90163" lon="5.15624">
        <ele>254.6</ele>
        <time>2023-02-25T10:04:05Z</time>
      </trkpt>
      <trkpt lat="43.90158" lon="5.15618">
        <ele>254</ele>
        <time>2023-02-25T10:04:09Z</time>
      </trkpt>
      <trkpt lat="43.90156" lon="5.15614">
        <ele>253.8</ele>
        <time>2023-02-25T10:04:11Z</time>
      </trkpt>
      <trkpt lat="43.90155" lon="5.15606">
        <ele>253.2</ele>
        <time>2023-02-25T10:04:15Z</time>
      </trkpt>
      <trkpt lat="43.90154" lon="5.15605">
        <ele>253</ele>
        <time>2023-02-25T10:04:16Z</time>
      </trkpt>
      <trkpt lat="43.90152" lon="5.15604">
        <ele>252.8</ele>
        <time>2023-02-25T10:04:17Z</time>
      </trkpt>
      <trkpt lat="43.90147" lon="5.15606">
        <ele>252.4</ele>
        <time>2023-02-25T10:04:21Z</time>
      </trkpt>
      <trkpt lat="43.90141" lon="5.15612">
        <ele>251.6</ele>
        <time>2023-02-25T10:04:26Z</time>
      </trkpt>
      <trkpt lat="43.90136" lon="5.15617">
        <ele>251</ele>
        <time>2023-02-25T10:04:30Z</time>
      </trkpt>
      <trkpt lat="43.90133" lon="5.1562">
        <ele>250.6</ele>
        <time>2023-02-25T10:04:32Z</time>
      </trkpt>
      <trkpt lat="43.9012" lon="5.15627">
        <ele>249.6</ele>
        <time>2023-02-25T10:04:38Z</time>
      </trkpt>
      <trkpt lat="43.90115" lon="5.1563">
        <ele>248.8</ele>
        <time>2023-02-25T10:04:42Z</time>
      </trkpt>
      <trkpt lat="43.90111" lon="5.15626">
        <ele>248.6</ele>
        <time>2023-02-25T10:04:45Z</time>
      </trkpt>
      <trkpt lat="43.9011" lon="5.15622">
        <ele>248.4</ele>
        <time>2023-02-25T10:04:47Z</time>
      </trkpt>
      <trkpt lat="43.90106" lon="5.15607">
        <ele>247.8</ele>
        <time>2023-02-25T10:04:53Z</time>
      </trkpt>
      <trkpt lat="43.90103" lon="5.15601">
        <ele>247.4</ele>
        <time>2023-02-25T10:04:56Z</time>
      </trkpt>
      <trkpt lat="43.90097" lon="5.15594">
        <ele>246.8</ele>
        <time>2023-02-25T10:05:00Z</time>
      </trkpt>
      <trkpt lat="43.90093" lon="5.15591">
        <ele>246.2</ele>
        <time>2023-02-25T10:05:03Z</time>
      </trkpt>
      <trkpt lat="43.90087" lon="5.15587">
        <ele>245.4</ele>
        <time>2023-02-25T10:05:08Z</time>
      </trkpt>
      <trkpt lat="43.90084" lon="5.15588">
        <ele>245.2</ele>
        <time>2023-02-25T10:05:10Z</time>
      </trkpt>
      <trkpt lat="43.90074" lon="5.15591">
        <ele>244.4</ele>
        <time>2023-02-25T10:05:16Z</time>
      </trkpt>
      <trkpt lat="43.90069" lon="5.15592">
        <ele>244</ele>
        <time>2023-02-25T10:05:19Z</time>
      </trkpt>
      <trkpt lat="43.90063" lon="5.15591">
        <ele>243.4</ele>
        <time>2023-02-25T10:05:24Z</time>
      </trkpt>
      <trkpt lat="43.90056" lon="5.15592">
        <ele>242.8</ele>
        <time>2023-02-25T10:05:29Z</time>
      </trkpt>
      <trkpt lat="43.90052" lon="5.15592">
        <ele>242.6</ele>
        <time>2023-02-25T10:05:31Z</time>
      </trkpt>
      <trkpt lat="43.90046" lon="5.15593">
        <ele>241.8</ele>
        <time>2023-02-25T10:05:35Z</time>
      </trkpt>
      <trkpt lat="43.90037" lon="5.15596">
        <ele>240.8</ele>
        <time>2023-02-25T10:05:39Z</time>
      </trkpt>
      <trkpt lat="43.90035" lon="5.15596">
        <ele>240.6</ele>
        <time>2023-02-25T10:05:40Z</time>
      </trkpt>
      <trkpt lat="43.90029" lon="5.15588">
        <ele>240</ele>
        <time>2023-02-25T10:05:46Z</time>
      </trkpt>
      <trkpt lat="43.90031" lon="5.15584">
        <ele>239.8</ele>
        <time>2023-02-25T10:05:54Z</time>
      </trkpt>
      <trkpt lat="43.90032" lon="5.15579">
        <ele>239.8</ele>
        <time>2023-02-25T10:06:07Z</time>
      </trkpt>
      <trkpt lat="43.90032" lon="5.1558">
        <ele>239.6</ele>
        <time>2023-02-25T10:06:24Z</time>
      </trkpt>
      <trkpt lat="43.90029" lon="5.15574">
        <ele>239.2</ele>
        <time>2023-02-25T10:06:39Z</time>
      </trkpt>
      <trkpt lat="43.90021" lon="5.15564">
        <ele>238.6</ele>
        <time>2023-02-25T10:06:45Z</time>
      </trkpt>
      <trkpt lat="43.9002" lon="5.15562">
        <ele>238.6</ele>
        <time>2023-02-25T10:06:46Z</time>
      </trkpt>
      <trkpt lat="43.9002" lon="5.1556">
        <ele>238.6</ele>
        <time>2023-02-25T10:06:47Z</time>
      </trkpt>
      <trkpt lat="43.90018" lon="5.15552">
        <ele>237.4</ele>
        <time>2023-02-25T10:06:51Z</time>
      </trkpt>
      <trkpt lat="43.90017" lon="5.15551">
        <ele>237</ele>
        <time>2023-02-25T10:06:52Z</time>
      </trkpt>
      <trkpt lat="43.90014" lon="5.15548">
        <ele>236.4</ele>
        <time>2023-02-25T10:06:54Z</time>
      </trkpt>
      <trkpt lat="43.9001" lon="5.15542">
        <ele>235.4</ele>
        <time>2023-02-25T10:06:58Z</time>
      </trkpt>
      <trkpt lat="43.90008" lon="5.15538">
        <ele>234.8</ele>
        <time>2023-02-25T10:07:00Z</time>
      </trkpt>
      <trkpt lat="43.90006" lon="5.15534">
        <ele>234.2</ele>
        <time>2023-02-25T10:07:02Z</time>
      </trkpt>
      <trkpt lat="43.90004" lon="5.15526">
        <ele>233</ele>
        <time>2023-02-25T10:07:06Z</time>
      </trkpt>
      <trkpt lat="43.90003" lon="5.15525">
        <ele>232.8</ele>
        <time>2023-02-25T10:07:07Z</time>
      </trkpt>
      <trkpt lat="43.90002" lon="5.15523">
        <ele>232.2</ele>
        <time>2023-02-25T10:07:09Z</time>
      </trkpt>
      <trkpt lat="43.90002" lon="5.15521">
        <ele>231.8</ele>
        <time>2023-02-25T10:07:10Z</time>
      </trkpt>
      <trkpt lat="43.90001" lon="5.15516">
        <ele>230.6</ele>
        <time>2023-02-25T10:07:13Z</time>
      </trkpt>
      <trkpt lat="43.9" lon="5.1551">
        <ele>229.2</ele>
        <time>2023-02-25T10:07:16Z</time>
      </trkpt>
      <trkpt lat="43.89999" lon="5.15508">
        <ele>229</ele>
        <time>2023-02-25T10:07:17Z</time>
      </trkpt>
      <trkpt lat="43.89997" lon="5.15502">
        <ele>228</ele>
        <time>2023-02-25T10:07:20Z</time>
      </trkpt>
      <trkpt lat="43.89996" lon="5.15498">
        <ele>227.4</ele>
        <time>2023-02-25T10:07:22Z</time>
      </trkpt>
      <trkpt lat="43.89995" lon="5.15494">
        <ele>227</ele>
        <time>2023-02-25T10:07:24Z</time>
      </trkpt>
      <trkpt lat="43.89993" lon="5.15487">
        <ele>226</ele>
        <time>2023-02-25T10:07:27Z</time>
      </trkpt>
      <trkpt lat="43.89993" lon="5.15485">
        <ele>225.8</ele>
        <time>2023-02-25T10:07:28Z</time>
      </trkpt>
      <trkpt lat="43.89994" lon="5.15482">
        <ele>224.6</ele>
        <time>2023-02-25T10:07:33Z</time>
      </trkpt>
      <trkpt lat="43.89995" lon="5.15482">
        <ele>224.6</ele>
        <time>2023-02-25T10:07:34Z</time>
      </trkpt>
      <trkpt lat="43.89996" lon="5.15485">
        <ele>224.8</ele>
        <time>2023-02-25T10:07:36Z</time>
      </trkpt>
      <trkpt lat="43.89998" lon="5.15491">
        <ele>226</ele>
        <time>2023-02-25T10:07:40Z</time>
      </trkpt>
      <trkpt lat="43.89996" lon="5.15493">
        <ele>226.4</ele>
        <time>2023-02-25T10:07:42Z</time>
      </trkpt>
      <trkpt lat="43.89993" lon="5.15492">
        <ele>226.4</ele>
        <time>2023-02-25T10:07:44Z</time>
      </trkpt>
      <trkpt lat="43.89992" lon="5.1549">
        <ele>226.4</ele>
        <time>2023-02-25T10:07:45Z</time>
      </trkpt>
      <trkpt lat="43.89985" lon="5.15484">
        <ele>225.2</ele>
        <time>2023-02-25T10:07:52Z</time>
      </trkpt>
      <trkpt lat="43.89975" lon="5.15481">
        <ele>224.8</ele>
        <time>2023-02-25T10:07:58Z</time>
      </trkpt>
      <trkpt lat="43.89966" lon="5.15475">
        <ele>223.8</ele>
        <time>2023-02-25T10:08:04Z</time>
      </trkpt>
      <trkpt lat="43.89965" lon="5.15472">
        <ele>223.4</ele>
        <time>2023-02-25T10:08:06Z</time>
      </trkpt>
      <trkpt lat="43.89964" lon="5.15471">
        <ele>223.2</ele>
        <time>2023-02-25T10:08:07Z</time>
      </trkpt>
      <trkpt lat="43.89961" lon="5.15469">
        <ele>222.6</ele>
        <time>2023-02-25T10:08:09Z</time>
      </trkpt>
      <trkpt lat="43.89954" lon="5.15465">
        <ele>222.2</ele>
        <time>2023-02-25T10:08:13Z</time>
      </trkpt>
      <trkpt lat="43.89952" lon="5.15464">
        <ele>222</ele>
        <time>2023-02-25T10:08:14Z</time>
      </trkpt>
      <trkpt lat="43.89949" lon="5.15463">
        <ele>221.6</ele>
        <time>2023-02-25T10:08:16Z</time>
      </trkpt>
      <trkpt lat="43.89943" lon="5.15462">
        <ele>221.2</ele>
        <time>2023-02-25T10:08:20Z</time>
      </trkpt>
      <trkpt lat="43.89928" lon="5.15461">
        <ele>222.2</ele>
        <time>2023-02-25T10:08:30Z</time>
      </trkpt>
      <trkpt lat="43.89918" lon="5.15458">
        <ele>222</ele>
        <time>2023-02-25T10:08:37Z</time>
      </trkpt>
      <trkpt lat="43.89909" lon="5.15457">
        <ele>222.6</ele>
        <time>2023-02-25T10:08:43Z</time>
      </trkpt>
      <trkpt lat="43.89907" lon="5.15457">
        <ele>222.6</ele>
        <time>2023-02-25T10:08:45Z</time>
      </trkpt>
      <trkpt lat="43.89898" lon="5.15456">
        <ele>222.2</ele>
        <time>2023-02-25T10:08:52Z</time>
      </trkpt>
      <trkpt lat="43.89896" lon="5.15458">
        <ele>222.4</ele>
        <time>2023-02-25T10:08:54Z</time>
      </trkpt>
      <trkpt lat="43.89895" lon="5.1546">
        <ele>222.8</ele>
        <time>2023-02-25T10:08:56Z</time>
      </trkpt>
      <trkpt lat="43.89895" lon="5.15462">
        <ele>222.8</ele>
        <time>2023-02-25T10:08:57Z</time>
      </trkpt>
      <trkpt lat="43.89894" lon="5.15467">
        <ele>223.8</ele>
        <time>2023-02-25T10:09:00Z</time>
      </trkpt>
      <trkpt lat="43.89892" lon="5.15475">
        <ele>224.6</ele>
        <time>2023-02-25T10:09:04Z</time>
      </trkpt>
      <trkpt lat="43.89891" lon="5.1548">
        <ele>225</ele>
        <time>2023-02-25T10:09:06Z</time>
      </trkpt>
      <trkpt lat="43.89889" lon="5.15489">
        <ele>226.4</ele>
        <time>2023-02-25T10:09:11Z</time>
      </trkpt>
      <trkpt lat="43.89886" lon="5.15504">
        <ele>227</ele>
        <time>2023-02-25T10:09:19Z</time>
      </trkpt>
      <trkpt lat="43.89883" lon="5.15508">
        <ele>227.2</ele>
        <time>2023-02-25T10:09:22Z</time>
      </trkpt>
      <trkpt lat="43.89881" lon="5.15508">
        <ele>227.2</ele>
        <time>2023-02-25T10:09:24Z</time>
      </trkpt>
      <trkpt lat="43.89869" lon="5.15505">
        <ele>226.4</ele>
        <time>2023-02-25T10:09:31Z</time>
      </trkpt>
      <trkpt lat="43.89867" lon="5.15506">
        <ele>226</ele>
        <time>2023-02-25T10:09:32Z</time>
      </trkpt>
      <trkpt lat="43.89863" lon="5.15506">
        <ele>225.8</ele>
        <time>2023-02-25T10:09:34Z</time>
      </trkpt>
      <trkpt lat="43.89859" lon="5.15507">
        <ele>225.4</ele>
        <time>2023-02-25T10:09:37Z</time>
      </trkpt>
      <trkpt lat="43.89856" lon="5.15507">
        <ele>225.2</ele>
        <time>2023-02-25T10:09:39Z</time>
      </trkpt>
      <trkpt lat="43.89847" lon="5.15504">
        <ele>224</ele>
        <time>2023-02-25T10:09:45Z</time>
      </trkpt>
      <trkpt lat="43.89835" lon="5.155">
        <ele>223.2</ele>
        <time>2023-02-25T10:09:52Z</time>
      </trkpt>
      <trkpt lat="43.89831" lon="5.15497">
        <ele>222.8</ele>
        <time>2023-02-25T10:09:55Z</time>
      </trkpt>
      <trkpt lat="43.89827" lon="5.15491">
        <ele>221.8</ele>
        <time>2023-02-25T10:09:59Z</time>
      </trkpt>
      <trkpt lat="43.89825" lon="5.1549">
        <ele>221.8</ele>
        <time>2023-02-25T10:10:00Z</time>
      </trkpt>
      <trkpt lat="43.89815" lon="5.1548">
        <ele>220.8</ele>
        <time>2023-02-25T10:10:08Z</time>
      </trkpt>
      <trkpt lat="43.89813" lon="5.15479">
        <ele>220.6</ele>
        <time>2023-02-25T10:10:09Z</time>
      </trkpt>
      <trkpt lat="43.89811" lon="5.15479">
        <ele>220.4</ele>
        <time>2023-02-25T10:10:10Z</time>
      </trkpt>
      <trkpt lat="43.89807" lon="5.15478">
        <ele>219.6</ele>
        <time>2023-02-25T10:10:13Z</time>
      </trkpt>
      <trkpt lat="43.89805" lon="5.15477">
        <ele>219.4</ele>
        <time>2023-02-25T10:10:14Z</time>
      </trkpt>
      <trkpt lat="43.89798" lon="5.15468">
        <ele>218.8</ele>
        <time>2023-02-25T10:10:20Z</time>
      </trkpt>
      <trkpt lat="43.89788" lon="5.15461">
        <ele>218.4</ele>
        <time>2023-02-25T10:10:26Z</time>
      </trkpt>
      <trkpt lat="43.89781" lon="5.15454">
        <ele>217.8</ele>
        <time>2023-02-25T10:10:32Z</time>
      </trkpt>
      <trkpt lat="43.89778" lon="5.15453">
        <ele>217.4</ele>
        <time>2023-02-25T10:10:35Z</time>
      </trkpt>
      <trkpt lat="43.89775" lon="5.1545">
        <ele>217.2</ele>
        <time>2023-02-25T10:10:37Z</time>
      </trkpt>
      <trkpt lat="43.89773" lon="5.15447">
        <ele>217.2</ele>
        <time>2023-02-25T10:10:39Z</time>
      </trkpt>
      <trkpt lat="43.89764" lon="5.15443">
        <ele>216.2</ele>
        <time>2023-02-25T10:10:45Z</time>
      </trkpt>
      <trkpt lat="43.89762" lon="5.15442">
        <ele>216</ele>
        <time>2023-02-25T10:10:46Z</time>
      </trkpt>
      <trkpt lat="43.8976" lon="5.15441">
        <ele>216</ele>
        <time>2023-02-25T10:10:47Z</time>
      </trkpt>
      <trkpt lat="43.89756" lon="5.15442">
        <ele>215.6</ele>
        <time>2023-02-25T10:10:50Z</time>
      </trkpt>
      <trkpt lat="43.89755" lon="5.15444">
        <ele>215.4</ele>
        <time>2023-02-25T10:10:52Z</time>
      </trkpt>
      <trkpt lat="43.89752" lon="5.15445">
        <ele>215.4</ele>
        <time>2023-02-25T10:10:53Z</time>
      </trkpt>
      <trkpt lat="43.89746" lon="5.15446">
        <ele>215.2</ele>
        <time>2023-02-25T10:10:56Z</time>
      </trkpt>
      <trkpt lat="43.89745" lon="5.15444">
        <ele>215.2</ele>
        <time>2023-02-25T10:10:57Z</time>
      </trkpt>
      <trkpt lat="43.89738" lon="5.15434">
        <ele>214.4</ele>
        <time>2023-02-25T10:11:03Z</time>
      </trkpt>
      <trkpt lat="43.89737" lon="5.15435">
        <ele>214.4</ele>
        <time>2023-02-25T10:11:04Z</time>
      </trkpt>
    </trkseg>
  </trk>
</gpx>